<?xml version="1.0" encoding="UTF-8" standalone="no" ?>
<gpx xmlns="http://www.topografix.com/GPX/1/1" xmlns:xsi="http://www.w3.org/2001/XMLSchema-instance" xsi:schemaLocation="http://www.topografix.com/GPX/1/1 http://www.topografix.com/GPX/1/1/gpx.xsd" version="1.1" creator="VisuGPX - https://www.visugpx.com">
  <metadata>
    <name>Le Petit Peygu 2620 (cima sciistica)</name>
    <desc><![CDATA[Le Laus - Le Petit Peygu 2620 (cima sciistica)]]></desc>
  </metadata>
  <trk>
    <name><![CDATA[Petit_Peygus_2620_29 DIC 2018]]></name>
    <trkseg>
      <trkpt lat="44.85766" lon="6.72552">
        <ele>1753.58</ele>
        <time>2018-12-29T08:10:03Z</time>
      </trkpt>
      <trkpt lat="44.85769" lon="6.72549">
        <ele>1751.18</ele>
        <time>2018-12-29T08:10:21Z</time>
      </trkpt>
      <trkpt lat="44.8577" lon="6.72548">
        <ele>1751.18</ele>
        <time>2018-12-29T08:10:56Z</time>
      </trkpt>
      <trkpt lat="44.85771" lon="6.72549">
        <ele>1751.18</ele>
        <time>2018-12-29T08:11:16Z</time>
      </trkpt>
      <trkpt lat="44.8577" lon="6.7255">
        <ele>1751.18</ele>
        <time>2018-12-29T08:12:00Z</time>
      </trkpt>
      <trkpt lat="44.85772" lon="6.72552">
        <ele>1751.18</ele>
        <time>2018-12-29T08:12:22Z</time>
      </trkpt>
      <trkpt lat="44.85773" lon="6.7255">
        <ele>1750.7</ele>
        <time>2018-12-29T08:12:57Z</time>
      </trkpt>
      <trkpt lat="44.85771" lon="6.72551">
        <ele>1750.7</ele>
        <time>2018-12-29T08:13:31Z</time>
      </trkpt>
      <trkpt lat="44.85772" lon="6.72552">
        <ele>1750.7</ele>
        <time>2018-12-29T08:14:03Z</time>
      </trkpt>
      <trkpt lat="44.85772" lon="6.72552">
        <ele>1750.7</ele>
        <time>2018-12-29T08:14:38Z</time>
      </trkpt>
      <trkpt lat="44.85771" lon="6.72551">
        <ele>1750.7</ele>
        <time>2018-12-29T08:15:22Z</time>
      </trkpt>
      <trkpt lat="44.8577" lon="6.72551">
        <ele>1750.22</ele>
        <time>2018-12-29T08:15:54Z</time>
      </trkpt>
      <trkpt lat="44.85771" lon="6.7255">
        <ele>1750.22</ele>
        <time>2018-12-29T08:16:20Z</time>
      </trkpt>
      <trkpt lat="44.85772" lon="6.72552">
        <ele>1750.22</ele>
        <time>2018-12-29T08:16:49Z</time>
      </trkpt>
      <trkpt lat="44.85773" lon="6.72552">
        <ele>1751.18</ele>
        <time>2018-12-29T08:17:15Z</time>
      </trkpt>
      <trkpt lat="44.8577" lon="6.7255">
        <ele>1751.18</ele>
        <time>2018-12-29T08:17:28Z</time>
      </trkpt>
      <trkpt lat="44.85766" lon="6.72553">
        <ele>1751.66</ele>
        <time>2018-12-29T08:17:43Z</time>
      </trkpt>
      <trkpt lat="44.85763" lon="6.72562">
        <ele>1751.66</ele>
        <time>2018-12-29T08:17:56Z</time>
      </trkpt>
      <trkpt lat="44.85758" lon="6.72563">
        <ele>1752.14</ele>
        <time>2018-12-29T08:18:08Z</time>
      </trkpt>
      <trkpt lat="44.85751" lon="6.72572">
        <ele>1752.14</ele>
        <time>2018-12-29T08:18:23Z</time>
      </trkpt>
      <trkpt lat="44.85746" lon="6.72575">
        <ele>1752.62</ele>
        <time>2018-12-29T08:18:37Z</time>
      </trkpt>
      <trkpt lat="44.85738" lon="6.72588">
        <ele>1753.1</ele>
        <time>2018-12-29T08:18:51Z</time>
      </trkpt>
      <trkpt lat="44.85728" lon="6.72595">
        <ele>1754.06</ele>
        <time>2018-12-29T08:19:06Z</time>
      </trkpt>
      <trkpt lat="44.85719" lon="6.726">
        <ele>1755.02</ele>
        <time>2018-12-29T08:19:22Z</time>
      </trkpt>
      <trkpt lat="44.85717" lon="6.72601">
        <ele>1755.02</ele>
        <time>2018-12-29T08:19:34Z</time>
      </trkpt>
      <trkpt lat="44.8571" lon="6.72594">
        <ele>1756.95</ele>
        <time>2018-12-29T08:19:47Z</time>
      </trkpt>
      <trkpt lat="44.85709" lon="6.7259">
        <ele>1757.91</ele>
        <time>2018-12-29T08:20:00Z</time>
      </trkpt>
      <trkpt lat="44.85708" lon="6.72587">
        <ele>1757.91</ele>
        <time>2018-12-29T08:20:25Z</time>
      </trkpt>
      <trkpt lat="44.85705" lon="6.72584">
        <ele>1758.39</ele>
        <time>2018-12-29T08:20:38Z</time>
      </trkpt>
      <trkpt lat="44.85704" lon="6.72584">
        <ele>1758.39</ele>
        <time>2018-12-29T08:20:52Z</time>
      </trkpt>
      <trkpt lat="44.85707" lon="6.72583">
        <ele>1758.39</ele>
        <time>2018-12-29T08:21:08Z</time>
      </trkpt>
      <trkpt lat="44.85706" lon="6.72583">
        <ele>1758.39</ele>
        <time>2018-12-29T08:21:23Z</time>
      </trkpt>
      <trkpt lat="44.85707" lon="6.72588">
        <ele>1757.91</ele>
        <time>2018-12-29T08:21:42Z</time>
      </trkpt>
      <trkpt lat="44.85708" lon="6.72587">
        <ele>1757.43</ele>
        <time>2018-12-29T08:21:58Z</time>
      </trkpt>
      <trkpt lat="44.85707" lon="6.72588">
        <ele>1757.43</ele>
        <time>2018-12-29T08:22:15Z</time>
      </trkpt>
      <trkpt lat="44.85707" lon="6.72587">
        <ele>1757.43</ele>
        <time>2018-12-29T08:22:35Z</time>
      </trkpt>
      <trkpt lat="44.85707" lon="6.72583">
        <ele>1757.91</ele>
        <time>2018-12-29T08:22:53Z</time>
      </trkpt>
      <trkpt lat="44.85704" lon="6.72584">
        <ele>1757.91</ele>
        <time>2018-12-29T08:23:06Z</time>
      </trkpt>
      <trkpt lat="44.85701" lon="6.72581">
        <ele>1758.87</ele>
        <time>2018-12-29T08:23:23Z</time>
      </trkpt>
      <trkpt lat="44.85697" lon="6.72578">
        <ele>1758.87</ele>
        <time>2018-12-29T08:23:38Z</time>
      </trkpt>
      <trkpt lat="44.85694" lon="6.72575">
        <ele>1759.83</ele>
        <time>2018-12-29T08:23:52Z</time>
      </trkpt>
      <trkpt lat="44.85689" lon="6.72573">
        <ele>1760.79</ele>
        <time>2018-12-29T08:24:05Z</time>
      </trkpt>
      <trkpt lat="44.85681" lon="6.72568">
        <ele>1762.23</ele>
        <time>2018-12-29T08:24:18Z</time>
      </trkpt>
      <trkpt lat="44.85677" lon="6.72565">
        <ele>1762.71</ele>
        <time>2018-12-29T08:24:32Z</time>
      </trkpt>
      <trkpt lat="44.85674" lon="6.72562">
        <ele>1762.71</ele>
        <time>2018-12-29T08:24:37Z</time>
      </trkpt>
      <trkpt lat="44.85667" lon="6.72556">
        <ele>1763.68</ele>
        <time>2018-12-29T08:24:46Z</time>
      </trkpt>
      <trkpt lat="44.85658" lon="6.72554">
        <ele>1765.12</ele>
        <time>2018-12-29T08:24:59Z</time>
      </trkpt>
      <trkpt lat="44.85652" lon="6.72545">
        <ele>1766.56</ele>
        <time>2018-12-29T08:25:13Z</time>
      </trkpt>
      <trkpt lat="44.85645" lon="6.72538">
        <ele>1767.52</ele>
        <time>2018-12-29T08:25:27Z</time>
      </trkpt>
      <trkpt lat="44.85641" lon="6.72533">
        <ele>1768.96</ele>
        <time>2018-12-29T08:25:39Z</time>
      </trkpt>
      <trkpt lat="44.85637" lon="6.72531">
        <ele>1768.96</ele>
        <time>2018-12-29T08:25:50Z</time>
      </trkpt>
      <trkpt lat="44.85633" lon="6.72529">
        <ele>1768.96</ele>
        <time>2018-12-29T08:26:04Z</time>
      </trkpt>
      <trkpt lat="44.85626" lon="6.72528">
        <ele>1770.41</ele>
        <time>2018-12-29T08:26:15Z</time>
      </trkpt>
      <trkpt lat="44.85621" lon="6.7253">
        <ele>1770.89</ele>
        <time>2018-12-29T08:26:26Z</time>
      </trkpt>
      <trkpt lat="44.85616" lon="6.72528">
        <ele>1772.81</ele>
        <time>2018-12-29T08:26:38Z</time>
      </trkpt>
      <trkpt lat="44.8561" lon="6.72521">
        <ele>1774.25</ele>
        <time>2018-12-29T08:26:50Z</time>
      </trkpt>
      <trkpt lat="44.85602" lon="6.72512">
        <ele>1775.69</ele>
        <time>2018-12-29T08:27:02Z</time>
      </trkpt>
      <trkpt lat="44.85594" lon="6.72503">
        <ele>1777.61</ele>
        <time>2018-12-29T08:27:17Z</time>
      </trkpt>
      <trkpt lat="44.85592" lon="6.72502">
        <ele>1778.58</ele>
        <time>2018-12-29T08:27:20Z</time>
      </trkpt>
      <trkpt lat="44.85583" lon="6.72493">
        <ele>1780.02</ele>
        <time>2018-12-29T08:27:33Z</time>
      </trkpt>
      <trkpt lat="44.85582" lon="6.72492">
        <ele>1780.02</ele>
        <time>2018-12-29T08:27:34Z</time>
      </trkpt>
      <trkpt lat="44.85574" lon="6.72482">
        <ele>1782.42</ele>
        <time>2018-12-29T08:27:48Z</time>
      </trkpt>
      <trkpt lat="44.85569" lon="6.72477">
        <ele>1783.86</ele>
        <time>2018-12-29T08:27:59Z</time>
      </trkpt>
      <trkpt lat="44.85566" lon="6.72475">
        <ele>1784.82</ele>
        <time>2018-12-29T08:28:07Z</time>
      </trkpt>
      <trkpt lat="44.85563" lon="6.72471">
        <ele>1785.31</ele>
        <time>2018-12-29T08:28:10Z</time>
      </trkpt>
      <trkpt lat="44.85555" lon="6.72464">
        <ele>1786.75</ele>
        <time>2018-12-29T08:28:24Z</time>
      </trkpt>
      <trkpt lat="44.8555" lon="6.72464">
        <ele>1787.23</ele>
        <time>2018-12-29T08:28:35Z</time>
      </trkpt>
      <trkpt lat="44.85548" lon="6.72458">
        <ele>1787.71</ele>
        <time>2018-12-29T08:28:45Z</time>
      </trkpt>
      <trkpt lat="44.85545" lon="6.72455">
        <ele>1788.67</ele>
        <time>2018-12-29T08:28:49Z</time>
      </trkpt>
      <trkpt lat="44.85538" lon="6.72445">
        <ele>1790.59</ele>
        <time>2018-12-29T08:29:01Z</time>
      </trkpt>
      <trkpt lat="44.85532" lon="6.72433">
        <ele>1792.03</ele>
        <time>2018-12-29T08:29:15Z</time>
      </trkpt>
      <trkpt lat="44.85526" lon="6.72425">
        <ele>1793.48</ele>
        <time>2018-12-29T08:29:28Z</time>
      </trkpt>
      <trkpt lat="44.85523" lon="6.72413">
        <ele>1794.92</ele>
        <time>2018-12-29T08:29:40Z</time>
      </trkpt>
      <trkpt lat="44.85522" lon="6.7241">
        <ele>1795.4</ele>
        <time>2018-12-29T08:29:43Z</time>
      </trkpt>
      <trkpt lat="44.85516" lon="6.724">
        <ele>1797.32</ele>
        <time>2018-12-29T08:29:57Z</time>
      </trkpt>
      <trkpt lat="44.85512" lon="6.7239">
        <ele>1798.76</ele>
        <time>2018-12-29T08:30:09Z</time>
      </trkpt>
      <trkpt lat="44.85507" lon="6.7238">
        <ele>1800.21</ele>
        <time>2018-12-29T08:30:23Z</time>
      </trkpt>
      <trkpt lat="44.85503" lon="6.7237">
        <ele>1802.13</ele>
        <time>2018-12-29T08:30:36Z</time>
      </trkpt>
      <trkpt lat="44.85497" lon="6.72359">
        <ele>1803.57</ele>
        <time>2018-12-29T08:30:50Z</time>
      </trkpt>
      <trkpt lat="44.85493" lon="6.72345">
        <ele>1805.49</ele>
        <time>2018-12-29T08:31:05Z</time>
      </trkpt>
      <trkpt lat="44.8549" lon="6.72336">
        <ele>1807.9</ele>
        <time>2018-12-29T08:31:17Z</time>
      </trkpt>
      <trkpt lat="44.85486" lon="6.72326">
        <ele>1807.9</ele>
        <time>2018-12-29T08:31:29Z</time>
      </trkpt>
      <trkpt lat="44.85486" lon="6.72317">
        <ele>1809.82</ele>
        <time>2018-12-29T08:31:43Z</time>
      </trkpt>
      <trkpt lat="44.85482" lon="6.72305">
        <ele>1811.26</ele>
        <time>2018-12-29T08:31:53Z</time>
      </trkpt>
      <trkpt lat="44.85477" lon="6.72295">
        <ele>1812.22</ele>
        <time>2018-12-29T08:32:06Z</time>
      </trkpt>
      <trkpt lat="44.8547" lon="6.72286">
        <ele>1814.63</ele>
        <time>2018-12-29T08:32:20Z</time>
      </trkpt>
      <trkpt lat="44.85466" lon="6.72288">
        <ele>1814.63</ele>
        <time>2018-12-29T08:32:31Z</time>
      </trkpt>
      <trkpt lat="44.85467" lon="6.7229">
        <ele>1815.11</ele>
        <time>2018-12-29T08:32:52Z</time>
      </trkpt>
      <trkpt lat="44.8547" lon="6.72289">
        <ele>1814.63</ele>
        <time>2018-12-29T08:33:18Z</time>
      </trkpt>
      <trkpt lat="44.85464" lon="6.72283">
        <ele>1815.11</ele>
        <time>2018-12-29T08:33:33Z</time>
      </trkpt>
      <trkpt lat="44.85463" lon="6.72276">
        <ele>1816.07</ele>
        <time>2018-12-29T08:33:49Z</time>
      </trkpt>
      <trkpt lat="44.8547" lon="6.72275">
        <ele>1817.51</ele>
        <time>2018-12-29T08:34:14Z</time>
      </trkpt>
      <trkpt lat="44.85454" lon="6.7227">
        <ele>1817.99</ele>
        <time>2018-12-29T08:34:28Z</time>
      </trkpt>
      <trkpt lat="44.85446" lon="6.72263">
        <ele>1819.43</ele>
        <time>2018-12-29T08:34:40Z</time>
      </trkpt>
      <trkpt lat="44.8544" lon="6.72254">
        <ele>1821.35</ele>
        <time>2018-12-29T08:34:52Z</time>
      </trkpt>
      <trkpt lat="44.85437" lon="6.72251">
        <ele>1821.84</ele>
        <time>2018-12-29T08:34:57Z</time>
      </trkpt>
      <trkpt lat="44.85428" lon="6.72245">
        <ele>1824.24</ele>
        <time>2018-12-29T08:35:12Z</time>
      </trkpt>
      <trkpt lat="44.85429" lon="6.72232">
        <ele>1825.68</ele>
        <time>2018-12-29T08:35:26Z</time>
      </trkpt>
      <trkpt lat="44.85429" lon="6.72231">
        <ele>1825.68</ele>
        <time>2018-12-29T08:35:27Z</time>
      </trkpt>
      <trkpt lat="44.85428" lon="6.72217">
        <ele>1827.12</ele>
        <time>2018-12-29T08:35:41Z</time>
      </trkpt>
      <trkpt lat="44.85426" lon="6.72206">
        <ele>1828.56</ele>
        <time>2018-12-29T08:35:53Z</time>
      </trkpt>
      <trkpt lat="44.85419" lon="6.72198">
        <ele>1830.01</ele>
        <time>2018-12-29T08:36:05Z</time>
      </trkpt>
      <trkpt lat="44.8541" lon="6.72186">
        <ele>1831.45</ele>
        <time>2018-12-29T08:36:18Z</time>
      </trkpt>
      <trkpt lat="44.85406" lon="6.72174">
        <ele>1833.37</ele>
        <time>2018-12-29T08:36:31Z</time>
      </trkpt>
      <trkpt lat="44.85402" lon="6.72168">
        <ele>1834.81</ele>
        <time>2018-12-29T08:36:41Z</time>
      </trkpt>
      <trkpt lat="44.85392" lon="6.7216">
        <ele>1837.22</ele>
        <time>2018-12-29T08:36:57Z</time>
      </trkpt>
      <trkpt lat="44.85388" lon="6.7215">
        <ele>1839.14</ele>
        <time>2018-12-29T08:37:10Z</time>
      </trkpt>
      <trkpt lat="44.8539" lon="6.7214">
        <ele>1840.58</ele>
        <time>2018-12-29T08:37:27Z</time>
      </trkpt>
      <trkpt lat="44.85389" lon="6.72129">
        <ele>1842.02</ele>
        <time>2018-12-29T08:37:40Z</time>
      </trkpt>
      <trkpt lat="44.85384" lon="6.72119">
        <ele>1843.95</ele>
        <time>2018-12-29T08:37:54Z</time>
      </trkpt>
      <trkpt lat="44.85383" lon="6.72116">
        <ele>1843.95</ele>
        <time>2018-12-29T08:37:57Z</time>
      </trkpt>
      <trkpt lat="44.85379" lon="6.72108">
        <ele>1845.39</ele>
        <time>2018-12-29T08:38:10Z</time>
      </trkpt>
      <trkpt lat="44.85375" lon="6.72104">
        <ele>1846.35</ele>
        <time>2018-12-29T08:38:19Z</time>
      </trkpt>
      <trkpt lat="44.8537" lon="6.72094">
        <ele>1847.79</ele>
        <time>2018-12-29T08:38:31Z</time>
      </trkpt>
      <trkpt lat="44.85365" lon="6.72085">
        <ele>1850.68</ele>
        <time>2018-12-29T08:38:45Z</time>
      </trkpt>
      <trkpt lat="44.85359" lon="6.72075">
        <ele>1852.6</ele>
        <time>2018-12-29T08:39:00Z</time>
      </trkpt>
      <trkpt lat="44.85358" lon="6.72062">
        <ele>1854.04</ele>
        <time>2018-12-29T08:39:14Z</time>
      </trkpt>
      <trkpt lat="44.8535" lon="6.72049">
        <ele>1855.96</ele>
        <time>2018-12-29T08:39:29Z</time>
      </trkpt>
      <trkpt lat="44.85345" lon="6.7204">
        <ele>1857.4</ele>
        <time>2018-12-29T08:39:40Z</time>
      </trkpt>
      <trkpt lat="44.85334" lon="6.72029">
        <ele>1859.33</ele>
        <time>2018-12-29T08:39:55Z</time>
      </trkpt>
      <trkpt lat="44.8533" lon="6.72019">
        <ele>1860.77</ele>
        <time>2018-12-29T08:40:08Z</time>
      </trkpt>
      <trkpt lat="44.85324" lon="6.7201">
        <ele>1862.21</ele>
        <time>2018-12-29T08:40:21Z</time>
      </trkpt>
      <trkpt lat="44.85318" lon="6.72003">
        <ele>1864.61</ele>
        <time>2018-12-29T08:40:35Z</time>
      </trkpt>
      <trkpt lat="44.85317" lon="6.71994">
        <ele>1866.06</ele>
        <time>2018-12-29T08:40:49Z</time>
      </trkpt>
      <trkpt lat="44.85317" lon="6.71986">
        <ele>1867.5</ele>
        <time>2018-12-29T08:41:04Z</time>
      </trkpt>
      <trkpt lat="44.85312" lon="6.71979">
        <ele>1869.42</ele>
        <time>2018-12-29T08:41:14Z</time>
      </trkpt>
      <trkpt lat="44.85311" lon="6.71965">
        <ele>1870.86</ele>
        <time>2018-12-29T08:41:30Z</time>
      </trkpt>
      <trkpt lat="44.8531" lon="6.71955">
        <ele>1872.79</ele>
        <time>2018-12-29T08:41:43Z</time>
      </trkpt>
      <trkpt lat="44.85308" lon="6.71945">
        <ele>1874.23</ele>
        <time>2018-12-29T08:41:55Z</time>
      </trkpt>
      <trkpt lat="44.85302" lon="6.7194">
        <ele>1875.67</ele>
        <time>2018-12-29T08:42:06Z</time>
      </trkpt>
      <trkpt lat="44.85298" lon="6.71927">
        <ele>1877.59</ele>
        <time>2018-12-29T08:42:21Z</time>
      </trkpt>
      <trkpt lat="44.85299" lon="6.71915">
        <ele>1880.48</ele>
        <time>2018-12-29T08:42:38Z</time>
      </trkpt>
      <trkpt lat="44.85298" lon="6.71901">
        <ele>1882.4</ele>
        <time>2018-12-29T08:42:56Z</time>
      </trkpt>
      <trkpt lat="44.85292" lon="6.71888">
        <ele>1884.8</ele>
        <time>2018-12-29T08:43:12Z</time>
      </trkpt>
      <trkpt lat="44.85288" lon="6.7188">
        <ele>1885.76</ele>
        <time>2018-12-29T08:43:26Z</time>
      </trkpt>
      <trkpt lat="44.85289" lon="6.71881">
        <ele>1884.8</ele>
        <time>2018-12-29T08:43:54Z</time>
      </trkpt>
      <trkpt lat="44.85289" lon="6.71877">
        <ele>1886.24</ele>
        <time>2018-12-29T08:44:21Z</time>
      </trkpt>
      <trkpt lat="44.85296" lon="6.71881">
        <ele>1885.76</ele>
        <time>2018-12-29T08:44:42Z</time>
      </trkpt>
      <trkpt lat="44.85297" lon="6.71882">
        <ele>1886.24</ele>
        <time>2018-12-29T08:45:12Z</time>
      </trkpt>
      <trkpt lat="44.85293" lon="6.71872">
        <ele>1887.21</ele>
        <time>2018-12-29T08:45:29Z</time>
      </trkpt>
      <trkpt lat="44.85292" lon="6.71858">
        <ele>1889.61</ele>
        <time>2018-12-29T08:45:45Z</time>
      </trkpt>
      <trkpt lat="44.85294" lon="6.71847">
        <ele>1891.53</ele>
        <time>2018-12-29T08:45:59Z</time>
      </trkpt>
      <trkpt lat="44.8529" lon="6.71833">
        <ele>1893.45</ele>
        <time>2018-12-29T08:46:14Z</time>
      </trkpt>
      <trkpt lat="44.8529" lon="6.71818">
        <ele>1895.38</ele>
        <time>2018-12-29T08:46:29Z</time>
      </trkpt>
      <trkpt lat="44.85288" lon="6.71806">
        <ele>1897.3</ele>
        <time>2018-12-29T08:46:42Z</time>
      </trkpt>
      <trkpt lat="44.85282" lon="6.71792">
        <ele>1899.22</ele>
        <time>2018-12-29T08:46:57Z</time>
      </trkpt>
      <trkpt lat="44.85279" lon="6.71781">
        <ele>1901.14</ele>
        <time>2018-12-29T08:47:10Z</time>
      </trkpt>
      <trkpt lat="44.85279" lon="6.71769">
        <ele>1903.07</ele>
        <time>2018-12-29T08:47:26Z</time>
      </trkpt>
      <trkpt lat="44.85273" lon="6.71755">
        <ele>1904.51</ele>
        <time>2018-12-29T08:47:42Z</time>
      </trkpt>
      <trkpt lat="44.85272" lon="6.71749">
        <ele>1905.47</ele>
        <time>2018-12-29T08:47:54Z</time>
      </trkpt>
      <trkpt lat="44.85265" lon="6.71748">
        <ele>1906.43</ele>
        <time>2018-12-29T08:48:04Z</time>
      </trkpt>
      <trkpt lat="44.85256" lon="6.71738">
        <ele>1907.39</ele>
        <time>2018-12-29T08:48:17Z</time>
      </trkpt>
      <trkpt lat="44.8525" lon="6.71731">
        <ele>1908.83</ele>
        <time>2018-12-29T08:48:30Z</time>
      </trkpt>
      <trkpt lat="44.85243" lon="6.71721">
        <ele>1910.76</ele>
        <time>2018-12-29T08:48:47Z</time>
      </trkpt>
      <trkpt lat="44.85237" lon="6.71713">
        <ele>1912.2</ele>
        <time>2018-12-29T08:48:59Z</time>
      </trkpt>
      <trkpt lat="44.85233" lon="6.71706">
        <ele>1913.64</ele>
        <time>2018-12-29T08:49:11Z</time>
      </trkpt>
      <trkpt lat="44.85228" lon="6.71705">
        <ele>1915.56</ele>
        <time>2018-12-29T08:49:26Z</time>
      </trkpt>
      <trkpt lat="44.85215" lon="6.71696">
        <ele>1917.49</ele>
        <time>2018-12-29T08:49:47Z</time>
      </trkpt>
      <trkpt lat="44.85211" lon="6.71702">
        <ele>1917.97</ele>
        <time>2018-12-29T08:50:03Z</time>
      </trkpt>
      <trkpt lat="44.852" lon="6.71694">
        <ele>1920.37</ele>
        <time>2018-12-29T08:50:20Z</time>
      </trkpt>
      <trkpt lat="44.8519" lon="6.71687">
        <ele>1922.29</ele>
        <time>2018-12-29T08:50:35Z</time>
      </trkpt>
      <trkpt lat="44.85182" lon="6.71684">
        <ele>1924.7</ele>
        <time>2018-12-29T08:50:53Z</time>
      </trkpt>
      <trkpt lat="44.85177" lon="6.71677">
        <ele>1926.14</ele>
        <time>2018-12-29T08:51:07Z</time>
      </trkpt>
      <trkpt lat="44.85169" lon="6.71677">
        <ele>1928.06</ele>
        <time>2018-12-29T08:51:22Z</time>
      </trkpt>
      <trkpt lat="44.85163" lon="6.71674">
        <ele>1929.5</ele>
        <time>2018-12-29T08:51:38Z</time>
      </trkpt>
      <trkpt lat="44.85161" lon="6.71678">
        <ele>1929.5</ele>
        <time>2018-12-29T08:51:53Z</time>
      </trkpt>
      <trkpt lat="44.85165" lon="6.71677">
        <ele>1929.5</ele>
        <time>2018-12-29T08:52:21Z</time>
      </trkpt>
      <trkpt lat="44.85166" lon="6.71673">
        <ele>1929.98</ele>
        <time>2018-12-29T08:52:34Z</time>
      </trkpt>
      <trkpt lat="44.85167" lon="6.71665">
        <ele>1930.95</ele>
        <time>2018-12-29T08:52:46Z</time>
      </trkpt>
      <trkpt lat="44.85166" lon="6.71656">
        <ele>1932.39</ele>
        <time>2018-12-29T08:52:57Z</time>
      </trkpt>
      <trkpt lat="44.85168" lon="6.71647">
        <ele>1933.83</ele>
        <time>2018-12-29T08:53:09Z</time>
      </trkpt>
      <trkpt lat="44.85168" lon="6.71637">
        <ele>1935.27</ele>
        <time>2018-12-29T08:53:22Z</time>
      </trkpt>
      <trkpt lat="44.8517" lon="6.71629">
        <ele>1937.19</ele>
        <time>2018-12-29T08:53:35Z</time>
      </trkpt>
      <trkpt lat="44.85171" lon="6.7162">
        <ele>1938.64</ele>
        <time>2018-12-29T08:53:50Z</time>
      </trkpt>
      <trkpt lat="44.85174" lon="6.71609">
        <ele>1940.56</ele>
        <time>2018-12-29T08:54:04Z</time>
      </trkpt>
      <trkpt lat="44.85172" lon="6.71602">
        <ele>1942</ele>
        <time>2018-12-29T08:54:16Z</time>
      </trkpt>
      <trkpt lat="44.85164" lon="6.716">
        <ele>1943.92</ele>
        <time>2018-12-29T08:54:29Z</time>
      </trkpt>
      <trkpt lat="44.85153" lon="6.71595">
        <ele>1945.36</ele>
        <time>2018-12-29T08:54:47Z</time>
      </trkpt>
      <trkpt lat="44.85145" lon="6.71595">
        <ele>1947.29</ele>
        <time>2018-12-29T08:55:02Z</time>
      </trkpt>
      <trkpt lat="44.85139" lon="6.71594">
        <ele>1949.21</ele>
        <time>2018-12-29T08:55:17Z</time>
      </trkpt>
      <trkpt lat="44.85131" lon="6.7159">
        <ele>1951.13</ele>
        <time>2018-12-29T08:55:31Z</time>
      </trkpt>
      <trkpt lat="44.85126" lon="6.71586">
        <ele>1953.06</ele>
        <time>2018-12-29T08:55:46Z</time>
      </trkpt>
      <trkpt lat="44.85119" lon="6.71583">
        <ele>1954.98</ele>
        <time>2018-12-29T08:56:02Z</time>
      </trkpt>
      <trkpt lat="44.85114" lon="6.7158">
        <ele>1956.42</ele>
        <time>2018-12-29T08:56:14Z</time>
      </trkpt>
      <trkpt lat="44.8511" lon="6.71577">
        <ele>1957.86</ele>
        <time>2018-12-29T08:56:26Z</time>
      </trkpt>
      <trkpt lat="44.85106" lon="6.71572">
        <ele>1959.78</ele>
        <time>2018-12-29T08:56:41Z</time>
      </trkpt>
      <trkpt lat="44.85107" lon="6.71568">
        <ele>1961.71</ele>
        <time>2018-12-29T08:56:56Z</time>
      </trkpt>
      <trkpt lat="44.85111" lon="6.71562">
        <ele>1963.15</ele>
        <time>2018-12-29T08:57:12Z</time>
      </trkpt>
      <trkpt lat="44.85115" lon="6.71556">
        <ele>1965.07</ele>
        <time>2018-12-29T08:57:27Z</time>
      </trkpt>
      <trkpt lat="44.85117" lon="6.71549">
        <ele>1966.51</ele>
        <time>2018-12-29T08:57:39Z</time>
      </trkpt>
      <trkpt lat="44.85119" lon="6.71543">
        <ele>1967.96</ele>
        <time>2018-12-29T08:57:53Z</time>
      </trkpt>
      <trkpt lat="44.85123" lon="6.71536">
        <ele>1969.88</ele>
        <time>2018-12-29T08:58:08Z</time>
      </trkpt>
      <trkpt lat="44.85125" lon="6.7153">
        <ele>1971.32</ele>
        <time>2018-12-29T08:58:20Z</time>
      </trkpt>
      <trkpt lat="44.85123" lon="6.71523">
        <ele>1973.24</ele>
        <time>2018-12-29T08:58:33Z</time>
      </trkpt>
      <trkpt lat="44.85117" lon="6.71519">
        <ele>1975.17</ele>
        <time>2018-12-29T08:58:46Z</time>
      </trkpt>
      <trkpt lat="44.8511" lon="6.71516">
        <ele>1977.09</ele>
        <time>2018-12-29T08:59:00Z</time>
      </trkpt>
      <trkpt lat="44.85104" lon="6.71514">
        <ele>1979.01</ele>
        <time>2018-12-29T08:59:14Z</time>
      </trkpt>
      <trkpt lat="44.851" lon="6.71511">
        <ele>1980.45</ele>
        <time>2018-12-29T08:59:27Z</time>
      </trkpt>
      <trkpt lat="44.85095" lon="6.71508">
        <ele>1982.38</ele>
        <time>2018-12-29T08:59:43Z</time>
      </trkpt>
      <trkpt lat="44.85089" lon="6.71507">
        <ele>1983.82</ele>
        <time>2018-12-29T08:59:58Z</time>
      </trkpt>
      <trkpt lat="44.85088" lon="6.71505">
        <ele>1985.74</ele>
        <time>2018-12-29T09:00:13Z</time>
      </trkpt>
      <trkpt lat="44.85092" lon="6.71501">
        <ele>1986.7</ele>
        <time>2018-12-29T09:00:26Z</time>
      </trkpt>
      <trkpt lat="44.85096" lon="6.71496">
        <ele>1988.14</ele>
        <time>2018-12-29T09:00:41Z</time>
      </trkpt>
      <trkpt lat="44.85096" lon="6.71491">
        <ele>1989.59</ele>
        <time>2018-12-29T09:00:54Z</time>
      </trkpt>
      <trkpt lat="44.851" lon="6.71485">
        <ele>1990.55</ele>
        <time>2018-12-29T09:01:08Z</time>
      </trkpt>
      <trkpt lat="44.85098" lon="6.71486">
        <ele>1990.55</ele>
        <time>2018-12-29T09:01:25Z</time>
      </trkpt>
      <trkpt lat="44.85102" lon="6.71491">
        <ele>1989.59</ele>
        <time>2018-12-29T09:01:43Z</time>
      </trkpt>
      <trkpt lat="44.85102" lon="6.71488">
        <ele>1989.1</ele>
        <time>2018-12-29T09:02:00Z</time>
      </trkpt>
      <trkpt lat="44.85099" lon="6.71487">
        <ele>1989.59</ele>
        <time>2018-12-29T09:02:14Z</time>
      </trkpt>
      <trkpt lat="44.85093" lon="6.71483">
        <ele>1989.59</ele>
        <time>2018-12-29T09:02:42Z</time>
      </trkpt>
      <trkpt lat="44.85095" lon="6.71484">
        <ele>1989.59</ele>
        <time>2018-12-29T09:02:56Z</time>
      </trkpt>
      <trkpt lat="44.85093" lon="6.71486">
        <ele>1989.59</ele>
        <time>2018-12-29T09:03:07Z</time>
      </trkpt>
      <trkpt lat="44.85095" lon="6.71488">
        <ele>1990.07</ele>
        <time>2018-12-29T09:03:19Z</time>
      </trkpt>
      <trkpt lat="44.851" lon="6.71491">
        <ele>1989.59</ele>
        <time>2018-12-29T09:03:35Z</time>
      </trkpt>
      <trkpt lat="44.85104" lon="6.7149">
        <ele>1990.07</ele>
        <time>2018-12-29T09:03:51Z</time>
      </trkpt>
      <trkpt lat="44.85103" lon="6.71484">
        <ele>1991.51</ele>
        <time>2018-12-29T09:04:10Z</time>
      </trkpt>
      <trkpt lat="44.85104" lon="6.71475">
        <ele>1992.95</ele>
        <time>2018-12-29T09:04:24Z</time>
      </trkpt>
      <trkpt lat="44.85104" lon="6.71464">
        <ele>1995.83</ele>
        <time>2018-12-29T09:04:42Z</time>
      </trkpt>
      <trkpt lat="44.85108" lon="6.71456">
        <ele>1997.28</ele>
        <time>2018-12-29T09:04:58Z</time>
      </trkpt>
      <trkpt lat="44.8511" lon="6.71447">
        <ele>1999.68</ele>
        <time>2018-12-29T09:05:14Z</time>
      </trkpt>
      <trkpt lat="44.85113" lon="6.71443">
        <ele>2000.64</ele>
        <time>2018-12-29T09:05:28Z</time>
      </trkpt>
      <trkpt lat="44.85118" lon="6.71437">
        <ele>2003.04</ele>
        <time>2018-12-29T09:05:44Z</time>
      </trkpt>
      <trkpt lat="44.85113" lon="6.71432">
        <ele>2004.49</ele>
        <time>2018-12-29T09:05:57Z</time>
      </trkpt>
      <trkpt lat="44.85103" lon="6.71428">
        <ele>2005.45</ele>
        <time>2018-12-29T09:06:11Z</time>
      </trkpt>
      <trkpt lat="44.85098" lon="6.71428">
        <ele>2006.89</ele>
        <time>2018-12-29T09:06:23Z</time>
      </trkpt>
      <trkpt lat="44.85091" lon="6.71425">
        <ele>2008.33</ele>
        <time>2018-12-29T09:06:37Z</time>
      </trkpt>
      <trkpt lat="44.85078" lon="6.71426">
        <ele>2010.25</ele>
        <time>2018-12-29T09:06:54Z</time>
      </trkpt>
      <trkpt lat="44.85082" lon="6.71419">
        <ele>2012.18</ele>
        <time>2018-12-29T09:07:09Z</time>
      </trkpt>
      <trkpt lat="44.85089" lon="6.71414">
        <ele>2014.1</ele>
        <time>2018-12-29T09:07:23Z</time>
      </trkpt>
      <trkpt lat="44.85083" lon="6.71411">
        <ele>2016.02</ele>
        <time>2018-12-29T09:07:35Z</time>
      </trkpt>
      <trkpt lat="44.85077" lon="6.71408">
        <ele>2017.46</ele>
        <time>2018-12-29T09:07:49Z</time>
      </trkpt>
      <trkpt lat="44.85073" lon="6.7141">
        <ele>2018.43</ele>
        <time>2018-12-29T09:07:58Z</time>
      </trkpt>
      <trkpt lat="44.85068" lon="6.7141">
        <ele>2019.87</ele>
        <time>2018-12-29T09:08:11Z</time>
      </trkpt>
      <trkpt lat="44.85065" lon="6.71414">
        <ele>2021.31</ele>
        <time>2018-12-29T09:08:25Z</time>
      </trkpt>
      <trkpt lat="44.85061" lon="6.71417">
        <ele>2022.75</ele>
        <time>2018-12-29T09:08:41Z</time>
      </trkpt>
      <trkpt lat="44.85054" lon="6.71414">
        <ele>2024.67</ele>
        <time>2018-12-29T09:08:56Z</time>
      </trkpt>
      <trkpt lat="44.8505" lon="6.71415">
        <ele>2026.12</ele>
        <time>2018-12-29T09:09:10Z</time>
      </trkpt>
      <trkpt lat="44.85047" lon="6.71413">
        <ele>2027.56</ele>
        <time>2018-12-29T09:09:26Z</time>
      </trkpt>
      <trkpt lat="44.85046" lon="6.71414">
        <ele>2028.04</ele>
        <time>2018-12-29T09:09:44Z</time>
      </trkpt>
      <trkpt lat="44.8504" lon="6.71415">
        <ele>2029.48</ele>
        <time>2018-12-29T09:09:57Z</time>
      </trkpt>
      <trkpt lat="44.85036" lon="6.71416">
        <ele>2030.92</ele>
        <time>2018-12-29T09:10:09Z</time>
      </trkpt>
      <trkpt lat="44.85028" lon="6.71419">
        <ele>2032.36</ele>
        <time>2018-12-29T09:10:23Z</time>
      </trkpt>
      <trkpt lat="44.85027" lon="6.7142">
        <ele>2032.84</ele>
        <time>2018-12-29T09:10:38Z</time>
      </trkpt>
      <trkpt lat="44.8502" lon="6.71424">
        <ele>2034.29</ele>
        <time>2018-12-29T09:10:49Z</time>
      </trkpt>
      <trkpt lat="44.85025" lon="6.71419">
        <ele>2036.21</ele>
        <time>2018-12-29T09:11:04Z</time>
      </trkpt>
      <trkpt lat="44.85029" lon="6.71415">
        <ele>2036.21</ele>
        <time>2018-12-29T09:11:22Z</time>
      </trkpt>
      <trkpt lat="44.8503" lon="6.71411">
        <ele>2037.65</ele>
        <time>2018-12-29T09:11:35Z</time>
      </trkpt>
      <trkpt lat="44.85033" lon="6.71403">
        <ele>2039.09</ele>
        <time>2018-12-29T09:11:52Z</time>
      </trkpt>
      <trkpt lat="44.85034" lon="6.71398">
        <ele>2041.02</ele>
        <time>2018-12-29T09:12:06Z</time>
      </trkpt>
      <trkpt lat="44.85034" lon="6.71395">
        <ele>2041.02</ele>
        <time>2018-12-29T09:12:21Z</time>
      </trkpt>
      <trkpt lat="44.85024" lon="6.71396">
        <ele>2042.94</ele>
        <time>2018-12-29T09:12:35Z</time>
      </trkpt>
      <trkpt lat="44.85014" lon="6.71397">
        <ele>2045.34</ele>
        <time>2018-12-29T09:12:51Z</time>
      </trkpt>
      <trkpt lat="44.85014" lon="6.71398">
        <ele>2045.34</ele>
        <time>2018-12-29T09:12:53Z</time>
      </trkpt>
      <trkpt lat="44.8501" lon="6.714">
        <ele>2045.82</ele>
        <time>2018-12-29T09:13:06Z</time>
      </trkpt>
      <trkpt lat="44.8501" lon="6.71398">
        <ele>2047.26</ele>
        <time>2018-12-29T09:13:22Z</time>
      </trkpt>
      <trkpt lat="44.85013" lon="6.7139">
        <ele>2048.71</ele>
        <time>2018-12-29T09:13:36Z</time>
      </trkpt>
      <trkpt lat="44.85016" lon="6.71384">
        <ele>2050.15</ele>
        <time>2018-12-29T09:13:49Z</time>
      </trkpt>
      <trkpt lat="44.85017" lon="6.7138">
        <ele>2051.11</ele>
        <time>2018-12-29T09:14:02Z</time>
      </trkpt>
      <trkpt lat="44.85019" lon="6.71374">
        <ele>2052.55</ele>
        <time>2018-12-29T09:14:17Z</time>
      </trkpt>
      <trkpt lat="44.85011" lon="6.71376">
        <ele>2053.51</ele>
        <time>2018-12-29T09:14:27Z</time>
      </trkpt>
      <trkpt lat="44.85004" lon="6.71375">
        <ele>2055.44</ele>
        <time>2018-12-29T09:14:43Z</time>
      </trkpt>
      <trkpt lat="44.85002" lon="6.71375">
        <ele>2056.88</ele>
        <time>2018-12-29T09:14:55Z</time>
      </trkpt>
      <trkpt lat="44.85009" lon="6.7137">
        <ele>2058.32</ele>
        <time>2018-12-29T09:15:12Z</time>
      </trkpt>
      <trkpt lat="44.85011" lon="6.7136">
        <ele>2060.24</ele>
        <time>2018-12-29T09:15:28Z</time>
      </trkpt>
      <trkpt lat="44.85015" lon="6.71352">
        <ele>2061.68</ele>
        <time>2018-12-29T09:15:43Z</time>
      </trkpt>
      <trkpt lat="44.85016" lon="6.71344">
        <ele>2063.13</ele>
        <time>2018-12-29T09:15:56Z</time>
      </trkpt>
      <trkpt lat="44.85018" lon="6.71337">
        <ele>2065.05</ele>
        <time>2018-12-29T09:16:12Z</time>
      </trkpt>
      <trkpt lat="44.8502" lon="6.7133">
        <ele>2066.49</ele>
        <time>2018-12-29T09:16:25Z</time>
      </trkpt>
      <trkpt lat="44.85024" lon="6.71322">
        <ele>2068.89</ele>
        <time>2018-12-29T09:16:44Z</time>
      </trkpt>
      <trkpt lat="44.85026" lon="6.71314">
        <ele>2070.34</ele>
        <time>2018-12-29T09:16:59Z</time>
      </trkpt>
      <trkpt lat="44.85021" lon="6.71315">
        <ele>2071.3</ele>
        <time>2018-12-29T09:17:11Z</time>
      </trkpt>
      <trkpt lat="44.85014" lon="6.71315">
        <ele>2072.74</ele>
        <time>2018-12-29T09:17:24Z</time>
      </trkpt>
      <trkpt lat="44.8501" lon="6.71317">
        <ele>2074.18</ele>
        <time>2018-12-29T09:17:37Z</time>
      </trkpt>
      <trkpt lat="44.85003" lon="6.71314">
        <ele>2076.1</ele>
        <time>2018-12-29T09:17:51Z</time>
      </trkpt>
      <trkpt lat="44.84998" lon="6.71319">
        <ele>2077.55</ele>
        <time>2018-12-29T09:18:05Z</time>
      </trkpt>
      <trkpt lat="44.84991" lon="6.71317">
        <ele>2079.47</ele>
        <time>2018-12-29T09:18:19Z</time>
      </trkpt>
      <trkpt lat="44.84986" lon="6.71317">
        <ele>2080.91</ele>
        <time>2018-12-29T09:18:32Z</time>
      </trkpt>
      <trkpt lat="44.84983" lon="6.71318">
        <ele>2082.35</ele>
        <time>2018-12-29T09:18:42Z</time>
      </trkpt>
      <trkpt lat="44.84977" lon="6.71318">
        <ele>2084.76</ele>
        <time>2018-12-29T09:18:59Z</time>
      </trkpt>
      <trkpt lat="44.84973" lon="6.71316">
        <ele>2085.24</ele>
        <time>2018-12-29T09:19:12Z</time>
      </trkpt>
      <trkpt lat="44.84966" lon="6.71317">
        <ele>2087.64</ele>
        <time>2018-12-29T09:19:31Z</time>
      </trkpt>
      <trkpt lat="44.84964" lon="6.71316">
        <ele>2089.56</ele>
        <time>2018-12-29T09:19:46Z</time>
      </trkpt>
      <trkpt lat="44.84969" lon="6.7131">
        <ele>2092.45</ele>
        <time>2018-12-29T09:19:59Z</time>
      </trkpt>
      <trkpt lat="44.84971" lon="6.71303">
        <ele>2092.45</ele>
        <time>2018-12-29T09:20:13Z</time>
      </trkpt>
      <trkpt lat="44.84974" lon="6.71299">
        <ele>2094.37</ele>
        <time>2018-12-29T09:20:27Z</time>
      </trkpt>
      <trkpt lat="44.84973" lon="6.71294">
        <ele>2095.81</ele>
        <time>2018-12-29T09:20:41Z</time>
      </trkpt>
      <trkpt lat="44.84966" lon="6.71293">
        <ele>2097.73</ele>
        <time>2018-12-29T09:20:55Z</time>
      </trkpt>
      <trkpt lat="44.84961" lon="6.7129">
        <ele>2099.18</ele>
        <time>2018-12-29T09:21:10Z</time>
      </trkpt>
      <trkpt lat="44.84956" lon="6.71288">
        <ele>2101.1</ele>
        <time>2018-12-29T09:21:25Z</time>
      </trkpt>
      <trkpt lat="44.84948" lon="6.71287">
        <ele>2103.02</ele>
        <time>2018-12-29T09:21:39Z</time>
      </trkpt>
      <trkpt lat="44.84944" lon="6.71285">
        <ele>2103.98</ele>
        <time>2018-12-29T09:21:53Z</time>
      </trkpt>
      <trkpt lat="44.8494" lon="6.71286">
        <ele>2105.42</ele>
        <time>2018-12-29T09:22:05Z</time>
      </trkpt>
      <trkpt lat="44.84936" lon="6.7128">
        <ele>2107.35</ele>
        <time>2018-12-29T09:22:20Z</time>
      </trkpt>
      <trkpt lat="44.84932" lon="6.7128">
        <ele>2108.79</ele>
        <time>2018-12-29T09:22:34Z</time>
      </trkpt>
      <trkpt lat="44.8493" lon="6.71278">
        <ele>2110.23</ele>
        <time>2018-12-29T09:22:47Z</time>
      </trkpt>
      <trkpt lat="44.84933" lon="6.71277">
        <ele>2111.19</ele>
        <time>2018-12-29T09:23:00Z</time>
      </trkpt>
      <trkpt lat="44.84939" lon="6.71272">
        <ele>2113.12</ele>
        <time>2018-12-29T09:23:16Z</time>
      </trkpt>
      <trkpt lat="44.84941" lon="6.71267">
        <ele>2115.52</ele>
        <time>2018-12-29T09:23:30Z</time>
      </trkpt>
      <trkpt lat="44.84934" lon="6.71265">
        <ele>2115.52</ele>
        <time>2018-12-29T09:23:42Z</time>
      </trkpt>
      <trkpt lat="44.8493" lon="6.71266">
        <ele>2117.44</ele>
        <time>2018-12-29T09:23:57Z</time>
      </trkpt>
      <trkpt lat="44.84928" lon="6.71266">
        <ele>2117.92</ele>
        <time>2018-12-29T09:24:10Z</time>
      </trkpt>
      <trkpt lat="44.84922" lon="6.71267">
        <ele>2119.36</ele>
        <time>2018-12-29T09:24:23Z</time>
      </trkpt>
      <trkpt lat="44.84916" lon="6.71271">
        <ele>2121.29</ele>
        <time>2018-12-29T09:24:38Z</time>
      </trkpt>
      <trkpt lat="44.84909" lon="6.71275">
        <ele>2122.73</ele>
        <time>2018-12-29T09:24:53Z</time>
      </trkpt>
      <trkpt lat="44.84903" lon="6.71278">
        <ele>2123.69</ele>
        <time>2018-12-29T09:25:07Z</time>
      </trkpt>
      <trkpt lat="44.849" lon="6.71276">
        <ele>2125.13</ele>
        <time>2018-12-29T09:25:19Z</time>
      </trkpt>
      <trkpt lat="44.84902" lon="6.71269">
        <ele>2127.05</ele>
        <time>2018-12-29T09:25:34Z</time>
      </trkpt>
      <trkpt lat="44.84903" lon="6.71264">
        <ele>2128.5</ele>
        <time>2018-12-29T09:25:46Z</time>
      </trkpt>
      <trkpt lat="44.84904" lon="6.71259">
        <ele>2129.94</ele>
        <time>2018-12-29T09:25:58Z</time>
      </trkpt>
      <trkpt lat="44.84906" lon="6.71253">
        <ele>2131.86</ele>
        <time>2018-12-29T09:26:13Z</time>
      </trkpt>
      <trkpt lat="44.84906" lon="6.71246">
        <ele>2133.3</ele>
        <time>2018-12-29T09:26:28Z</time>
      </trkpt>
      <trkpt lat="44.84908" lon="6.71243">
        <ele>2134.74</ele>
        <time>2018-12-29T09:26:39Z</time>
      </trkpt>
      <trkpt lat="44.84901" lon="6.71241">
        <ele>2136.19</ele>
        <time>2018-12-29T09:26:51Z</time>
      </trkpt>
      <trkpt lat="44.84895" lon="6.71243">
        <ele>2137.15</ele>
        <time>2018-12-29T09:27:05Z</time>
      </trkpt>
      <trkpt lat="44.8489" lon="6.71241">
        <ele>2139.07</ele>
        <time>2018-12-29T09:27:17Z</time>
      </trkpt>
      <trkpt lat="44.84881" lon="6.71238">
        <ele>2140.51</ele>
        <time>2018-12-29T09:27:32Z</time>
      </trkpt>
      <trkpt lat="44.84874" lon="6.71241">
        <ele>2141.95</ele>
        <time>2018-12-29T09:27:45Z</time>
      </trkpt>
      <trkpt lat="44.84869" lon="6.71244">
        <ele>2142.92</ele>
        <time>2018-12-29T09:27:57Z</time>
      </trkpt>
      <trkpt lat="44.84866" lon="6.7124">
        <ele>2144.84</ele>
        <time>2018-12-29T09:28:11Z</time>
      </trkpt>
      <trkpt lat="44.84862" lon="6.71245">
        <ele>2145.8</ele>
        <time>2018-12-29T09:28:22Z</time>
      </trkpt>
      <trkpt lat="44.84858" lon="6.71247">
        <ele>2147.24</ele>
        <time>2018-12-29T09:28:36Z</time>
      </trkpt>
      <trkpt lat="44.84855" lon="6.71248">
        <ele>2148.68</ele>
        <time>2018-12-29T09:28:46Z</time>
      </trkpt>
      <trkpt lat="44.84854" lon="6.71241">
        <ele>2150.61</ele>
        <time>2018-12-29T09:29:00Z</time>
      </trkpt>
      <trkpt lat="44.84847" lon="6.71244">
        <ele>2152.05</ele>
        <time>2018-12-29T09:29:14Z</time>
      </trkpt>
      <trkpt lat="44.84842" lon="6.71247">
        <ele>2154.45</ele>
        <time>2018-12-29T09:29:31Z</time>
      </trkpt>
      <trkpt lat="44.84843" lon="6.71247">
        <ele>2154.45</ele>
        <time>2018-12-29T09:29:38Z</time>
      </trkpt>
      <trkpt lat="44.84843" lon="6.71244">
        <ele>2154.93</ele>
        <time>2018-12-29T09:29:53Z</time>
      </trkpt>
      <trkpt lat="44.84837" lon="6.71241">
        <ele>2155.41</ele>
        <time>2018-12-29T09:30:06Z</time>
      </trkpt>
      <trkpt lat="44.84832" lon="6.71244">
        <ele>2157.34</ele>
        <time>2018-12-29T09:30:21Z</time>
      </trkpt>
      <trkpt lat="44.84826" lon="6.71243">
        <ele>2158.3</ele>
        <time>2018-12-29T09:30:33Z</time>
      </trkpt>
      <trkpt lat="44.8482" lon="6.71238">
        <ele>2159.74</ele>
        <time>2018-12-29T09:30:51Z</time>
      </trkpt>
      <trkpt lat="44.84819" lon="6.71235">
        <ele>2160.7</ele>
        <time>2018-12-29T09:31:04Z</time>
      </trkpt>
      <trkpt lat="44.84823" lon="6.71231">
        <ele>2162.14</ele>
        <time>2018-12-29T09:31:19Z</time>
      </trkpt>
      <trkpt lat="44.84823" lon="6.71225">
        <ele>2163.58</ele>
        <time>2018-12-29T09:31:35Z</time>
      </trkpt>
      <trkpt lat="44.84814" lon="6.71223">
        <ele>2165.51</ele>
        <time>2018-12-29T09:31:55Z</time>
      </trkpt>
      <trkpt lat="44.84817" lon="6.71224">
        <ele>2165.99</ele>
        <time>2018-12-29T09:32:13Z</time>
      </trkpt>
      <trkpt lat="44.84823" lon="6.71225">
        <ele>2166.47</ele>
        <time>2018-12-29T09:32:35Z</time>
      </trkpt>
      <trkpt lat="44.84823" lon="6.71217">
        <ele>2168.39</ele>
        <time>2018-12-29T09:32:49Z</time>
      </trkpt>
      <trkpt lat="44.84824" lon="6.71211">
        <ele>2168.87</ele>
        <time>2018-12-29T09:33:02Z</time>
      </trkpt>
      <trkpt lat="44.84824" lon="6.71206">
        <ele>2172.24</ele>
        <time>2018-12-29T09:33:18Z</time>
      </trkpt>
      <trkpt lat="44.84824" lon="6.71204">
        <ele>2172.72</ele>
        <time>2018-12-29T09:33:23Z</time>
      </trkpt>
      <trkpt lat="44.84826" lon="6.71195">
        <ele>2174.16</ele>
        <time>2018-12-29T09:33:38Z</time>
      </trkpt>
      <trkpt lat="44.84824" lon="6.71191">
        <ele>2175.6</ele>
        <time>2018-12-29T09:33:53Z</time>
      </trkpt>
      <trkpt lat="44.84819" lon="6.71188">
        <ele>2175.6</ele>
        <time>2018-12-29T09:34:08Z</time>
      </trkpt>
      <trkpt lat="44.84821" lon="6.7119">
        <ele>2176.56</ele>
        <time>2018-12-29T09:34:25Z</time>
      </trkpt>
      <trkpt lat="44.84814" lon="6.71188">
        <ele>2177.52</ele>
        <time>2018-12-29T09:34:37Z</time>
      </trkpt>
      <trkpt lat="44.8481" lon="6.71183">
        <ele>2179.93</ele>
        <time>2018-12-29T09:34:54Z</time>
      </trkpt>
      <trkpt lat="44.84804" lon="6.71179">
        <ele>2181.85</ele>
        <time>2018-12-29T09:35:09Z</time>
      </trkpt>
      <trkpt lat="44.84799" lon="6.71178">
        <ele>2183.29</ele>
        <time>2018-12-29T09:35:24Z</time>
      </trkpt>
      <trkpt lat="44.84798" lon="6.7118">
        <ele>2185.21</ele>
        <time>2018-12-29T09:35:36Z</time>
      </trkpt>
      <trkpt lat="44.84793" lon="6.7118">
        <ele>2186.66</ele>
        <time>2018-12-29T09:35:49Z</time>
      </trkpt>
      <trkpt lat="44.84791" lon="6.71184">
        <ele>2187.14</ele>
        <time>2018-12-29T09:36:04Z</time>
      </trkpt>
      <trkpt lat="44.84788" lon="6.71189">
        <ele>2189.06</ele>
        <time>2018-12-29T09:36:17Z</time>
      </trkpt>
      <trkpt lat="44.84788" lon="6.71192">
        <ele>2190.02</ele>
        <time>2018-12-29T09:36:30Z</time>
      </trkpt>
      <trkpt lat="44.84788" lon="6.71195">
        <ele>2190.5</ele>
        <time>2018-12-29T09:37:01Z</time>
      </trkpt>
      <trkpt lat="44.84782" lon="6.71201">
        <ele>2192.42</ele>
        <time>2018-12-29T09:37:16Z</time>
      </trkpt>
      <trkpt lat="44.84779" lon="6.71206">
        <ele>2194.35</ele>
        <time>2018-12-29T09:37:29Z</time>
      </trkpt>
      <trkpt lat="44.84774" lon="6.71208">
        <ele>2196.27</ele>
        <time>2018-12-29T09:37:45Z</time>
      </trkpt>
      <trkpt lat="44.84772" lon="6.71202">
        <ele>2197.71</ele>
        <time>2018-12-29T09:37:59Z</time>
      </trkpt>
      <trkpt lat="44.84767" lon="6.712">
        <ele>2199.15</ele>
        <time>2018-12-29T09:38:14Z</time>
      </trkpt>
      <trkpt lat="44.84763" lon="6.71198">
        <ele>2200.59</ele>
        <time>2018-12-29T09:38:28Z</time>
      </trkpt>
      <trkpt lat="44.8476" lon="6.71201">
        <ele>2202.52</ele>
        <time>2018-12-29T09:38:44Z</time>
      </trkpt>
      <trkpt lat="44.84754" lon="6.71197">
        <ele>2204.44</ele>
        <time>2018-12-29T09:39:03Z</time>
      </trkpt>
      <trkpt lat="44.8475" lon="6.71202">
        <ele>2206.36</ele>
        <time>2018-12-29T09:39:18Z</time>
      </trkpt>
      <trkpt lat="44.84749" lon="6.71196">
        <ele>2208.29</ele>
        <time>2018-12-29T09:39:33Z</time>
      </trkpt>
      <trkpt lat="44.84751" lon="6.71188">
        <ele>2209.25</ele>
        <time>2018-12-29T09:39:44Z</time>
      </trkpt>
      <trkpt lat="44.84758" lon="6.71181">
        <ele>2210.69</ele>
        <time>2018-12-29T09:39:59Z</time>
      </trkpt>
      <trkpt lat="44.84759" lon="6.71176">
        <ele>2212.13</ele>
        <time>2018-12-29T09:40:14Z</time>
      </trkpt>
      <trkpt lat="44.84761" lon="6.71169">
        <ele>2213.09</ele>
        <time>2018-12-29T09:40:26Z</time>
      </trkpt>
      <trkpt lat="44.84757" lon="6.7116">
        <ele>2214.53</ele>
        <time>2018-12-29T09:40:40Z</time>
      </trkpt>
      <trkpt lat="44.84759" lon="6.71152">
        <ele>2215.98</ele>
        <time>2018-12-29T09:40:54Z</time>
      </trkpt>
      <trkpt lat="44.84762" lon="6.71146">
        <ele>2216.46</ele>
        <time>2018-12-29T09:41:06Z</time>
      </trkpt>
      <trkpt lat="44.84759" lon="6.71142">
        <ele>2217.9</ele>
        <time>2018-12-29T09:41:20Z</time>
      </trkpt>
      <trkpt lat="44.84755" lon="6.71149">
        <ele>2217.9</ele>
        <time>2018-12-29T09:41:43Z</time>
      </trkpt>
      <trkpt lat="44.8475" lon="6.71151">
        <ele>2218.86</ele>
        <time>2018-12-29T09:41:59Z</time>
      </trkpt>
      <trkpt lat="44.84744" lon="6.71153">
        <ele>2219.82</ele>
        <time>2018-12-29T09:42:12Z</time>
      </trkpt>
      <trkpt lat="44.84737" lon="6.71154">
        <ele>2221.74</ele>
        <time>2018-12-29T09:42:29Z</time>
      </trkpt>
      <trkpt lat="44.84736" lon="6.71162">
        <ele>2222.71</ele>
        <time>2018-12-29T09:42:43Z</time>
      </trkpt>
      <trkpt lat="44.84727" lon="6.71163">
        <ele>2223.67</ele>
        <time>2018-12-29T09:43:01Z</time>
      </trkpt>
      <trkpt lat="44.84725" lon="6.71172">
        <ele>2224.63</ele>
        <time>2018-12-29T09:43:15Z</time>
      </trkpt>
      <trkpt lat="44.84721" lon="6.71178">
        <ele>2226.07</ele>
        <time>2018-12-29T09:43:30Z</time>
      </trkpt>
      <trkpt lat="44.84718" lon="6.71185">
        <ele>2227.51</ele>
        <time>2018-12-29T09:43:46Z</time>
      </trkpt>
      <trkpt lat="44.8471" lon="6.7119">
        <ele>2228.47</ele>
        <time>2018-12-29T09:43:58Z</time>
      </trkpt>
      <trkpt lat="44.84708" lon="6.71195">
        <ele>2229.92</ele>
        <time>2018-12-29T09:44:12Z</time>
      </trkpt>
      <trkpt lat="44.84703" lon="6.712">
        <ele>2231.36</ele>
        <time>2018-12-29T09:44:28Z</time>
      </trkpt>
      <trkpt lat="44.84698" lon="6.71205">
        <ele>2232.8</ele>
        <time>2018-12-29T09:44:42Z</time>
      </trkpt>
      <trkpt lat="44.84694" lon="6.71209">
        <ele>2234.24</ele>
        <time>2018-12-29T09:44:55Z</time>
      </trkpt>
      <trkpt lat="44.84697" lon="6.71205">
        <ele>2235.2</ele>
        <time>2018-12-29T09:45:14Z</time>
      </trkpt>
      <trkpt lat="44.84697" lon="6.71204">
        <ele>2235.2</ele>
        <time>2018-12-29T09:45:42Z</time>
      </trkpt>
      <trkpt lat="44.84678" lon="6.71204">
        <ele>2236.16</ele>
        <time>2018-12-29T09:46:00Z</time>
      </trkpt>
      <trkpt lat="44.84669" lon="6.71204">
        <ele>2236.64</ele>
        <time>2018-12-29T09:46:15Z</time>
      </trkpt>
      <trkpt lat="44.84663" lon="6.712">
        <ele>2238.09</ele>
        <time>2018-12-29T09:46:31Z</time>
      </trkpt>
      <trkpt lat="44.84653" lon="6.71197">
        <ele>2239.53</ele>
        <time>2018-12-29T09:46:48Z</time>
      </trkpt>
      <trkpt lat="44.84646" lon="6.71195">
        <ele>2240.49</ele>
        <time>2018-12-29T09:47:03Z</time>
      </trkpt>
      <trkpt lat="44.8464" lon="6.71189">
        <ele>2241.45</ele>
        <time>2018-12-29T09:47:24Z</time>
      </trkpt>
      <trkpt lat="44.84635" lon="6.71185">
        <ele>2243.37</ele>
        <time>2018-12-29T09:47:38Z</time>
      </trkpt>
      <trkpt lat="44.84629" lon="6.71183">
        <ele>2244.33</ele>
        <time>2018-12-29T09:47:55Z</time>
      </trkpt>
      <trkpt lat="44.84624" lon="6.71184">
        <ele>2245.3</ele>
        <time>2018-12-29T09:48:07Z</time>
      </trkpt>
      <trkpt lat="44.8462" lon="6.71174">
        <ele>2246.74</ele>
        <time>2018-12-29T09:48:22Z</time>
      </trkpt>
      <trkpt lat="44.8462" lon="6.7117">
        <ele>2248.18</ele>
        <time>2018-12-29T09:48:38Z</time>
      </trkpt>
      <trkpt lat="44.84618" lon="6.71162">
        <ele>2249.62</ele>
        <time>2018-12-29T09:48:51Z</time>
      </trkpt>
      <trkpt lat="44.84615" lon="6.71155">
        <ele>2251.54</ele>
        <time>2018-12-29T09:49:05Z</time>
      </trkpt>
      <trkpt lat="44.84612" lon="6.71146">
        <ele>2253.47</ele>
        <time>2018-12-29T09:49:20Z</time>
      </trkpt>
      <trkpt lat="44.8461" lon="6.7114">
        <ele>2254.91</ele>
        <time>2018-12-29T09:49:34Z</time>
      </trkpt>
      <trkpt lat="44.84609" lon="6.7113">
        <ele>2257.31</ele>
        <time>2018-12-29T09:49:52Z</time>
      </trkpt>
      <trkpt lat="44.8461" lon="6.71125">
        <ele>2258.75</ele>
        <time>2018-12-29T09:50:07Z</time>
      </trkpt>
      <trkpt lat="44.84603" lon="6.71118">
        <ele>2260.68</ele>
        <time>2018-12-29T09:50:21Z</time>
      </trkpt>
      <trkpt lat="44.84599" lon="6.71111">
        <ele>2262.12</ele>
        <time>2018-12-29T09:50:35Z</time>
      </trkpt>
      <trkpt lat="44.84594" lon="6.71102">
        <ele>2264.04</ele>
        <time>2018-12-29T09:50:51Z</time>
      </trkpt>
      <trkpt lat="44.84589" lon="6.71096">
        <ele>2265</ele>
        <time>2018-12-29T09:51:03Z</time>
      </trkpt>
      <trkpt lat="44.84587" lon="6.71095">
        <ele>2266.93</ele>
        <time>2018-12-29T09:51:18Z</time>
      </trkpt>
      <trkpt lat="44.84582" lon="6.71085">
        <ele>2268.85</ele>
        <time>2018-12-29T09:51:33Z</time>
      </trkpt>
      <trkpt lat="44.84578" lon="6.71077">
        <ele>2269.33</ele>
        <time>2018-12-29T09:51:47Z</time>
      </trkpt>
      <trkpt lat="44.84575" lon="6.71071">
        <ele>2270.29</ele>
        <time>2018-12-29T09:52:00Z</time>
      </trkpt>
      <trkpt lat="44.84572" lon="6.71068">
        <ele>2272.21</ele>
        <time>2018-12-29T09:52:16Z</time>
      </trkpt>
      <trkpt lat="44.84567" lon="6.71067">
        <ele>2272.69</ele>
        <time>2018-12-29T09:52:28Z</time>
      </trkpt>
      <trkpt lat="44.84564" lon="6.71067">
        <ele>2274.14</ele>
        <time>2018-12-29T09:52:42Z</time>
      </trkpt>
      <trkpt lat="44.84563" lon="6.71065">
        <ele>2273.66</ele>
        <time>2018-12-29T09:53:05Z</time>
      </trkpt>
      <trkpt lat="44.84563" lon="6.71066">
        <ele>2273.66</ele>
        <time>2018-12-29T09:53:28Z</time>
      </trkpt>
      <trkpt lat="44.84564" lon="6.71068">
        <ele>2274.14</ele>
        <time>2018-12-29T09:53:49Z</time>
      </trkpt>
      <trkpt lat="44.84561" lon="6.71064">
        <ele>2274.14</ele>
        <time>2018-12-29T09:54:10Z</time>
      </trkpt>
      <trkpt lat="44.84561" lon="6.7106">
        <ele>2274.62</ele>
        <time>2018-12-29T09:54:25Z</time>
      </trkpt>
      <trkpt lat="44.8456" lon="6.71057">
        <ele>2274.62</ele>
        <time>2018-12-29T09:54:43Z</time>
      </trkpt>
      <trkpt lat="44.84559" lon="6.7106">
        <ele>2274.14</ele>
        <time>2018-12-29T09:54:59Z</time>
      </trkpt>
      <trkpt lat="44.84562" lon="6.71057">
        <ele>2274.62</ele>
        <time>2018-12-29T09:55:25Z</time>
      </trkpt>
      <trkpt lat="44.84565" lon="6.71056">
        <ele>2274.62</ele>
        <time>2018-12-29T09:55:50Z</time>
      </trkpt>
      <trkpt lat="44.84562" lon="6.71055">
        <ele>2274.62</ele>
        <time>2018-12-29T09:56:19Z</time>
      </trkpt>
      <trkpt lat="44.84558" lon="6.71056">
        <ele>2274.62</ele>
        <time>2018-12-29T09:56:49Z</time>
      </trkpt>
      <trkpt lat="44.84559" lon="6.71059">
        <ele>2275.1</ele>
        <time>2018-12-29T09:57:22Z</time>
      </trkpt>
      <trkpt lat="44.84564" lon="6.71059">
        <ele>2274.62</ele>
        <time>2018-12-29T09:57:50Z</time>
      </trkpt>
      <trkpt lat="44.84561" lon="6.7106">
        <ele>2274.62</ele>
        <time>2018-12-29T09:58:28Z</time>
      </trkpt>
      <trkpt lat="44.84563" lon="6.71059">
        <ele>2274.62</ele>
        <time>2018-12-29T09:59:04Z</time>
      </trkpt>
      <trkpt lat="44.84561" lon="6.71058">
        <ele>2275.58</ele>
        <time>2018-12-29T09:59:19Z</time>
      </trkpt>
      <trkpt lat="44.8456" lon="6.71051">
        <ele>2276.54</ele>
        <time>2018-12-29T09:59:33Z</time>
      </trkpt>
      <trkpt lat="44.84562" lon="6.71044">
        <ele>2278.46</ele>
        <time>2018-12-29T09:59:50Z</time>
      </trkpt>
      <trkpt lat="44.8456" lon="6.71035">
        <ele>2280.38</ele>
        <time>2018-12-29T10:00:04Z</time>
      </trkpt>
      <trkpt lat="44.8456" lon="6.7103">
        <ele>2282.79</ele>
        <time>2018-12-29T10:00:18Z</time>
      </trkpt>
      <trkpt lat="44.84565" lon="6.7103">
        <ele>2283.75</ele>
        <time>2018-12-29T10:00:29Z</time>
      </trkpt>
      <trkpt lat="44.84573" lon="6.71028">
        <ele>2285.19</ele>
        <time>2018-12-29T10:00:42Z</time>
      </trkpt>
      <trkpt lat="44.84579" lon="6.71029">
        <ele>2287.11</ele>
        <time>2018-12-29T10:00:55Z</time>
      </trkpt>
      <trkpt lat="44.84584" lon="6.71028">
        <ele>2289.04</ele>
        <time>2018-12-29T10:01:09Z</time>
      </trkpt>
      <trkpt lat="44.84591" lon="6.71029">
        <ele>2290.48</ele>
        <time>2018-12-29T10:01:21Z</time>
      </trkpt>
      <trkpt lat="44.84596" lon="6.71029">
        <ele>2292.4</ele>
        <time>2018-12-29T10:01:36Z</time>
      </trkpt>
      <trkpt lat="44.84602" lon="6.7103">
        <ele>2294.32</ele>
        <time>2018-12-29T10:01:50Z</time>
      </trkpt>
      <trkpt lat="44.8461" lon="6.71031">
        <ele>2295.77</ele>
        <time>2018-12-29T10:02:03Z</time>
      </trkpt>
      <trkpt lat="44.84618" lon="6.71032">
        <ele>2297.21</ele>
        <time>2018-12-29T10:02:18Z</time>
      </trkpt>
      <trkpt lat="44.84623" lon="6.71031">
        <ele>2298.17</ele>
        <time>2018-12-29T10:02:29Z</time>
      </trkpt>
      <trkpt lat="44.84629" lon="6.71031">
        <ele>2300.09</ele>
        <time>2018-12-29T10:02:43Z</time>
      </trkpt>
      <trkpt lat="44.84635" lon="6.7103">
        <ele>2301.05</ele>
        <time>2018-12-29T10:02:56Z</time>
      </trkpt>
      <trkpt lat="44.84644" lon="6.71031">
        <ele>2302.49</ele>
        <time>2018-12-29T10:03:10Z</time>
      </trkpt>
      <trkpt lat="44.84646" lon="6.71034">
        <ele>2303.46</ele>
        <time>2018-12-29T10:03:23Z</time>
      </trkpt>
      <trkpt lat="44.84652" lon="6.71029">
        <ele>2304.9</ele>
        <time>2018-12-29T10:03:38Z</time>
      </trkpt>
      <trkpt lat="44.84658" lon="6.71029">
        <ele>2307.3</ele>
        <time>2018-12-29T10:03:54Z</time>
      </trkpt>
      <trkpt lat="44.84665" lon="6.71026">
        <ele>2308.74</ele>
        <time>2018-12-29T10:04:07Z</time>
      </trkpt>
      <trkpt lat="44.84672" lon="6.71022">
        <ele>2310.67</ele>
        <time>2018-12-29T10:04:23Z</time>
      </trkpt>
      <trkpt lat="44.84675" lon="6.71017">
        <ele>2313.07</ele>
        <time>2018-12-29T10:04:39Z</time>
      </trkpt>
      <trkpt lat="44.84675" lon="6.7101">
        <ele>2314.99</ele>
        <time>2018-12-29T10:04:54Z</time>
      </trkpt>
      <trkpt lat="44.84674" lon="6.71">
        <ele>2316.91</ele>
        <time>2018-12-29T10:05:09Z</time>
      </trkpt>
      <trkpt lat="44.84669" lon="6.70994">
        <ele>2318.36</ele>
        <time>2018-12-29T10:05:22Z</time>
      </trkpt>
      <trkpt lat="44.84667" lon="6.70986">
        <ele>2319.8</ele>
        <time>2018-12-29T10:05:35Z</time>
      </trkpt>
      <trkpt lat="44.84667" lon="6.70977">
        <ele>2322.2</ele>
        <time>2018-12-29T10:05:51Z</time>
      </trkpt>
      <trkpt lat="44.84665" lon="6.7097">
        <ele>2323.64</ele>
        <time>2018-12-29T10:06:05Z</time>
      </trkpt>
      <trkpt lat="44.84665" lon="6.70961">
        <ele>2325.57</ele>
        <time>2018-12-29T10:06:21Z</time>
      </trkpt>
      <trkpt lat="44.84666" lon="6.70955">
        <ele>2326.53</ele>
        <time>2018-12-29T10:06:36Z</time>
      </trkpt>
      <trkpt lat="44.84666" lon="6.7095">
        <ele>2327.49</ele>
        <time>2018-12-29T10:06:50Z</time>
      </trkpt>
      <trkpt lat="44.84663" lon="6.70952">
        <ele>2327.49</ele>
        <time>2018-12-29T10:07:06Z</time>
      </trkpt>
      <trkpt lat="44.84663" lon="6.70945">
        <ele>2327.97</ele>
        <time>2018-12-29T10:07:26Z</time>
      </trkpt>
      <trkpt lat="44.84662" lon="6.70945">
        <ele>2327.97</ele>
        <time>2018-12-29T10:07:51Z</time>
      </trkpt>
      <trkpt lat="44.84663" lon="6.70946">
        <ele>2327.97</ele>
        <time>2018-12-29T10:08:09Z</time>
      </trkpt>
      <trkpt lat="44.84664" lon="6.70946">
        <ele>2328.45</ele>
        <time>2018-12-29T10:08:28Z</time>
      </trkpt>
      <trkpt lat="44.84664" lon="6.70945">
        <ele>2327.49</ele>
        <time>2018-12-29T10:08:48Z</time>
      </trkpt>
      <trkpt lat="44.84661" lon="6.70947">
        <ele>2328.45</ele>
        <time>2018-12-29T10:09:03Z</time>
      </trkpt>
      <trkpt lat="44.84662" lon="6.70945">
        <ele>2328.45</ele>
        <time>2018-12-29T10:09:21Z</time>
      </trkpt>
      <trkpt lat="44.84663" lon="6.70935">
        <ele>2329.89</ele>
        <time>2018-12-29T10:09:37Z</time>
      </trkpt>
      <trkpt lat="44.84661" lon="6.70928">
        <ele>2330.85</ele>
        <time>2018-12-29T10:09:56Z</time>
      </trkpt>
      <trkpt lat="44.84658" lon="6.70913">
        <ele>2332.78</ele>
        <time>2018-12-29T10:10:14Z</time>
      </trkpt>
      <trkpt lat="44.84658" lon="6.709">
        <ele>2334.7</ele>
        <time>2018-12-29T10:10:31Z</time>
      </trkpt>
      <trkpt lat="44.84655" lon="6.70891">
        <ele>2335.18</ele>
        <time>2018-12-29T10:10:43Z</time>
      </trkpt>
      <trkpt lat="44.84652" lon="6.70883">
        <ele>2336.14</ele>
        <time>2018-12-29T10:10:57Z</time>
      </trkpt>
      <trkpt lat="44.8465" lon="6.70872">
        <ele>2337.1</ele>
        <time>2018-12-29T10:11:09Z</time>
      </trkpt>
      <trkpt lat="44.84647" lon="6.70858">
        <ele>2337.1</ele>
        <time>2018-12-29T10:11:24Z</time>
      </trkpt>
      <trkpt lat="44.84646" lon="6.70856">
        <ele>2337.1</ele>
        <time>2018-12-29T10:11:26Z</time>
      </trkpt>
      <trkpt lat="44.84642" lon="6.70845">
        <ele>2338.54</ele>
        <time>2018-12-29T10:11:40Z</time>
      </trkpt>
      <trkpt lat="44.84639" lon="6.70838">
        <ele>2339.51</ele>
        <time>2018-12-29T10:11:53Z</time>
      </trkpt>
      <trkpt lat="44.84636" lon="6.70828">
        <ele>2341.43</ele>
        <time>2018-12-29T10:12:08Z</time>
      </trkpt>
      <trkpt lat="44.84631" lon="6.70817">
        <ele>2342.87</ele>
        <time>2018-12-29T10:12:22Z</time>
      </trkpt>
      <trkpt lat="44.84626" lon="6.70806">
        <ele>2343.83</ele>
        <time>2018-12-29T10:12:37Z</time>
      </trkpt>
      <trkpt lat="44.84622" lon="6.70797">
        <ele>2344.79</ele>
        <time>2018-12-29T10:12:51Z</time>
      </trkpt>
      <trkpt lat="44.84619" lon="6.70789">
        <ele>2346.23</ele>
        <time>2018-12-29T10:13:03Z</time>
      </trkpt>
      <trkpt lat="44.84616" lon="6.7078">
        <ele>2348.64</ele>
        <time>2018-12-29T10:13:20Z</time>
      </trkpt>
      <trkpt lat="44.84612" lon="6.70772">
        <ele>2349.12</ele>
        <time>2018-12-29T10:13:30Z</time>
      </trkpt>
      <trkpt lat="44.84607" lon="6.70764">
        <ele>2350.56</ele>
        <time>2018-12-29T10:13:42Z</time>
      </trkpt>
      <trkpt lat="44.84603" lon="6.70755">
        <ele>2352</ele>
        <time>2018-12-29T10:13:58Z</time>
      </trkpt>
      <trkpt lat="44.84598" lon="6.70748">
        <ele>2353.44</ele>
        <time>2018-12-29T10:14:14Z</time>
      </trkpt>
      <trkpt lat="44.84594" lon="6.70742">
        <ele>2353.93</ele>
        <time>2018-12-29T10:14:26Z</time>
      </trkpt>
      <trkpt lat="44.84592" lon="6.70734">
        <ele>2354.41</ele>
        <time>2018-12-29T10:14:40Z</time>
      </trkpt>
      <trkpt lat="44.84585" lon="6.70729">
        <ele>2354.89</ele>
        <time>2018-12-29T10:14:51Z</time>
      </trkpt>
      <trkpt lat="44.84579" lon="6.70723">
        <ele>2355.85</ele>
        <time>2018-12-29T10:15:03Z</time>
      </trkpt>
      <trkpt lat="44.84571" lon="6.70718">
        <ele>2357.29</ele>
        <time>2018-12-29T10:15:19Z</time>
      </trkpt>
      <trkpt lat="44.84564" lon="6.70715">
        <ele>2358.73</ele>
        <time>2018-12-29T10:15:32Z</time>
      </trkpt>
      <trkpt lat="44.84558" lon="6.70714">
        <ele>2360.65</ele>
        <time>2018-12-29T10:15:47Z</time>
      </trkpt>
      <trkpt lat="44.8455" lon="6.70712">
        <ele>2362.1</ele>
        <time>2018-12-29T10:16:01Z</time>
      </trkpt>
      <trkpt lat="44.84544" lon="6.70712">
        <ele>2363.06</ele>
        <time>2018-12-29T10:16:14Z</time>
      </trkpt>
      <trkpt lat="44.84537" lon="6.70713">
        <ele>2364.98</ele>
        <time>2018-12-29T10:16:28Z</time>
      </trkpt>
      <trkpt lat="44.84537" lon="6.70707">
        <ele>2366.42</ele>
        <time>2018-12-29T10:16:43Z</time>
      </trkpt>
      <trkpt lat="44.8454" lon="6.707">
        <ele>2367.86</ele>
        <time>2018-12-29T10:16:57Z</time>
      </trkpt>
      <trkpt lat="44.84543" lon="6.70693">
        <ele>2369.31</ele>
        <time>2018-12-29T10:17:10Z</time>
      </trkpt>
      <trkpt lat="44.84547" lon="6.70689">
        <ele>2370.75</ele>
        <time>2018-12-29T10:17:23Z</time>
      </trkpt>
      <trkpt lat="44.84552" lon="6.70688">
        <ele>2372.19</ele>
        <time>2018-12-29T10:17:37Z</time>
      </trkpt>
      <trkpt lat="44.84556" lon="6.70684">
        <ele>2373.63</ele>
        <time>2018-12-29T10:17:51Z</time>
      </trkpt>
      <trkpt lat="44.84559" lon="6.70681">
        <ele>2375.55</ele>
        <time>2018-12-29T10:18:06Z</time>
      </trkpt>
      <trkpt lat="44.84559" lon="6.70677">
        <ele>2376.52</ele>
        <time>2018-12-29T10:18:20Z</time>
      </trkpt>
      <trkpt lat="44.84554" lon="6.70673">
        <ele>2377.96</ele>
        <time>2018-12-29T10:18:32Z</time>
      </trkpt>
      <trkpt lat="44.84551" lon="6.7067">
        <ele>2378.92</ele>
        <time>2018-12-29T10:18:46Z</time>
      </trkpt>
      <trkpt lat="44.84545" lon="6.70666">
        <ele>2380.84</ele>
        <time>2018-12-29T10:19:00Z</time>
      </trkpt>
      <trkpt lat="44.8454" lon="6.70665">
        <ele>2382.28</ele>
        <time>2018-12-29T10:19:14Z</time>
      </trkpt>
      <trkpt lat="44.84535" lon="6.70663">
        <ele>2383.25</ele>
        <time>2018-12-29T10:19:27Z</time>
      </trkpt>
      <trkpt lat="44.8453" lon="6.70661">
        <ele>2385.65</ele>
        <time>2018-12-29T10:19:40Z</time>
      </trkpt>
      <trkpt lat="44.84526" lon="6.7066">
        <ele>2386.13</ele>
        <time>2018-12-29T10:19:53Z</time>
      </trkpt>
      <trkpt lat="44.84522" lon="6.70659">
        <ele>2387.57</ele>
        <time>2018-12-29T10:20:08Z</time>
      </trkpt>
      <trkpt lat="44.84523" lon="6.70659">
        <ele>2388.05</ele>
        <time>2018-12-29T10:20:22Z</time>
      </trkpt>
      <trkpt lat="44.84524" lon="6.70656">
        <ele>2389.49</ele>
        <time>2018-12-29T10:20:38Z</time>
      </trkpt>
      <trkpt lat="44.84528" lon="6.70652">
        <ele>2390.46</ele>
        <time>2018-12-29T10:20:51Z</time>
      </trkpt>
      <trkpt lat="44.84533" lon="6.7065">
        <ele>2391.9</ele>
        <time>2018-12-29T10:21:05Z</time>
      </trkpt>
      <trkpt lat="44.84535" lon="6.70645">
        <ele>2393.34</ele>
        <time>2018-12-29T10:21:19Z</time>
      </trkpt>
      <trkpt lat="44.84529" lon="6.70644">
        <ele>2394.78</ele>
        <time>2018-12-29T10:21:31Z</time>
      </trkpt>
      <trkpt lat="44.84525" lon="6.70641">
        <ele>2396.22</ele>
        <time>2018-12-29T10:21:45Z</time>
      </trkpt>
      <trkpt lat="44.8452" lon="6.70641">
        <ele>2397.18</ele>
        <time>2018-12-29T10:21:57Z</time>
      </trkpt>
      <trkpt lat="44.84514" lon="6.7064">
        <ele>2398.63</ele>
        <time>2018-12-29T10:22:11Z</time>
      </trkpt>
      <trkpt lat="44.8451" lon="6.70642">
        <ele>2399.59</ele>
        <time>2018-12-29T10:22:24Z</time>
      </trkpt>
      <trkpt lat="44.84505" lon="6.70642">
        <ele>2401.03</ele>
        <time>2018-12-29T10:22:37Z</time>
      </trkpt>
      <trkpt lat="44.845" lon="6.70643">
        <ele>2402.47</ele>
        <time>2018-12-29T10:22:50Z</time>
      </trkpt>
      <trkpt lat="44.84496" lon="6.70646">
        <ele>2403.43</ele>
        <time>2018-12-29T10:23:02Z</time>
      </trkpt>
      <trkpt lat="44.84493" lon="6.70649">
        <ele>2404.88</ele>
        <time>2018-12-29T10:23:15Z</time>
      </trkpt>
      <trkpt lat="44.84492" lon="6.70648">
        <ele>2406.32</ele>
        <time>2018-12-29T10:23:29Z</time>
      </trkpt>
      <trkpt lat="44.84493" lon="6.70641">
        <ele>2407.76</ele>
        <time>2018-12-29T10:23:42Z</time>
      </trkpt>
      <trkpt lat="44.84494" lon="6.70634">
        <ele>2408.72</ele>
        <time>2018-12-29T10:23:56Z</time>
      </trkpt>
      <trkpt lat="44.84495" lon="6.70628">
        <ele>2410.16</ele>
        <time>2018-12-29T10:24:11Z</time>
      </trkpt>
      <trkpt lat="44.84494" lon="6.70625">
        <ele>2412.09</ele>
        <time>2018-12-29T10:24:27Z</time>
      </trkpt>
      <trkpt lat="44.84488" lon="6.70625">
        <ele>2413.05</ele>
        <time>2018-12-29T10:24:40Z</time>
      </trkpt>
      <trkpt lat="44.84484" lon="6.70625">
        <ele>2414.49</ele>
        <time>2018-12-29T10:24:53Z</time>
      </trkpt>
      <trkpt lat="44.84478" lon="6.70626">
        <ele>2415.93</ele>
        <time>2018-12-29T10:25:07Z</time>
      </trkpt>
      <trkpt lat="44.84474" lon="6.70628">
        <ele>2417.37</ele>
        <time>2018-12-29T10:25:20Z</time>
      </trkpt>
      <trkpt lat="44.84469" lon="6.70631">
        <ele>2418.81</ele>
        <time>2018-12-29T10:25:34Z</time>
      </trkpt>
      <trkpt lat="44.84464" lon="6.70634">
        <ele>2420.26</ele>
        <time>2018-12-29T10:25:48Z</time>
      </trkpt>
      <trkpt lat="44.84459" lon="6.70636">
        <ele>2422.18</ele>
        <time>2018-12-29T10:26:02Z</time>
      </trkpt>
      <trkpt lat="44.84456" lon="6.70637">
        <ele>2423.62</ele>
        <time>2018-12-29T10:26:16Z</time>
      </trkpt>
      <trkpt lat="44.84457" lon="6.70633">
        <ele>2424.1</ele>
        <time>2018-12-29T10:26:28Z</time>
      </trkpt>
      <trkpt lat="44.84459" lon="6.70626">
        <ele>2426.02</ele>
        <time>2018-12-29T10:26:42Z</time>
      </trkpt>
      <trkpt lat="44.84459" lon="6.70619">
        <ele>2426.99</ele>
        <time>2018-12-29T10:26:57Z</time>
      </trkpt>
      <trkpt lat="44.8446" lon="6.70612">
        <ele>2428.91</ele>
        <time>2018-12-29T10:27:13Z</time>
      </trkpt>
      <trkpt lat="44.84459" lon="6.7061">
        <ele>2429.87</ele>
        <time>2018-12-29T10:27:25Z</time>
      </trkpt>
      <trkpt lat="44.84453" lon="6.70612">
        <ele>2431.31</ele>
        <time>2018-12-29T10:27:38Z</time>
      </trkpt>
      <trkpt lat="44.84449" lon="6.70613">
        <ele>2432.75</ele>
        <time>2018-12-29T10:27:53Z</time>
      </trkpt>
      <trkpt lat="44.84444" lon="6.70615">
        <ele>2434.2</ele>
        <time>2018-12-29T10:28:07Z</time>
      </trkpt>
      <trkpt lat="44.84438" lon="6.70616">
        <ele>2436.12</ele>
        <time>2018-12-29T10:28:21Z</time>
      </trkpt>
      <trkpt lat="44.84433" lon="6.70618">
        <ele>2437.56</ele>
        <time>2018-12-29T10:28:36Z</time>
      </trkpt>
      <trkpt lat="44.8443" lon="6.70622">
        <ele>2439</ele>
        <time>2018-12-29T10:28:51Z</time>
      </trkpt>
      <trkpt lat="44.84432" lon="6.70619">
        <ele>2439.96</ele>
        <time>2018-12-29T10:29:03Z</time>
      </trkpt>
      <trkpt lat="44.84431" lon="6.70611">
        <ele>2441.41</ele>
        <time>2018-12-29T10:29:16Z</time>
      </trkpt>
      <trkpt lat="44.84426" lon="6.70613">
        <ele>2442.37</ele>
        <time>2018-12-29T10:29:27Z</time>
      </trkpt>
      <trkpt lat="44.84422" lon="6.70614">
        <ele>2443.81</ele>
        <time>2018-12-29T10:29:39Z</time>
      </trkpt>
      <trkpt lat="44.84418" lon="6.70615">
        <ele>2444.77</ele>
        <time>2018-12-29T10:29:52Z</time>
      </trkpt>
      <trkpt lat="44.84414" lon="6.70618">
        <ele>2446.69</ele>
        <time>2018-12-29T10:30:07Z</time>
      </trkpt>
      <trkpt lat="44.84415" lon="6.70614">
        <ele>2447.65</ele>
        <time>2018-12-29T10:30:19Z</time>
      </trkpt>
      <trkpt lat="44.84416" lon="6.70608">
        <ele>2449.1</ele>
        <time>2018-12-29T10:30:36Z</time>
      </trkpt>
      <trkpt lat="44.84419" lon="6.70603">
        <ele>2450.54</ele>
        <time>2018-12-29T10:30:50Z</time>
      </trkpt>
      <trkpt lat="44.8442" lon="6.70598">
        <ele>2451.5</ele>
        <time>2018-12-29T10:31:03Z</time>
      </trkpt>
      <trkpt lat="44.84423" lon="6.70592">
        <ele>2452.94</ele>
        <time>2018-12-29T10:31:18Z</time>
      </trkpt>
      <trkpt lat="44.84425" lon="6.70586">
        <ele>2454.38</ele>
        <time>2018-12-29T10:31:33Z</time>
      </trkpt>
      <trkpt lat="44.84426" lon="6.7058">
        <ele>2455.82</ele>
        <time>2018-12-29T10:31:48Z</time>
      </trkpt>
      <trkpt lat="44.84429" lon="6.70575">
        <ele>2457.27</ele>
        <time>2018-12-29T10:32:02Z</time>
      </trkpt>
      <trkpt lat="44.84432" lon="6.70571">
        <ele>2458.71</ele>
        <time>2018-12-29T10:32:17Z</time>
      </trkpt>
      <trkpt lat="44.84434" lon="6.70567">
        <ele>2460.15</ele>
        <time>2018-12-29T10:32:31Z</time>
      </trkpt>
      <trkpt lat="44.84437" lon="6.70563">
        <ele>2461.11</ele>
        <time>2018-12-29T10:32:47Z</time>
      </trkpt>
      <trkpt lat="44.84431" lon="6.70563">
        <ele>2462.55</ele>
        <time>2018-12-29T10:33:02Z</time>
      </trkpt>
      <trkpt lat="44.84428" lon="6.70563">
        <ele>2463.52</ele>
        <time>2018-12-29T10:33:15Z</time>
      </trkpt>
      <trkpt lat="44.84424" lon="6.70566">
        <ele>2464.96</ele>
        <time>2018-12-29T10:33:28Z</time>
      </trkpt>
      <trkpt lat="44.8442" lon="6.70568">
        <ele>2465.44</ele>
        <time>2018-12-29T10:33:43Z</time>
      </trkpt>
      <trkpt lat="44.84419" lon="6.70567">
        <ele>2465.92</ele>
        <time>2018-12-29T10:33:59Z</time>
      </trkpt>
      <trkpt lat="44.84413" lon="6.70566">
        <ele>2467.84</ele>
        <time>2018-12-29T10:34:14Z</time>
      </trkpt>
      <trkpt lat="44.8441" lon="6.70569">
        <ele>2468.8</ele>
        <time>2018-12-29T10:34:27Z</time>
      </trkpt>
      <trkpt lat="44.84405" lon="6.7057">
        <ele>2470.24</ele>
        <time>2018-12-29T10:34:42Z</time>
      </trkpt>
      <trkpt lat="44.84401" lon="6.7057">
        <ele>2471.69</ele>
        <time>2018-12-29T10:34:56Z</time>
      </trkpt>
      <trkpt lat="44.84401" lon="6.70569">
        <ele>2472.17</ele>
        <time>2018-12-29T10:35:10Z</time>
      </trkpt>
      <trkpt lat="44.84396" lon="6.70572">
        <ele>2473.61</ele>
        <time>2018-12-29T10:35:25Z</time>
      </trkpt>
      <trkpt lat="44.84392" lon="6.70573">
        <ele>2474.57</ele>
        <time>2018-12-29T10:35:37Z</time>
      </trkpt>
      <trkpt lat="44.8439" lon="6.70574">
        <ele>2476.01</ele>
        <time>2018-12-29T10:35:51Z</time>
      </trkpt>
      <trkpt lat="44.84387" lon="6.70575">
        <ele>2476.49</ele>
        <time>2018-12-29T10:36:17Z</time>
      </trkpt>
      <trkpt lat="44.84388" lon="6.70574">
        <ele>2476.97</ele>
        <time>2018-12-29T10:36:28Z</time>
      </trkpt>
      <trkpt lat="44.8439" lon="6.70573">
        <ele>2476.97</ele>
        <time>2018-12-29T10:36:39Z</time>
      </trkpt>
      <trkpt lat="44.8439" lon="6.70571">
        <ele>2477.94</ele>
        <time>2018-12-29T10:36:54Z</time>
      </trkpt>
      <trkpt lat="44.8439" lon="6.70568">
        <ele>2478.42</ele>
        <time>2018-12-29T10:37:14Z</time>
      </trkpt>
      <trkpt lat="44.84387" lon="6.7057">
        <ele>2479.38</ele>
        <time>2018-12-29T10:37:25Z</time>
      </trkpt>
      <trkpt lat="44.84383" lon="6.70571">
        <ele>2480.34</ele>
        <time>2018-12-29T10:37:38Z</time>
      </trkpt>
      <trkpt lat="44.84379" lon="6.70572">
        <ele>2481.78</ele>
        <time>2018-12-29T10:37:53Z</time>
      </trkpt>
      <trkpt lat="44.84378" lon="6.70573">
        <ele>2482.74</ele>
        <time>2018-12-29T10:38:05Z</time>
      </trkpt>
      <trkpt lat="44.8438" lon="6.7057">
        <ele>2483.22</ele>
        <time>2018-12-29T10:38:19Z</time>
      </trkpt>
      <trkpt lat="44.84379" lon="6.70569">
        <ele>2484.18</ele>
        <time>2018-12-29T10:38:38Z</time>
      </trkpt>
      <trkpt lat="44.84374" lon="6.70571">
        <ele>2485.15</ele>
        <time>2018-12-29T10:38:51Z</time>
      </trkpt>
      <trkpt lat="44.8437" lon="6.70573">
        <ele>2486.59</ele>
        <time>2018-12-29T10:39:04Z</time>
      </trkpt>
      <trkpt lat="44.84368" lon="6.70574">
        <ele>2487.55</ele>
        <time>2018-12-29T10:39:20Z</time>
      </trkpt>
      <trkpt lat="44.84365" lon="6.70575">
        <ele>2488.03</ele>
        <time>2018-12-29T10:39:36Z</time>
      </trkpt>
      <trkpt lat="44.84363" lon="6.70577">
        <ele>2489.47</ele>
        <time>2018-12-29T10:39:52Z</time>
      </trkpt>
      <trkpt lat="44.84363" lon="6.70574">
        <ele>2490.43</ele>
        <time>2018-12-29T10:40:05Z</time>
      </trkpt>
      <trkpt lat="44.84362" lon="6.70572">
        <ele>2491.39</ele>
        <time>2018-12-29T10:40:21Z</time>
      </trkpt>
      <trkpt lat="44.84363" lon="6.70573">
        <ele>2491.39</ele>
        <time>2018-12-29T10:40:38Z</time>
      </trkpt>
      <trkpt lat="44.84362" lon="6.70575">
        <ele>2491.39</ele>
        <time>2018-12-29T10:40:58Z</time>
      </trkpt>
      <trkpt lat="44.84359" lon="6.70579">
        <ele>2492.36</ele>
        <time>2018-12-29T10:41:13Z</time>
      </trkpt>
      <trkpt lat="44.84359" lon="6.70581">
        <ele>2493.8</ele>
        <time>2018-12-29T10:41:32Z</time>
      </trkpt>
      <trkpt lat="44.84355" lon="6.70583">
        <ele>2493.8</ele>
        <time>2018-12-29T10:41:48Z</time>
      </trkpt>
      <trkpt lat="44.84352" lon="6.70587">
        <ele>2495.24</ele>
        <time>2018-12-29T10:42:06Z</time>
      </trkpt>
      <trkpt lat="44.84348" lon="6.70592">
        <ele>2496.68</ele>
        <time>2018-12-29T10:42:20Z</time>
      </trkpt>
      <trkpt lat="44.84345" lon="6.70596">
        <ele>2498.12</ele>
        <time>2018-12-29T10:42:37Z</time>
      </trkpt>
      <trkpt lat="44.84345" lon="6.70594">
        <ele>2498.6</ele>
        <time>2018-12-29T10:42:53Z</time>
      </trkpt>
      <trkpt lat="44.84345" lon="6.70588">
        <ele>2499.57</ele>
        <time>2018-12-29T10:43:07Z</time>
      </trkpt>
      <trkpt lat="44.84346" lon="6.70584">
        <ele>2500.53</ele>
        <time>2018-12-29T10:43:22Z</time>
      </trkpt>
      <trkpt lat="44.84345" lon="6.7058">
        <ele>2501.49</ele>
        <time>2018-12-29T10:43:37Z</time>
      </trkpt>
      <trkpt lat="44.84345" lon="6.70575">
        <ele>2502.45</ele>
        <time>2018-12-29T10:43:48Z</time>
      </trkpt>
      <trkpt lat="44.84344" lon="6.70568">
        <ele>2503.89</ele>
        <time>2018-12-29T10:44:04Z</time>
      </trkpt>
      <trkpt lat="44.84342" lon="6.70568">
        <ele>2504.37</ele>
        <time>2018-12-29T10:44:17Z</time>
      </trkpt>
      <trkpt lat="44.84341" lon="6.70571">
        <ele>2505.81</ele>
        <time>2018-12-29T10:44:34Z</time>
      </trkpt>
      <trkpt lat="44.84339" lon="6.70575">
        <ele>2507.26</ele>
        <time>2018-12-29T10:44:46Z</time>
      </trkpt>
      <trkpt lat="44.84338" lon="6.70577">
        <ele>2507.74</ele>
        <time>2018-12-29T10:45:01Z</time>
      </trkpt>
      <trkpt lat="44.84335" lon="6.70582">
        <ele>2509.18</ele>
        <time>2018-12-29T10:45:13Z</time>
      </trkpt>
      <trkpt lat="44.84333" lon="6.70586">
        <ele>2510.14</ele>
        <time>2018-12-29T10:45:25Z</time>
      </trkpt>
      <trkpt lat="44.8433" lon="6.70591">
        <ele>2511.58</ele>
        <time>2018-12-29T10:45:40Z</time>
      </trkpt>
      <trkpt lat="44.84327" lon="6.70596">
        <ele>2514.47</ele>
        <time>2018-12-29T10:45:53Z</time>
      </trkpt>
      <trkpt lat="44.84325" lon="6.70601">
        <ele>2514.47</ele>
        <time>2018-12-29T10:46:08Z</time>
      </trkpt>
      <trkpt lat="44.84321" lon="6.70607">
        <ele>2515.91</ele>
        <time>2018-12-29T10:46:23Z</time>
      </trkpt>
      <trkpt lat="44.8432" lon="6.70609">
        <ele>2516.87</ele>
        <time>2018-12-29T10:46:39Z</time>
      </trkpt>
      <trkpt lat="44.8432" lon="6.7061">
        <ele>2516.87</ele>
        <time>2018-12-29T10:46:56Z</time>
      </trkpt>
      <trkpt lat="44.84316" lon="6.70615">
        <ele>2518.31</ele>
        <time>2018-12-29T10:47:13Z</time>
      </trkpt>
      <trkpt lat="44.84312" lon="6.7062">
        <ele>2519.75</ele>
        <time>2018-12-29T10:47:29Z</time>
      </trkpt>
      <trkpt lat="44.84308" lon="6.70625">
        <ele>2521.19</ele>
        <time>2018-12-29T10:47:42Z</time>
      </trkpt>
      <trkpt lat="44.84305" lon="6.70629">
        <ele>2524.08</ele>
        <time>2018-12-29T10:47:54Z</time>
      </trkpt>
      <trkpt lat="44.84302" lon="6.70635">
        <ele>2524.08</ele>
        <time>2018-12-29T10:48:08Z</time>
      </trkpt>
      <trkpt lat="44.84299" lon="6.70642">
        <ele>2525.04</ele>
        <time>2018-12-29T10:48:22Z</time>
      </trkpt>
      <trkpt lat="44.84297" lon="6.70648">
        <ele>2526</ele>
        <time>2018-12-29T10:48:35Z</time>
      </trkpt>
      <trkpt lat="44.84294" lon="6.70653">
        <ele>2527.92</ele>
        <time>2018-12-29T10:48:48Z</time>
      </trkpt>
      <trkpt lat="44.84292" lon="6.70659">
        <ele>2529.37</ele>
        <time>2018-12-29T10:49:01Z</time>
      </trkpt>
      <trkpt lat="44.84289" lon="6.70665">
        <ele>2530.33</ele>
        <time>2018-12-29T10:49:15Z</time>
      </trkpt>
      <trkpt lat="44.84286" lon="6.70672">
        <ele>2531.77</ele>
        <time>2018-12-29T10:49:29Z</time>
      </trkpt>
      <trkpt lat="44.84284" lon="6.70675">
        <ele>2532.73</ele>
        <time>2018-12-29T10:49:44Z</time>
      </trkpt>
      <trkpt lat="44.84283" lon="6.70679">
        <ele>2534.17</ele>
        <time>2018-12-29T10:49:57Z</time>
      </trkpt>
      <trkpt lat="44.84281" lon="6.70682">
        <ele>2535.13</ele>
        <time>2018-12-29T10:50:11Z</time>
      </trkpt>
      <trkpt lat="44.8428" lon="6.70683">
        <ele>2536.1</ele>
        <time>2018-12-29T10:50:24Z</time>
      </trkpt>
      <trkpt lat="44.84278" lon="6.70686">
        <ele>2537.06</ele>
        <time>2018-12-29T10:50:38Z</time>
      </trkpt>
      <trkpt lat="44.84277" lon="6.70691">
        <ele>2538.5</ele>
        <time>2018-12-29T10:50:52Z</time>
      </trkpt>
      <trkpt lat="44.84275" lon="6.70691">
        <ele>2538.5</ele>
        <time>2018-12-29T10:51:07Z</time>
      </trkpt>
      <trkpt lat="44.84274" lon="6.70688">
        <ele>2538.5</ele>
        <time>2018-12-29T10:51:29Z</time>
      </trkpt>
      <trkpt lat="44.84276" lon="6.70691">
        <ele>2538.02</ele>
        <time>2018-12-29T10:51:45Z</time>
      </trkpt>
      <trkpt lat="44.84277" lon="6.70692">
        <ele>2536.1</ele>
        <time>2018-12-29T10:51:53Z</time>
      </trkpt>
      <trkpt lat="44.84277" lon="6.70692">
        <ele>2538.02</ele>
        <time>2018-12-29T10:51:55Z</time>
      </trkpt>
      <trkpt lat="44.84277" lon="6.70692">
        <ele>2537.54</ele>
        <time>2018-12-29T10:52:22Z</time>
      </trkpt>
      <trkpt lat="44.84278" lon="6.7069">
        <ele>2538.98</ele>
        <time>2018-12-29T10:52:30Z</time>
      </trkpt>
      <trkpt lat="44.84276" lon="6.70689">
        <ele>2538.5</ele>
        <time>2018-12-29T10:52:52Z</time>
      </trkpt>
      <trkpt lat="44.84274" lon="6.70689">
        <ele>2539.94</ele>
        <time>2018-12-29T10:53:07Z</time>
      </trkpt>
      <trkpt lat="44.8427" lon="6.70694">
        <ele>2541.38</ele>
        <time>2018-12-29T10:53:22Z</time>
      </trkpt>
      <trkpt lat="44.84265" lon="6.70697">
        <ele>2542.82</ele>
        <time>2018-12-29T10:53:35Z</time>
      </trkpt>
      <trkpt lat="44.84263" lon="6.70701">
        <ele>2544.27</ele>
        <time>2018-12-29T10:53:50Z</time>
      </trkpt>
      <trkpt lat="44.8426" lon="6.70703">
        <ele>2545.23</ele>
        <time>2018-12-29T10:54:02Z</time>
      </trkpt>
      <trkpt lat="44.84259" lon="6.70711">
        <ele>2547.15</ele>
        <time>2018-12-29T10:54:17Z</time>
      </trkpt>
      <trkpt lat="44.8426" lon="6.7071">
        <ele>2547.63</ele>
        <time>2018-12-29T10:54:33Z</time>
      </trkpt>
      <trkpt lat="44.84259" lon="6.70704">
        <ele>2549.07</ele>
        <time>2018-12-29T10:54:51Z</time>
      </trkpt>
      <trkpt lat="44.84259" lon="6.70699">
        <ele>2550.03</ele>
        <time>2018-12-29T10:55:05Z</time>
      </trkpt>
      <trkpt lat="44.84257" lon="6.70694">
        <ele>2551.48</ele>
        <time>2018-12-29T10:55:19Z</time>
      </trkpt>
      <trkpt lat="44.84257" lon="6.70687">
        <ele>2552.92</ele>
        <time>2018-12-29T10:55:35Z</time>
      </trkpt>
      <trkpt lat="44.84256" lon="6.70682">
        <ele>2553.88</ele>
        <time>2018-12-29T10:55:48Z</time>
      </trkpt>
      <trkpt lat="44.84255" lon="6.70683">
        <ele>2554.84</ele>
        <time>2018-12-29T10:56:01Z</time>
      </trkpt>
      <trkpt lat="44.84253" lon="6.70685">
        <ele>2556.28</ele>
        <time>2018-12-29T10:56:23Z</time>
      </trkpt>
      <trkpt lat="44.84249" lon="6.7069">
        <ele>2557.24</ele>
        <time>2018-12-29T10:56:37Z</time>
      </trkpt>
      <trkpt lat="44.84247" lon="6.70695">
        <ele>2559.65</ele>
        <time>2018-12-29T10:56:54Z</time>
      </trkpt>
      <trkpt lat="44.84243" lon="6.70699">
        <ele>2560.61</ele>
        <time>2018-12-29T10:57:07Z</time>
      </trkpt>
      <trkpt lat="44.8424" lon="6.70703">
        <ele>2562.53</ele>
        <time>2018-12-29T10:57:21Z</time>
      </trkpt>
      <trkpt lat="44.84239" lon="6.70708">
        <ele>2563.49</ele>
        <time>2018-12-29T10:57:35Z</time>
      </trkpt>
      <trkpt lat="44.84238" lon="6.70714">
        <ele>2564.93</ele>
        <time>2018-12-29T10:57:48Z</time>
      </trkpt>
      <trkpt lat="44.84236" lon="6.70714">
        <ele>2565.9</ele>
        <time>2018-12-29T10:58:02Z</time>
      </trkpt>
      <trkpt lat="44.84234" lon="6.70713">
        <ele>2566.38</ele>
        <time>2018-12-29T10:58:26Z</time>
      </trkpt>
      <trkpt lat="44.84232" lon="6.70712">
        <ele>2567.82</ele>
        <time>2018-12-29T10:58:39Z</time>
      </trkpt>
      <trkpt lat="44.84231" lon="6.70713">
        <ele>2569.26</ele>
        <time>2018-12-29T10:58:53Z</time>
      </trkpt>
      <trkpt lat="44.84226" lon="6.70715">
        <ele>2570.22</ele>
        <time>2018-12-29T10:59:09Z</time>
      </trkpt>
      <trkpt lat="44.84227" lon="6.70714">
        <ele>2570.7</ele>
        <time>2018-12-29T10:59:36Z</time>
      </trkpt>
      <trkpt lat="44.84226" lon="6.70718">
        <ele>2571.18</ele>
        <time>2018-12-29T10:59:54Z</time>
      </trkpt>
      <trkpt lat="44.84223" lon="6.70716">
        <ele>2572.14</ele>
        <time>2018-12-29T11:00:09Z</time>
      </trkpt>
      <trkpt lat="44.84225" lon="6.70716">
        <ele>2572.14</ele>
        <time>2018-12-29T11:00:29Z</time>
      </trkpt>
      <trkpt lat="44.84227" lon="6.70718">
        <ele>2572.63</ele>
        <time>2018-12-29T11:00:50Z</time>
      </trkpt>
      <trkpt lat="44.84226" lon="6.70718">
        <ele>2572.63</ele>
        <time>2018-12-29T11:01:07Z</time>
      </trkpt>
      <trkpt lat="44.84226" lon="6.70716">
        <ele>2572.63</ele>
        <time>2018-12-29T11:01:26Z</time>
      </trkpt>
      <trkpt lat="44.84222" lon="6.70715">
        <ele>2573.11</ele>
        <time>2018-12-29T11:01:40Z</time>
      </trkpt>
      <trkpt lat="44.84218" lon="6.70712">
        <ele>2575.03</ele>
        <time>2018-12-29T11:01:53Z</time>
      </trkpt>
      <trkpt lat="44.84216" lon="6.70713">
        <ele>2576.47</ele>
        <time>2018-12-29T11:02:06Z</time>
      </trkpt>
      <trkpt lat="44.84219" lon="6.70709">
        <ele>2577.43</ele>
        <time>2018-12-29T11:02:18Z</time>
      </trkpt>
      <trkpt lat="44.84219" lon="6.70705">
        <ele>2578.87</ele>
        <time>2018-12-29T11:02:30Z</time>
      </trkpt>
      <trkpt lat="44.8422" lon="6.70699">
        <ele>2580.32</ele>
        <time>2018-12-29T11:02:44Z</time>
      </trkpt>
      <trkpt lat="44.8422" lon="6.70695">
        <ele>2580.8</ele>
        <time>2018-12-29T11:02:55Z</time>
      </trkpt>
      <trkpt lat="44.84219" lon="6.7069">
        <ele>2582.24</ele>
        <time>2018-12-29T11:03:08Z</time>
      </trkpt>
      <trkpt lat="44.84219" lon="6.70685">
        <ele>2583.2</ele>
        <time>2018-12-29T11:03:20Z</time>
      </trkpt>
      <trkpt lat="44.84218" lon="6.70682">
        <ele>2584.64</ele>
        <time>2018-12-29T11:03:33Z</time>
      </trkpt>
      <trkpt lat="44.84215" lon="6.70685">
        <ele>2585.12</ele>
        <time>2018-12-29T11:03:44Z</time>
      </trkpt>
      <trkpt lat="44.84212" lon="6.70688">
        <ele>2587.04</ele>
        <time>2018-12-29T11:03:58Z</time>
      </trkpt>
      <trkpt lat="44.84211" lon="6.7069">
        <ele>2588.01</ele>
        <time>2018-12-29T11:04:21Z</time>
      </trkpt>
      <trkpt lat="44.84206" lon="6.70694">
        <ele>2589.45</ele>
        <time>2018-12-29T11:04:36Z</time>
      </trkpt>
      <trkpt lat="44.84202" lon="6.70696">
        <ele>2591.37</ele>
        <time>2018-12-29T11:04:50Z</time>
      </trkpt>
      <trkpt lat="44.84202" lon="6.70695">
        <ele>2591.85</ele>
        <time>2018-12-29T11:05:02Z</time>
      </trkpt>
      <trkpt lat="44.84203" lon="6.70693">
        <ele>2592.81</ele>
        <time>2018-12-29T11:05:18Z</time>
      </trkpt>
      <trkpt lat="44.84203" lon="6.70691">
        <ele>2593.77</ele>
        <time>2018-12-29T11:05:36Z</time>
      </trkpt>
      <trkpt lat="44.84202" lon="6.70685">
        <ele>2594.74</ele>
        <time>2018-12-29T11:05:51Z</time>
      </trkpt>
      <trkpt lat="44.84201" lon="6.70683">
        <ele>2596.66</ele>
        <time>2018-12-29T11:06:09Z</time>
      </trkpt>
      <trkpt lat="44.84196" lon="6.70686">
        <ele>2598.1</ele>
        <time>2018-12-29T11:06:24Z</time>
      </trkpt>
      <trkpt lat="44.84192" lon="6.70688">
        <ele>2599.54</ele>
        <time>2018-12-29T11:06:38Z</time>
      </trkpt>
      <trkpt lat="44.84189" lon="6.70691">
        <ele>2600.5</ele>
        <time>2018-12-29T11:06:51Z</time>
      </trkpt>
      <trkpt lat="44.84187" lon="6.7069">
        <ele>2601.46</ele>
        <time>2018-12-29T11:07:03Z</time>
      </trkpt>
      <trkpt lat="44.8419" lon="6.70688">
        <ele>2601.95</ele>
        <time>2018-12-29T11:07:19Z</time>
      </trkpt>
      <trkpt lat="44.84191" lon="6.70685">
        <ele>2602.91</ele>
        <time>2018-12-29T11:07:34Z</time>
      </trkpt>
      <trkpt lat="44.84187" lon="6.70684">
        <ele>2604.35</ele>
        <time>2018-12-29T11:07:49Z</time>
      </trkpt>
      <trkpt lat="44.84183" lon="6.70683">
        <ele>2605.31</ele>
        <time>2018-12-29T11:08:02Z</time>
      </trkpt>
      <trkpt lat="44.84185" lon="6.70683">
        <ele>2606.27</ele>
        <time>2018-12-29T11:08:19Z</time>
      </trkpt>
      <trkpt lat="44.84188" lon="6.70685">
        <ele>2606.27</ele>
        <time>2018-12-29T11:08:40Z</time>
      </trkpt>
      <trkpt lat="44.84188" lon="6.70682">
        <ele>2607.23</ele>
        <time>2018-12-29T11:08:56Z</time>
      </trkpt>
      <trkpt lat="44.84189" lon="6.70678">
        <ele>2608.67</ele>
        <time>2018-12-29T11:09:10Z</time>
      </trkpt>
      <trkpt lat="44.84192" lon="6.70674">
        <ele>2609.64</ele>
        <time>2018-12-29T11:09:25Z</time>
      </trkpt>
      <trkpt lat="44.8419" lon="6.70673">
        <ele>2610.6</ele>
        <time>2018-12-29T11:09:41Z</time>
      </trkpt>
      <trkpt lat="44.84187" lon="6.70673">
        <ele>2610.6</ele>
        <time>2018-12-29T11:10:02Z</time>
      </trkpt>
      <trkpt lat="44.84188" lon="6.70673">
        <ele>2610.6</ele>
        <time>2018-12-29T11:10:24Z</time>
      </trkpt>
      <trkpt lat="44.84188" lon="6.70671">
        <ele>2610.6</ele>
        <time>2018-12-29T11:10:47Z</time>
      </trkpt>
      <trkpt lat="44.84189" lon="6.70672">
        <ele>2610.6</ele>
        <time>2018-12-29T11:11:09Z</time>
      </trkpt>
      <trkpt lat="44.84188" lon="6.70672">
        <ele>2611.08</ele>
        <time>2018-12-29T11:11:34Z</time>
      </trkpt>
      <trkpt lat="44.8419" lon="6.7067">
        <ele>2612.04</ele>
        <time>2018-12-29T11:11:50Z</time>
      </trkpt>
      <trkpt lat="44.84188" lon="6.70668">
        <ele>2612.52</ele>
        <time>2018-12-29T11:12:08Z</time>
      </trkpt>
      <trkpt lat="44.84187" lon="6.70668">
        <ele>2614.44</ele>
        <time>2018-12-29T11:12:23Z</time>
      </trkpt>
      <trkpt lat="44.84185" lon="6.70664">
        <ele>2615.88</ele>
        <time>2018-12-29T11:12:38Z</time>
      </trkpt>
      <trkpt lat="44.84185" lon="6.70664">
        <ele>2616.37</ele>
        <time>2018-12-29T11:12:51Z</time>
      </trkpt>
      <trkpt lat="44.84185" lon="6.7066">
        <ele>2617.81</ele>
        <time>2018-12-29T11:13:05Z</time>
      </trkpt>
      <trkpt lat="44.84183" lon="6.70659">
        <ele>2618.77</ele>
        <time>2018-12-29T11:13:18Z</time>
      </trkpt>
      <trkpt lat="44.84183" lon="6.70658">
        <ele>2619.73</ele>
        <time>2018-12-29T11:13:34Z</time>
      </trkpt>
      <trkpt lat="44.84183" lon="6.70657">
        <ele>2620.69</ele>
        <time>2018-12-29T11:13:48Z</time>
      </trkpt>
      <trkpt lat="44.84183" lon="6.70658">
        <ele>2621.17</ele>
        <time>2018-12-29T11:14:05Z</time>
      </trkpt>
      <trkpt lat="44.84186" lon="6.70655">
        <ele>2621.17</ele>
        <time>2018-12-29T11:14:26Z</time>
      </trkpt>
      <trkpt lat="44.84189" lon="6.70651">
        <ele>2621.17</ele>
        <time>2018-12-29T11:14:38Z</time>
      </trkpt>
      <trkpt lat="44.84192" lon="6.70651">
        <ele>2621.65</ele>
        <time>2018-12-29T11:14:49Z</time>
      </trkpt>
      <trkpt lat="44.84191" lon="6.70653">
        <ele>2621.65</ele>
        <time>2018-12-29T11:15:03Z</time>
      </trkpt>
      <trkpt lat="44.84192" lon="6.70652">
        <ele>2621.17</ele>
        <time>2018-12-29T11:15:17Z</time>
      </trkpt>
      <trkpt lat="44.84193" lon="6.70652">
        <ele>2621.65</ele>
        <time>2018-12-29T11:15:35Z</time>
      </trkpt>
      <trkpt lat="44.84193" lon="6.70649">
        <ele>2622.13</ele>
        <time>2018-12-29T11:15:51Z</time>
      </trkpt>
      <trkpt lat="44.84193" lon="6.70652">
        <ele>2621.65</ele>
        <time>2018-12-29T11:16:08Z</time>
      </trkpt>
      <trkpt lat="44.84192" lon="6.70649">
        <ele>2621.65</ele>
        <time>2018-12-29T11:16:28Z</time>
      </trkpt>
      <trkpt lat="44.84193" lon="6.70649">
        <ele>2621.65</ele>
        <time>2018-12-29T11:16:51Z</time>
      </trkpt>
      <trkpt lat="44.84193" lon="6.7065">
        <ele>2621.65</ele>
        <time>2018-12-29T11:17:15Z</time>
      </trkpt>
      <trkpt lat="44.84192" lon="6.7065">
        <ele>2621.65</ele>
        <time>2018-12-29T11:17:36Z</time>
      </trkpt>
      <trkpt lat="44.84192" lon="6.70651">
        <ele>2621.65</ele>
        <time>2018-12-29T11:18:02Z</time>
      </trkpt>
      <trkpt lat="44.84192" lon="6.7065">
        <ele>2621.65</ele>
        <time>2018-12-29T11:18:26Z</time>
      </trkpt>
      <trkpt lat="44.84193" lon="6.70652">
        <ele>2621.65</ele>
        <time>2018-12-29T11:18:46Z</time>
      </trkpt>
      <trkpt lat="44.84192" lon="6.70649">
        <ele>2621.65</ele>
        <time>2018-12-29T11:19:09Z</time>
      </trkpt>
      <trkpt lat="44.84193" lon="6.7065">
        <ele>2621.65</ele>
        <time>2018-12-29T11:19:34Z</time>
      </trkpt>
      <trkpt lat="44.84191" lon="6.70652">
        <ele>2621.65</ele>
        <time>2018-12-29T11:20:05Z</time>
      </trkpt>
      <trkpt lat="44.84191" lon="6.7065">
        <ele>2621.65</ele>
        <time>2018-12-29T11:20:20Z</time>
      </trkpt>
      <trkpt lat="44.84192" lon="6.70651">
        <ele>2621.65</ele>
        <time>2018-12-29T11:20:42Z</time>
      </trkpt>
      <trkpt lat="44.84191" lon="6.7065">
        <ele>2621.65</ele>
        <time>2018-12-29T11:21:12Z</time>
      </trkpt>
      <trkpt lat="44.84192" lon="6.70649">
        <ele>2621.65</ele>
        <time>2018-12-29T11:21:40Z</time>
      </trkpt>
      <trkpt lat="44.8419" lon="6.7065">
        <ele>2621.65</ele>
        <time>2018-12-29T11:22:02Z</time>
      </trkpt>
      <trkpt lat="44.84192" lon="6.70648">
        <ele>2621.65</ele>
        <time>2018-12-29T11:22:29Z</time>
      </trkpt>
      <trkpt lat="44.8419" lon="6.70652">
        <ele>2621.65</ele>
        <time>2018-12-29T11:22:55Z</time>
      </trkpt>
      <trkpt lat="44.8419" lon="6.70651">
        <ele>2621.65</ele>
        <time>2018-12-29T11:23:17Z</time>
      </trkpt>
      <trkpt lat="44.84187" lon="6.70649">
        <ele>2620.69</ele>
        <time>2018-12-29T11:23:34Z</time>
      </trkpt>
      <trkpt lat="44.84187" lon="6.70654">
        <ele>2620.21</ele>
        <time>2018-12-29T11:23:51Z</time>
      </trkpt>
      <trkpt lat="44.84185" lon="6.70658">
        <ele>2619.73</ele>
        <time>2018-12-29T11:24:07Z</time>
      </trkpt>
      <trkpt lat="44.84185" lon="6.70654">
        <ele>2619.73</ele>
        <time>2018-12-29T11:24:29Z</time>
      </trkpt>
      <trkpt lat="44.84184" lon="6.70656">
        <ele>2619.73</ele>
        <time>2018-12-29T11:24:49Z</time>
      </trkpt>
      <trkpt lat="44.84183" lon="6.70662">
        <ele>2618.77</ele>
        <time>2018-12-29T11:25:03Z</time>
      </trkpt>
      <trkpt lat="44.84186" lon="6.70664">
        <ele>2616.85</ele>
        <time>2018-12-29T11:25:16Z</time>
      </trkpt>
      <trkpt lat="44.84187" lon="6.70666">
        <ele>2616.37</ele>
        <time>2018-12-29T11:25:28Z</time>
      </trkpt>
      <trkpt lat="44.84187" lon="6.70669">
        <ele>2615.88</ele>
        <time>2018-12-29T11:25:48Z</time>
      </trkpt>
      <trkpt lat="44.84187" lon="6.70669">
        <ele>2615.4</ele>
        <time>2018-12-29T11:26:08Z</time>
      </trkpt>
      <trkpt lat="44.84187" lon="6.70667">
        <ele>2614.44</ele>
        <time>2018-12-29T11:26:26Z</time>
      </trkpt>
      <trkpt lat="44.84188" lon="6.7067">
        <ele>2613.48</ele>
        <time>2018-12-29T11:26:42Z</time>
      </trkpt>
      <trkpt lat="44.84188" lon="6.70672">
        <ele>2612.52</ele>
        <time>2018-12-29T11:26:58Z</time>
      </trkpt>
      <trkpt lat="44.84189" lon="6.70676">
        <ele>2612.04</ele>
        <time>2018-12-29T11:27:12Z</time>
      </trkpt>
      <trkpt lat="44.84189" lon="6.70676">
        <ele>2610.12</ele>
        <time>2018-12-29T11:27:32Z</time>
      </trkpt>
      <trkpt lat="44.84191" lon="6.70676">
        <ele>2610.12</ele>
        <time>2018-12-29T11:28:06Z</time>
      </trkpt>
      <trkpt lat="44.84189" lon="6.70677">
        <ele>2610.6</ele>
        <time>2018-12-29T11:28:49Z</time>
      </trkpt>
      <trkpt lat="44.84192" lon="6.70678">
        <ele>2610.6</ele>
        <time>2018-12-29T11:29:28Z</time>
      </trkpt>
      <trkpt lat="44.8419" lon="6.70678">
        <ele>2611.08</ele>
        <time>2018-12-29T11:30:03Z</time>
      </trkpt>
      <trkpt lat="44.84192" lon="6.70676">
        <ele>2611.08</ele>
        <time>2018-12-29T11:30:38Z</time>
      </trkpt>
      <trkpt lat="44.84191" lon="6.70676">
        <ele>2611.56</ele>
        <time>2018-12-29T11:31:15Z</time>
      </trkpt>
      <trkpt lat="44.84191" lon="6.70676">
        <ele>2612.52</ele>
        <time>2018-12-29T11:31:36Z</time>
      </trkpt>
      <trkpt lat="44.84189" lon="6.70673">
        <ele>2612.04</ele>
        <time>2018-12-29T11:31:57Z</time>
      </trkpt>
      <trkpt lat="44.84191" lon="6.7067">
        <ele>2612.52</ele>
        <time>2018-12-29T11:32:25Z</time>
      </trkpt>
      <trkpt lat="44.84188" lon="6.70673">
        <ele>2613</ele>
        <time>2018-12-29T11:32:46Z</time>
      </trkpt>
      <trkpt lat="44.8419" lon="6.70676">
        <ele>2613</ele>
        <time>2018-12-29T11:33:07Z</time>
      </trkpt>
      <trkpt lat="44.8419" lon="6.70679">
        <ele>2613</ele>
        <time>2018-12-29T11:33:11Z</time>
      </trkpt>
      <trkpt lat="44.84186" lon="6.70686">
        <ele>2609.64</ele>
        <time>2018-12-29T11:33:20Z</time>
      </trkpt>
      <trkpt lat="44.84188" lon="6.70689">
        <ele>2607.71</ele>
        <time>2018-12-29T11:33:28Z</time>
      </trkpt>
      <trkpt lat="44.84191" lon="6.70688">
        <ele>2607.71</ele>
        <time>2018-12-29T11:33:55Z</time>
      </trkpt>
      <trkpt lat="44.84195" lon="6.70689">
        <ele>2605.31</ele>
        <time>2018-12-29T11:34:11Z</time>
      </trkpt>
      <trkpt lat="44.84199" lon="6.70687">
        <ele>2603.39</ele>
        <time>2018-12-29T11:34:16Z</time>
      </trkpt>
      <trkpt lat="44.84201" lon="6.70687">
        <ele>2601.46</ele>
        <time>2018-12-29T11:34:20Z</time>
      </trkpt>
      <trkpt lat="44.84202" lon="6.70687">
        <ele>2600.98</ele>
        <time>2018-12-29T11:34:22Z</time>
      </trkpt>
      <trkpt lat="44.84202" lon="6.70692">
        <ele>2598.58</ele>
        <time>2018-12-29T11:34:26Z</time>
      </trkpt>
      <trkpt lat="44.84204" lon="6.707">
        <ele>2595.7</ele>
        <time>2018-12-29T11:34:40Z</time>
      </trkpt>
      <trkpt lat="44.84206" lon="6.70701">
        <ele>2594.25</ele>
        <time>2018-12-29T11:34:43Z</time>
      </trkpt>
      <trkpt lat="44.84206" lon="6.70699">
        <ele>2594.25</ele>
        <time>2018-12-29T11:35:03Z</time>
      </trkpt>
      <trkpt lat="44.84205" lon="6.707">
        <ele>2594.25</ele>
        <time>2018-12-29T11:35:24Z</time>
      </trkpt>
      <trkpt lat="44.84208" lon="6.70698">
        <ele>2594.25</ele>
        <time>2018-12-29T11:35:51Z</time>
      </trkpt>
      <trkpt lat="44.84205" lon="6.707">
        <ele>2594.25</ele>
        <time>2018-12-29T11:36:14Z</time>
      </trkpt>
      <trkpt lat="44.84206" lon="6.70702">
        <ele>2594.74</ele>
        <time>2018-12-29T11:36:42Z</time>
      </trkpt>
      <trkpt lat="44.84206" lon="6.70702">
        <ele>2595.22</ele>
        <time>2018-12-29T11:37:10Z</time>
      </trkpt>
      <trkpt lat="44.84206" lon="6.70698">
        <ele>2594.74</ele>
        <time>2018-12-29T11:37:39Z</time>
      </trkpt>
      <trkpt lat="44.84207" lon="6.70699">
        <ele>2595.22</ele>
        <time>2018-12-29T11:38:05Z</time>
      </trkpt>
      <trkpt lat="44.84211" lon="6.70699">
        <ele>2593.77</ele>
        <time>2018-12-29T11:38:33Z</time>
      </trkpt>
      <trkpt lat="44.84217" lon="6.70693">
        <ele>2591.37</ele>
        <time>2018-12-29T11:38:37Z</time>
      </trkpt>
      <trkpt lat="44.8422" lon="6.70688">
        <ele>2589.93</ele>
        <time>2018-12-29T11:38:39Z</time>
      </trkpt>
      <trkpt lat="44.84225" lon="6.70691">
        <ele>2586.56</ele>
        <time>2018-12-29T11:38:42Z</time>
      </trkpt>
      <trkpt lat="44.84225" lon="6.70704">
        <ele>2583.2</ele>
        <time>2018-12-29T11:38:48Z</time>
      </trkpt>
      <trkpt lat="44.84222" lon="6.70717">
        <ele>2581.28</ele>
        <time>2018-12-29T11:38:54Z</time>
      </trkpt>
      <trkpt lat="44.84229" lon="6.70719">
        <ele>2576.95</ele>
        <time>2018-12-29T11:39:05Z</time>
      </trkpt>
      <trkpt lat="44.84236" lon="6.70714">
        <ele>2573.59</ele>
        <time>2018-12-29T11:39:20Z</time>
      </trkpt>
      <trkpt lat="44.8424" lon="6.70711">
        <ele>2570.7</ele>
        <time>2018-12-29T11:39:34Z</time>
      </trkpt>
      <trkpt lat="44.84241" lon="6.70709">
        <ele>2569.74</ele>
        <time>2018-12-29T11:39:36Z</time>
      </trkpt>
      <trkpt lat="44.84242" lon="6.70705">
        <ele>2568.3</ele>
        <time>2018-12-29T11:39:38Z</time>
      </trkpt>
      <trkpt lat="44.84245" lon="6.70703">
        <ele>2566.86</ele>
        <time>2018-12-29T11:39:42Z</time>
      </trkpt>
      <trkpt lat="44.84251" lon="6.70708">
        <ele>2562.53</ele>
        <time>2018-12-29T11:39:46Z</time>
      </trkpt>
      <trkpt lat="44.84258" lon="6.70702">
        <ele>2559.17</ele>
        <time>2018-12-29T11:39:50Z</time>
      </trkpt>
      <trkpt lat="44.84257" lon="6.70702">
        <ele>2559.17</ele>
        <time>2018-12-29T11:39:51Z</time>
      </trkpt>
      <trkpt lat="44.84257" lon="6.70703">
        <ele>2559.17</ele>
        <time>2018-12-29T11:39:56Z</time>
      </trkpt>
      <trkpt lat="44.84258" lon="6.70702">
        <ele>2558.21</ele>
        <time>2018-12-29T11:39:58Z</time>
      </trkpt>
      <trkpt lat="44.8426" lon="6.707">
        <ele>2556.76</ele>
        <time>2018-12-29T11:40:01Z</time>
      </trkpt>
      <trkpt lat="44.84263" lon="6.70698">
        <ele>2555.8</ele>
        <time>2018-12-29T11:40:04Z</time>
      </trkpt>
      <trkpt lat="44.84266" lon="6.70706">
        <ele>2551.48</ele>
        <time>2018-12-29T11:40:08Z</time>
      </trkpt>
      <trkpt lat="44.84266" lon="6.70707">
        <ele>2551.48</ele>
        <time>2018-12-29T11:40:09Z</time>
      </trkpt>
      <trkpt lat="44.84264" lon="6.70708">
        <ele>2551</ele>
        <time>2018-12-29T11:40:29Z</time>
      </trkpt>
      <trkpt lat="44.84264" lon="6.70707">
        <ele>2551.48</ele>
        <time>2018-12-29T11:41:00Z</time>
      </trkpt>
      <trkpt lat="44.84265" lon="6.70705">
        <ele>2551</ele>
        <time>2018-12-29T11:41:11Z</time>
      </trkpt>
      <trkpt lat="44.84276" lon="6.70696">
        <ele>2549.07</ele>
        <time>2018-12-29T11:41:15Z</time>
      </trkpt>
      <trkpt lat="44.84281" lon="6.7069">
        <ele>2546.67</ele>
        <time>2018-12-29T11:41:18Z</time>
      </trkpt>
      <trkpt lat="44.8428" lon="6.7069">
        <ele>2545.23</ele>
        <time>2018-12-29T11:41:20Z</time>
      </trkpt>
      <trkpt lat="44.84278" lon="6.70691">
        <ele>2545.23</ele>
        <time>2018-12-29T11:41:41Z</time>
      </trkpt>
      <trkpt lat="44.84278" lon="6.70689">
        <ele>2545.23</ele>
        <time>2018-12-29T11:41:55Z</time>
      </trkpt>
      <trkpt lat="44.8428" lon="6.70692">
        <ele>2545.23</ele>
        <time>2018-12-29T11:42:16Z</time>
      </trkpt>
      <trkpt lat="44.84282" lon="6.70689">
        <ele>2545.23</ele>
        <time>2018-12-29T11:42:33Z</time>
      </trkpt>
      <trkpt lat="44.84283" lon="6.70686">
        <ele>2543.79</ele>
        <time>2018-12-29T11:42:45Z</time>
      </trkpt>
      <trkpt lat="44.84284" lon="6.70681">
        <ele>2542.82</ele>
        <time>2018-12-29T11:42:48Z</time>
      </trkpt>
      <trkpt lat="44.84286" lon="6.70679">
        <ele>2541.86</ele>
        <time>2018-12-29T11:42:50Z</time>
      </trkpt>
      <trkpt lat="44.84286" lon="6.70678">
        <ele>2540.42</ele>
        <time>2018-12-29T11:42:52Z</time>
      </trkpt>
      <trkpt lat="44.84286" lon="6.7068">
        <ele>2540.42</ele>
        <time>2018-12-29T11:43:08Z</time>
      </trkpt>
      <trkpt lat="44.84286" lon="6.7068">
        <ele>2540.42</ele>
        <time>2018-12-29T11:43:31Z</time>
      </trkpt>
      <trkpt lat="44.84285" lon="6.70679">
        <ele>2540.42</ele>
        <time>2018-12-29T11:43:44Z</time>
      </trkpt>
      <trkpt lat="44.84291" lon="6.70668">
        <ele>2536.58</ele>
        <time>2018-12-29T11:43:49Z</time>
      </trkpt>
      <trkpt lat="44.84299" lon="6.70676">
        <ele>2531.77</ele>
        <time>2018-12-29T11:43:53Z</time>
      </trkpt>
      <trkpt lat="44.84305" lon="6.70676">
        <ele>2528.89</ele>
        <time>2018-12-29T11:43:56Z</time>
      </trkpt>
      <trkpt lat="44.84308" lon="6.70667">
        <ele>2525.52</ele>
        <time>2018-12-29T11:44:00Z</time>
      </trkpt>
      <trkpt lat="44.84315" lon="6.70671">
        <ele>2521.68</ele>
        <time>2018-12-29T11:44:04Z</time>
      </trkpt>
      <trkpt lat="44.84315" lon="6.70677">
        <ele>2520.23</ele>
        <time>2018-12-29T11:44:05Z</time>
      </trkpt>
      <trkpt lat="44.84316" lon="6.70693">
        <ele>2516.87</ele>
        <time>2018-12-29T11:44:09Z</time>
      </trkpt>
      <trkpt lat="44.84323" lon="6.70689">
        <ele>2513.5</ele>
        <time>2018-12-29T11:44:13Z</time>
      </trkpt>
      <trkpt lat="44.84329" lon="6.707">
        <ele>2509.18</ele>
        <time>2018-12-29T11:44:16Z</time>
      </trkpt>
      <trkpt lat="44.84333" lon="6.70709">
        <ele>2505.33</ele>
        <time>2018-12-29T11:44:20Z</time>
      </trkpt>
      <trkpt lat="44.84335" lon="6.70699">
        <ele>2501.97</ele>
        <time>2018-12-29T11:44:23Z</time>
      </trkpt>
      <trkpt lat="44.8433" lon="6.70697">
        <ele>2501.97</ele>
        <time>2018-12-29T11:44:33Z</time>
      </trkpt>
      <trkpt lat="44.84329" lon="6.70697">
        <ele>2501.49</ele>
        <time>2018-12-29T11:44:40Z</time>
      </trkpt>
      <trkpt lat="44.84337" lon="6.70708">
        <ele>2497.16</ele>
        <time>2018-12-29T11:44:44Z</time>
      </trkpt>
      <trkpt lat="44.84345" lon="6.70701">
        <ele>2493.32</ele>
        <time>2018-12-29T11:44:47Z</time>
      </trkpt>
      <trkpt lat="44.84346" lon="6.70698">
        <ele>2491.39</ele>
        <time>2018-12-29T11:44:50Z</time>
      </trkpt>
      <trkpt lat="44.84346" lon="6.70698">
        <ele>2491.39</ele>
        <time>2018-12-29T11:44:55Z</time>
      </trkpt>
      <trkpt lat="44.8435" lon="6.70701">
        <ele>2488.51</ele>
        <time>2018-12-29T11:44:58Z</time>
      </trkpt>
      <trkpt lat="44.84351" lon="6.70707">
        <ele>2487.55</ele>
        <time>2018-12-29T11:45:00Z</time>
      </trkpt>
      <trkpt lat="44.84352" lon="6.7071">
        <ele>2487.07</ele>
        <time>2018-12-29T11:45:01Z</time>
      </trkpt>
      <trkpt lat="44.8436" lon="6.70707">
        <ele>2483.22</ele>
        <time>2018-12-29T11:45:04Z</time>
      </trkpt>
      <trkpt lat="44.84368" lon="6.70712">
        <ele>2478.9</ele>
        <time>2018-12-29T11:45:07Z</time>
      </trkpt>
      <trkpt lat="44.84376" lon="6.70709">
        <ele>2476.01</ele>
        <time>2018-12-29T11:45:09Z</time>
      </trkpt>
      <trkpt lat="44.8438" lon="6.70704">
        <ele>2472.65</ele>
        <time>2018-12-29T11:45:11Z</time>
      </trkpt>
      <trkpt lat="44.84382" lon="6.70707">
        <ele>2469.76</ele>
        <time>2018-12-29T11:45:12Z</time>
      </trkpt>
      <trkpt lat="44.84383" lon="6.70716">
        <ele>2467.84</ele>
        <time>2018-12-29T11:45:14Z</time>
      </trkpt>
      <trkpt lat="44.84393" lon="6.70703">
        <ele>2464.48</ele>
        <time>2018-12-29T11:45:19Z</time>
      </trkpt>
      <trkpt lat="44.84397" lon="6.70709">
        <ele>2459.19</ele>
        <time>2018-12-29T11:45:21Z</time>
      </trkpt>
      <trkpt lat="44.84403" lon="6.70707">
        <ele>2455.82</ele>
        <time>2018-12-29T11:45:25Z</time>
      </trkpt>
      <trkpt lat="44.84402" lon="6.70707">
        <ele>2454.86</ele>
        <time>2018-12-29T11:45:27Z</time>
      </trkpt>
      <trkpt lat="44.84401" lon="6.70707">
        <ele>2455.34</ele>
        <time>2018-12-29T11:45:49Z</time>
      </trkpt>
      <trkpt lat="44.84411" lon="6.70703">
        <ele>2451.98</ele>
        <time>2018-12-29T11:45:54Z</time>
      </trkpt>
      <trkpt lat="44.84415" lon="6.70716">
        <ele>2448.62</ele>
        <time>2018-12-29T11:45:57Z</time>
      </trkpt>
      <trkpt lat="44.84424" lon="6.70706">
        <ele>2445.73</ele>
        <time>2018-12-29T11:46:00Z</time>
      </trkpt>
      <trkpt lat="44.84427" lon="6.70708">
        <ele>2442.85</ele>
        <time>2018-12-29T11:46:02Z</time>
      </trkpt>
      <trkpt lat="44.84431" lon="6.70718">
        <ele>2439</ele>
        <time>2018-12-29T11:46:04Z</time>
      </trkpt>
      <trkpt lat="44.84431" lon="6.70722">
        <ele>2438.52</ele>
        <time>2018-12-29T11:46:05Z</time>
      </trkpt>
      <trkpt lat="44.84433" lon="6.70729">
        <ele>2438.04</ele>
        <time>2018-12-29T11:46:07Z</time>
      </trkpt>
      <trkpt lat="44.84444" lon="6.70715">
        <ele>2433.23</ele>
        <time>2018-12-29T11:46:12Z</time>
      </trkpt>
      <trkpt lat="44.8445" lon="6.70713">
        <ele>2427.95</ele>
        <time>2018-12-29T11:46:16Z</time>
      </trkpt>
      <trkpt lat="44.84456" lon="6.70742">
        <ele>2424.58</ele>
        <time>2018-12-29T11:46:23Z</time>
      </trkpt>
      <trkpt lat="44.84468" lon="6.70737">
        <ele>2419.78</ele>
        <time>2018-12-29T11:46:28Z</time>
      </trkpt>
      <trkpt lat="44.84472" lon="6.70746">
        <ele>2414.49</ele>
        <time>2018-12-29T11:46:30Z</time>
      </trkpt>
      <trkpt lat="44.84473" lon="6.7075">
        <ele>2414.01</ele>
        <time>2018-12-29T11:46:31Z</time>
      </trkpt>
      <trkpt lat="44.84477" lon="6.70775">
        <ele>2410.16</ele>
        <time>2018-12-29T11:46:36Z</time>
      </trkpt>
      <trkpt lat="44.84478" lon="6.70779">
        <ele>2409.68</ele>
        <time>2018-12-29T11:46:37Z</time>
      </trkpt>
      <trkpt lat="44.84487" lon="6.70773">
        <ele>2405.36</ele>
        <time>2018-12-29T11:46:41Z</time>
      </trkpt>
      <trkpt lat="44.84486" lon="6.70772">
        <ele>2404.39</ele>
        <time>2018-12-29T11:46:43Z</time>
      </trkpt>
      <trkpt lat="44.84484" lon="6.70772">
        <ele>2404.88</ele>
        <time>2018-12-29T11:47:01Z</time>
      </trkpt>
      <trkpt lat="44.84493" lon="6.70779">
        <ele>2400.55</ele>
        <time>2018-12-29T11:47:05Z</time>
      </trkpt>
      <trkpt lat="44.84504" lon="6.70788">
        <ele>2396.7</ele>
        <time>2018-12-29T11:47:10Z</time>
      </trkpt>
      <trkpt lat="44.84511" lon="6.70796">
        <ele>2391.42</ele>
        <time>2018-12-29T11:47:12Z</time>
      </trkpt>
      <trkpt lat="44.84512" lon="6.70803">
        <ele>2389.01</ele>
        <time>2018-12-29T11:47:13Z</time>
      </trkpt>
      <trkpt lat="44.84512" lon="6.70816">
        <ele>2387.57</ele>
        <time>2018-12-29T11:47:16Z</time>
      </trkpt>
      <trkpt lat="44.84512" lon="6.70828">
        <ele>2386.61</ele>
        <time>2018-12-29T11:47:20Z</time>
      </trkpt>
      <trkpt lat="44.84522" lon="6.70826">
        <ele>2383.73</ele>
        <time>2018-12-29T11:47:24Z</time>
      </trkpt>
      <trkpt lat="44.84527" lon="6.70818">
        <ele>2381.8</ele>
        <time>2018-12-29T11:47:26Z</time>
      </trkpt>
      <trkpt lat="44.84537" lon="6.7082">
        <ele>2377</ele>
        <time>2018-12-29T11:47:30Z</time>
      </trkpt>
      <trkpt lat="44.84538" lon="6.70826">
        <ele>2375.07</ele>
        <time>2018-12-29T11:47:31Z</time>
      </trkpt>
      <trkpt lat="44.84547" lon="6.70827">
        <ele>2370.75</ele>
        <time>2018-12-29T11:47:34Z</time>
      </trkpt>
      <trkpt lat="44.84549" lon="6.70822">
        <ele>2369.31</ele>
        <time>2018-12-29T11:47:35Z</time>
      </trkpt>
      <trkpt lat="44.84562" lon="6.70806">
        <ele>2364.98</ele>
        <time>2018-12-29T11:47:40Z</time>
      </trkpt>
      <trkpt lat="44.84566" lon="6.70801">
        <ele>2364.02</ele>
        <time>2018-12-29T11:47:42Z</time>
      </trkpt>
      <trkpt lat="44.8457" lon="6.70809">
        <ele>2361.14</ele>
        <time>2018-12-29T11:47:45Z</time>
      </trkpt>
      <trkpt lat="44.84564" lon="6.70818">
        <ele>2359.21</ele>
        <time>2018-12-29T11:47:55Z</time>
      </trkpt>
      <trkpt lat="44.84562" lon="6.70821">
        <ele>2359.21</ele>
        <time>2018-12-29T11:48:26Z</time>
      </trkpt>
      <trkpt lat="44.84562" lon="6.70834">
        <ele>2355.85</ele>
        <time>2018-12-29T11:48:31Z</time>
      </trkpt>
      <trkpt lat="44.84562" lon="6.70836">
        <ele>2355.85</ele>
        <time>2018-12-29T11:48:32Z</time>
      </trkpt>
      <trkpt lat="44.84574" lon="6.70842">
        <ele>2351.52</ele>
        <time>2018-12-29T11:48:36Z</time>
      </trkpt>
      <trkpt lat="44.84576" lon="6.70854">
        <ele>2347.68</ele>
        <time>2018-12-29T11:48:38Z</time>
      </trkpt>
      <trkpt lat="44.84574" lon="6.70859">
        <ele>2346.72</ele>
        <time>2018-12-29T11:48:39Z</time>
      </trkpt>
      <trkpt lat="44.8457" lon="6.70871">
        <ele>2344.79</ele>
        <time>2018-12-29T11:48:42Z</time>
      </trkpt>
      <trkpt lat="44.84582" lon="6.70887">
        <ele>2340.95</ele>
        <time>2018-12-29T11:48:47Z</time>
      </trkpt>
      <trkpt lat="44.84596" lon="6.70894">
        <ele>2338.06</ele>
        <time>2018-12-29T11:48:49Z</time>
      </trkpt>
      <trkpt lat="44.84613" lon="6.70911">
        <ele>2335.18</ele>
        <time>2018-12-29T11:48:52Z</time>
      </trkpt>
      <trkpt lat="44.84625" lon="6.70932">
        <ele>2333.26</ele>
        <time>2018-12-29T11:48:56Z</time>
      </trkpt>
      <trkpt lat="44.84641" lon="6.70965">
        <ele>2330.85</ele>
        <time>2018-12-29T11:49:06Z</time>
      </trkpt>
      <trkpt lat="44.84644" lon="6.70969">
        <ele>2330.37</ele>
        <time>2018-12-29T11:49:08Z</time>
      </trkpt>
      <trkpt lat="44.84641" lon="6.70981">
        <ele>2327.01</ele>
        <time>2018-12-29T11:49:13Z</time>
      </trkpt>
      <trkpt lat="44.8463" lon="6.70983">
        <ele>2326.53</ele>
        <time>2018-12-29T11:49:28Z</time>
      </trkpt>
      <trkpt lat="44.84627" lon="6.70984">
        <ele>2326.05</ele>
        <time>2018-12-29T11:49:45Z</time>
      </trkpt>
      <trkpt lat="44.84629" lon="6.70984">
        <ele>2326.05</ele>
        <time>2018-12-29T11:50:06Z</time>
      </trkpt>
      <trkpt lat="44.84621" lon="6.70977">
        <ele>2324.12</ele>
        <time>2018-12-29T11:50:24Z</time>
      </trkpt>
      <trkpt lat="44.84608" lon="6.70973">
        <ele>2322.2</ele>
        <time>2018-12-29T11:50:30Z</time>
      </trkpt>
      <trkpt lat="44.84605" lon="6.70988">
        <ele>2318.84</ele>
        <time>2018-12-29T11:50:34Z</time>
      </trkpt>
      <trkpt lat="44.84599" lon="6.70993">
        <ele>2314.99</ele>
        <time>2018-12-29T11:50:36Z</time>
      </trkpt>
      <trkpt lat="44.84601" lon="6.71004">
        <ele>2311.63</ele>
        <time>2018-12-29T11:50:39Z</time>
      </trkpt>
      <trkpt lat="44.84601" lon="6.71013">
        <ele>2307.78</ele>
        <time>2018-12-29T11:50:42Z</time>
      </trkpt>
      <trkpt lat="44.846" lon="6.71023">
        <ele>2304.42</ele>
        <time>2018-12-29T11:50:45Z</time>
      </trkpt>
      <trkpt lat="44.84597" lon="6.71028">
        <ele>2301.05</ele>
        <time>2018-12-29T11:50:47Z</time>
      </trkpt>
      <trkpt lat="44.84594" lon="6.71037">
        <ele>2297.69</ele>
        <time>2018-12-29T11:50:50Z</time>
      </trkpt>
      <trkpt lat="44.84596" lon="6.71041">
        <ele>2296.73</ele>
        <time>2018-12-29T11:50:52Z</time>
      </trkpt>
      <trkpt lat="44.84591" lon="6.71044">
        <ele>2293.36</ele>
        <time>2018-12-29T11:50:56Z</time>
      </trkpt>
      <trkpt lat="44.84576" lon="6.71041">
        <ele>2289.04</ele>
        <time>2018-12-29T11:51:02Z</time>
      </trkpt>
      <trkpt lat="44.84577" lon="6.71045">
        <ele>2289.04</ele>
        <time>2018-12-29T11:51:04Z</time>
      </trkpt>
      <trkpt lat="44.84571" lon="6.71057">
        <ele>2284.71</ele>
        <time>2018-12-29T11:51:07Z</time>
      </trkpt>
      <trkpt lat="44.84566" lon="6.71059">
        <ele>2284.71</ele>
        <time>2018-12-29T11:51:08Z</time>
      </trkpt>
      <trkpt lat="44.84562" lon="6.7106">
        <ele>2284.71</ele>
        <time>2018-12-29T11:51:23Z</time>
      </trkpt>
      <trkpt lat="44.84563" lon="6.71061">
        <ele>2284.23</ele>
        <time>2018-12-29T11:51:32Z</time>
      </trkpt>
      <trkpt lat="44.84582" lon="6.71071">
        <ele>2281.35</ele>
        <time>2018-12-29T11:51:38Z</time>
      </trkpt>
      <trkpt lat="44.84585" lon="6.71072">
        <ele>2281.35</ele>
        <time>2018-12-29T11:51:51Z</time>
      </trkpt>
      <trkpt lat="44.84582" lon="6.71074">
        <ele>2281.35</ele>
        <time>2018-12-29T11:52:15Z</time>
      </trkpt>
      <trkpt lat="44.84584" lon="6.71074">
        <ele>2280.87</ele>
        <time>2018-12-29T11:52:45Z</time>
      </trkpt>
      <trkpt lat="44.84581" lon="6.71074">
        <ele>2280.87</ele>
        <time>2018-12-29T11:53:02Z</time>
      </trkpt>
      <trkpt lat="44.84582" lon="6.71073">
        <ele>2280.87</ele>
        <time>2018-12-29T11:53:18Z</time>
      </trkpt>
      <trkpt lat="44.8458" lon="6.71076">
        <ele>2280.87</ele>
        <time>2018-12-29T11:53:45Z</time>
      </trkpt>
      <trkpt lat="44.8458" lon="6.71075">
        <ele>2280.38</ele>
        <time>2018-12-29T11:54:03Z</time>
      </trkpt>
      <trkpt lat="44.8458" lon="6.71076">
        <ele>2280.38</ele>
        <time>2018-12-29T11:54:16Z</time>
      </trkpt>
      <trkpt lat="44.84592" lon="6.71094">
        <ele>2277.5</ele>
        <time>2018-12-29T11:54:24Z</time>
      </trkpt>
      <trkpt lat="44.84597" lon="6.71101">
        <ele>2276.54</ele>
        <time>2018-12-29T11:54:26Z</time>
      </trkpt>
      <trkpt lat="44.84607" lon="6.7111">
        <ele>2274.62</ele>
        <time>2018-12-29T11:54:29Z</time>
      </trkpt>
      <trkpt lat="44.84615" lon="6.71116">
        <ele>2273.17</ele>
        <time>2018-12-29T11:54:32Z</time>
      </trkpt>
      <trkpt lat="44.84622" lon="6.71122">
        <ele>2272.69</ele>
        <time>2018-12-29T11:54:36Z</time>
      </trkpt>
      <trkpt lat="44.84616" lon="6.71131">
        <ele>2268.85</ele>
        <time>2018-12-29T11:54:40Z</time>
      </trkpt>
      <trkpt lat="44.84622" lon="6.7114">
        <ele>2266.93</ele>
        <time>2018-12-29T11:54:43Z</time>
      </trkpt>
      <trkpt lat="44.84647" lon="6.71157">
        <ele>2263.08</ele>
        <time>2018-12-29T11:54:54Z</time>
      </trkpt>
      <trkpt lat="44.84656" lon="6.71164">
        <ele>2261.16</ele>
        <time>2018-12-29T11:55:03Z</time>
      </trkpt>
      <trkpt lat="44.84657" lon="6.71168">
        <ele>2261.64</ele>
        <time>2018-12-29T11:55:15Z</time>
      </trkpt>
      <trkpt lat="44.84667" lon="6.71175">
        <ele>2258.75</ele>
        <time>2018-12-29T11:55:21Z</time>
      </trkpt>
      <trkpt lat="44.84686" lon="6.71185">
        <ele>2254.91</ele>
        <time>2018-12-29T11:55:28Z</time>
      </trkpt>
      <trkpt lat="44.8469" lon="6.71186">
        <ele>2252.99</ele>
        <time>2018-12-29T11:55:38Z</time>
      </trkpt>
      <trkpt lat="44.84691" lon="6.71188">
        <ele>2252.51</ele>
        <time>2018-12-29T11:55:50Z</time>
      </trkpt>
      <trkpt lat="44.8469" lon="6.7119">
        <ele>2252.51</ele>
        <time>2018-12-29T11:56:06Z</time>
      </trkpt>
      <trkpt lat="44.84694" lon="6.71188">
        <ele>2251.54</ele>
        <time>2018-12-29T11:56:34Z</time>
      </trkpt>
      <trkpt lat="44.84698" lon="6.71194">
        <ele>2250.58</ele>
        <time>2018-12-29T11:56:42Z</time>
      </trkpt>
      <trkpt lat="44.84702" lon="6.71195">
        <ele>2248.66</ele>
        <time>2018-12-29T11:56:46Z</time>
      </trkpt>
      <trkpt lat="44.84699" lon="6.71204">
        <ele>2244.82</ele>
        <time>2018-12-29T11:56:54Z</time>
      </trkpt>
      <trkpt lat="44.84697" lon="6.7121">
        <ele>2243.37</ele>
        <time>2018-12-29T11:57:06Z</time>
      </trkpt>
      <trkpt lat="44.84697" lon="6.7121">
        <ele>2243.37</ele>
        <time>2018-12-29T11:57:07Z</time>
      </trkpt>
      <trkpt lat="44.84713" lon="6.71197">
        <ele>2239.05</ele>
        <time>2018-12-29T11:57:12Z</time>
      </trkpt>
      <trkpt lat="44.84715" lon="6.71192">
        <ele>2237.61</ele>
        <time>2018-12-29T11:57:13Z</time>
      </trkpt>
      <trkpt lat="44.84717" lon="6.71189">
        <ele>2236.16</ele>
        <time>2018-12-29T11:57:17Z</time>
      </trkpt>
      <trkpt lat="44.84722" lon="6.71182">
        <ele>2235.2</ele>
        <time>2018-12-29T11:57:20Z</time>
      </trkpt>
      <trkpt lat="44.8473" lon="6.71168">
        <ele>2233.28</ele>
        <time>2018-12-29T11:57:23Z</time>
      </trkpt>
      <trkpt lat="44.84735" lon="6.71158">
        <ele>2232.32</ele>
        <time>2018-12-29T11:57:32Z</time>
      </trkpt>
      <trkpt lat="44.84738" lon="6.71155">
        <ele>2232.32</ele>
        <time>2018-12-29T11:57:41Z</time>
      </trkpt>
      <trkpt lat="44.84739" lon="6.71155">
        <ele>2232.32</ele>
        <time>2018-12-29T11:57:42Z</time>
      </trkpt>
      <trkpt lat="44.84747" lon="6.71149">
        <ele>2230.88</ele>
        <time>2018-12-29T11:57:46Z</time>
      </trkpt>
      <trkpt lat="44.84774" lon="6.71129">
        <ele>2226.55</ele>
        <time>2018-12-29T11:57:55Z</time>
      </trkpt>
      <trkpt lat="44.84787" lon="6.71123">
        <ele>2223.67</ele>
        <time>2018-12-29T11:58:01Z</time>
      </trkpt>
      <trkpt lat="44.84784" lon="6.71124">
        <ele>2223.67</ele>
        <time>2018-12-29T11:58:17Z</time>
      </trkpt>
      <trkpt lat="44.84781" lon="6.71121">
        <ele>2224.15</ele>
        <time>2018-12-29T11:58:45Z</time>
      </trkpt>
      <trkpt lat="44.84785" lon="6.71132">
        <ele>2219.82</ele>
        <time>2018-12-29T11:58:50Z</time>
      </trkpt>
      <trkpt lat="44.8479" lon="6.71138">
        <ele>2215.98</ele>
        <time>2018-12-29T11:58:53Z</time>
      </trkpt>
      <trkpt lat="44.84794" lon="6.71136">
        <ele>2215.01</ele>
        <time>2018-12-29T11:58:54Z</time>
      </trkpt>
      <trkpt lat="44.84803" lon="6.71133">
        <ele>2213.09</ele>
        <time>2018-12-29T11:58:57Z</time>
      </trkpt>
      <trkpt lat="44.84808" lon="6.71142">
        <ele>2208.77</ele>
        <time>2018-12-29T11:59:01Z</time>
      </trkpt>
      <trkpt lat="44.84803" lon="6.71146">
        <ele>2207.32</ele>
        <time>2018-12-29T11:59:04Z</time>
      </trkpt>
      <trkpt lat="44.84804" lon="6.71153">
        <ele>2204.44</ele>
        <time>2018-12-29T11:59:07Z</time>
      </trkpt>
      <trkpt lat="44.8482" lon="6.71157">
        <ele>2200.59</ele>
        <time>2018-12-29T11:59:11Z</time>
      </trkpt>
      <trkpt lat="44.84812" lon="6.71169">
        <ele>2195.79</ele>
        <time>2018-12-29T11:59:15Z</time>
      </trkpt>
      <trkpt lat="44.84811" lon="6.71179">
        <ele>2193.87</ele>
        <time>2018-12-29T11:59:17Z</time>
      </trkpt>
      <trkpt lat="44.84829" lon="6.71175">
        <ele>2191.46</ele>
        <time>2018-12-29T11:59:23Z</time>
      </trkpt>
      <trkpt lat="44.8483" lon="6.71191">
        <ele>2187.14</ele>
        <time>2018-12-29T11:59:28Z</time>
      </trkpt>
      <trkpt lat="44.84826" lon="6.7119">
        <ele>2185.21</ele>
        <time>2018-12-29T11:59:31Z</time>
      </trkpt>
      <trkpt lat="44.84819" lon="6.71188">
        <ele>2185.21</ele>
        <time>2018-12-29T11:59:54Z</time>
      </trkpt>
      <trkpt lat="44.84817" lon="6.71186">
        <ele>2185.21</ele>
        <time>2018-12-29T12:00:05Z</time>
      </trkpt>
      <trkpt lat="44.84828" lon="6.71192">
        <ele>2181.85</ele>
        <time>2018-12-29T12:00:10Z</time>
      </trkpt>
      <trkpt lat="44.84832" lon="6.71191">
        <ele>2180.89</ele>
        <time>2018-12-29T12:00:11Z</time>
      </trkpt>
      <trkpt lat="44.84837" lon="6.71189">
        <ele>2179.93</ele>
        <time>2018-12-29T12:00:13Z</time>
      </trkpt>
      <trkpt lat="44.84858" lon="6.71188">
        <ele>2174.64</ele>
        <time>2018-12-29T12:00:18Z</time>
      </trkpt>
      <trkpt lat="44.84862" lon="6.71187">
        <ele>2174.16</ele>
        <time>2018-12-29T12:00:19Z</time>
      </trkpt>
      <trkpt lat="44.8487" lon="6.71186">
        <ele>2172.72</ele>
        <time>2018-12-29T12:00:29Z</time>
      </trkpt>
      <trkpt lat="44.8487" lon="6.71187">
        <ele>2172.72</ele>
        <time>2018-12-29T12:00:46Z</time>
      </trkpt>
      <trkpt lat="44.8487" lon="6.71186">
        <ele>2172.24</ele>
        <time>2018-12-29T12:01:09Z</time>
      </trkpt>
      <trkpt lat="44.8487" lon="6.71187">
        <ele>2172.72</ele>
        <time>2018-12-29T12:01:21Z</time>
      </trkpt>
      <trkpt lat="44.84871" lon="6.71199">
        <ele>2168.87</ele>
        <time>2018-12-29T12:01:25Z</time>
      </trkpt>
      <trkpt lat="44.8488" lon="6.71202">
        <ele>2165.99</ele>
        <time>2018-12-29T12:01:28Z</time>
      </trkpt>
      <trkpt lat="44.84887" lon="6.71198">
        <ele>2163.58</ele>
        <time>2018-12-29T12:01:33Z</time>
      </trkpt>
      <trkpt lat="44.84888" lon="6.71206">
        <ele>2159.74</ele>
        <time>2018-12-29T12:01:38Z</time>
      </trkpt>
      <trkpt lat="44.84888" lon="6.71208">
        <ele>2159.74</ele>
        <time>2018-12-29T12:01:52Z</time>
      </trkpt>
      <trkpt lat="44.84892" lon="6.7121">
        <ele>2159.74</ele>
        <time>2018-12-29T12:02:18Z</time>
      </trkpt>
      <trkpt lat="44.84887" lon="6.71211">
        <ele>2158.78</ele>
        <time>2018-12-29T12:02:36Z</time>
      </trkpt>
      <trkpt lat="44.8489" lon="6.7121">
        <ele>2158.78</ele>
        <time>2018-12-29T12:03:03Z</time>
      </trkpt>
      <trkpt lat="44.84891" lon="6.7121">
        <ele>2158.78</ele>
        <time>2018-12-29T12:03:26Z</time>
      </trkpt>
      <trkpt lat="44.84892" lon="6.7121">
        <ele>2157.82</ele>
        <time>2018-12-29T12:03:40Z</time>
      </trkpt>
      <trkpt lat="44.84897" lon="6.71215">
        <ele>2154.45</ele>
        <time>2018-12-29T12:03:45Z</time>
      </trkpt>
      <trkpt lat="44.84896" lon="6.71225">
        <ele>2150.61</ele>
        <time>2018-12-29T12:03:49Z</time>
      </trkpt>
      <trkpt lat="44.84895" lon="6.71226">
        <ele>2150.13</ele>
        <time>2018-12-29T12:03:50Z</time>
      </trkpt>
      <trkpt lat="44.84898" lon="6.7123">
        <ele>2147.72</ele>
        <time>2018-12-29T12:03:55Z</time>
      </trkpt>
      <trkpt lat="44.84899" lon="6.71229">
        <ele>2147.24</ele>
        <time>2018-12-29T12:04:11Z</time>
      </trkpt>
      <trkpt lat="44.84899" lon="6.71229">
        <ele>2146.76</ele>
        <time>2018-12-29T12:04:19Z</time>
      </trkpt>
      <trkpt lat="44.84904" lon="6.71241">
        <ele>2143.4</ele>
        <time>2018-12-29T12:04:24Z</time>
      </trkpt>
      <trkpt lat="44.84903" lon="6.71243">
        <ele>2142.92</ele>
        <time>2018-12-29T12:04:25Z</time>
      </trkpt>
      <trkpt lat="44.84904" lon="6.71253">
        <ele>2139.55</ele>
        <time>2018-12-29T12:04:28Z</time>
      </trkpt>
      <trkpt lat="44.84907" lon="6.7126">
        <ele>2137.63</ele>
        <time>2018-12-29T12:04:31Z</time>
      </trkpt>
      <trkpt lat="44.84914" lon="6.71252">
        <ele>2136.67</ele>
        <time>2018-12-29T12:04:40Z</time>
      </trkpt>
      <trkpt lat="44.84915" lon="6.71253">
        <ele>2136.67</ele>
        <time>2018-12-29T12:04:50Z</time>
      </trkpt>
      <trkpt lat="44.84923" lon="6.71259">
        <ele>2132.82</ele>
        <time>2018-12-29T12:04:55Z</time>
      </trkpt>
      <trkpt lat="44.84921" lon="6.71264">
        <ele>2131.38</ele>
        <time>2018-12-29T12:04:57Z</time>
      </trkpt>
      <trkpt lat="44.84926" lon="6.71274">
        <ele>2128.98</ele>
        <time>2018-12-29T12:05:02Z</time>
      </trkpt>
      <trkpt lat="44.8494" lon="6.7127">
        <ele>2126.57</ele>
        <time>2018-12-29T12:05:10Z</time>
      </trkpt>
      <trkpt lat="44.84938" lon="6.71271">
        <ele>2126.57</ele>
        <time>2018-12-29T12:05:33Z</time>
      </trkpt>
      <trkpt lat="44.84934" lon="6.71286">
        <ele>2122.73</ele>
        <time>2018-12-29T12:05:38Z</time>
      </trkpt>
      <trkpt lat="44.84936" lon="6.71292">
        <ele>2121.77</ele>
        <time>2018-12-29T12:05:40Z</time>
      </trkpt>
      <trkpt lat="44.84944" lon="6.71287">
        <ele>2118.88</ele>
        <time>2018-12-29T12:05:43Z</time>
      </trkpt>
      <trkpt lat="44.84948" lon="6.71286">
        <ele>2117.92</ele>
        <time>2018-12-29T12:05:45Z</time>
      </trkpt>
      <trkpt lat="44.84952" lon="6.71295">
        <ele>2114.08</ele>
        <time>2018-12-29T12:05:48Z</time>
      </trkpt>
      <trkpt lat="44.84952" lon="6.71299">
        <ele>2113.12</ele>
        <time>2018-12-29T12:05:49Z</time>
      </trkpt>
      <trkpt lat="44.84944" lon="6.71304">
        <ele>2111.67</ele>
        <time>2018-12-29T12:05:52Z</time>
      </trkpt>
      <trkpt lat="44.84944" lon="6.7131">
        <ele>2109.75</ele>
        <time>2018-12-29T12:05:54Z</time>
      </trkpt>
      <trkpt lat="44.84946" lon="6.71311">
        <ele>2108.79</ele>
        <time>2018-12-29T12:05:55Z</time>
      </trkpt>
      <trkpt lat="44.84954" lon="6.71306">
        <ele>2108.79</ele>
        <time>2018-12-29T12:06:06Z</time>
      </trkpt>
      <trkpt lat="44.84952" lon="6.71309">
        <ele>2108.79</ele>
        <time>2018-12-29T12:06:10Z</time>
      </trkpt>
      <trkpt lat="44.84955" lon="6.71319">
        <ele>2104.46</ele>
        <time>2018-12-29T12:06:16Z</time>
      </trkpt>
      <trkpt lat="44.84968" lon="6.71326">
        <ele>2099.66</ele>
        <time>2018-12-29T12:06:23Z</time>
      </trkpt>
      <trkpt lat="44.84974" lon="6.71335">
        <ele>2094.85</ele>
        <time>2018-12-29T12:06:26Z</time>
      </trkpt>
      <trkpt lat="44.84969" lon="6.71339">
        <ele>2093.41</ele>
        <time>2018-12-29T12:06:29Z</time>
      </trkpt>
      <trkpt lat="44.84967" lon="6.71336">
        <ele>2094.85</ele>
        <time>2018-12-29T12:06:48Z</time>
      </trkpt>
      <trkpt lat="44.84964" lon="6.71343">
        <ele>2092.93</ele>
        <time>2018-12-29T12:07:01Z</time>
      </trkpt>
      <trkpt lat="44.84975" lon="6.71352">
        <ele>2088.6</ele>
        <time>2018-12-29T12:07:07Z</time>
      </trkpt>
      <trkpt lat="44.84975" lon="6.71355">
        <ele>2086.68</ele>
        <time>2018-12-29T12:07:08Z</time>
      </trkpt>
      <trkpt lat="44.84972" lon="6.71362">
        <ele>2085.24</ele>
        <time>2018-12-29T12:07:11Z</time>
      </trkpt>
      <trkpt lat="44.84971" lon="6.71363">
        <ele>2085.24</ele>
        <time>2018-12-29T12:07:12Z</time>
      </trkpt>
      <trkpt lat="44.84973" lon="6.71386">
        <ele>2082.35</ele>
        <time>2018-12-29T12:07:18Z</time>
      </trkpt>
      <trkpt lat="44.84981" lon="6.7138">
        <ele>2078.99</ele>
        <time>2018-12-29T12:07:23Z</time>
      </trkpt>
      <trkpt lat="44.84981" lon="6.71377">
        <ele>2078.99</ele>
        <time>2018-12-29T12:07:25Z</time>
      </trkpt>
      <trkpt lat="44.84986" lon="6.71371">
        <ele>2077.55</ele>
        <time>2018-12-29T12:07:29Z</time>
      </trkpt>
      <trkpt lat="44.84987" lon="6.71387">
        <ele>2074.66</ele>
        <time>2018-12-29T12:07:33Z</time>
      </trkpt>
      <trkpt lat="44.84987" lon="6.71395">
        <ele>2072.74</ele>
        <time>2018-12-29T12:07:35Z</time>
      </trkpt>
      <trkpt lat="44.84992" lon="6.71399">
        <ele>2069.86</ele>
        <time>2018-12-29T12:07:39Z</time>
      </trkpt>
      <trkpt lat="44.84991" lon="6.71395">
        <ele>2068.89</ele>
        <time>2018-12-29T12:07:41Z</time>
      </trkpt>
      <trkpt lat="44.84982" lon="6.71389">
        <ele>2068.89</ele>
        <time>2018-12-29T12:07:58Z</time>
      </trkpt>
      <trkpt lat="44.84985" lon="6.71391">
        <ele>2068.89</ele>
        <time>2018-12-29T12:08:20Z</time>
      </trkpt>
      <trkpt lat="44.84992" lon="6.71396">
        <ele>2064.57</ele>
        <time>2018-12-29T12:08:23Z</time>
      </trkpt>
      <trkpt lat="44.85003" lon="6.71405">
        <ele>2061.2</ele>
        <time>2018-12-29T12:08:27Z</time>
      </trkpt>
      <trkpt lat="44.85009" lon="6.71405">
        <ele>2057.36</ele>
        <time>2018-12-29T12:08:29Z</time>
      </trkpt>
      <trkpt lat="44.85013" lon="6.71415">
        <ele>2054.47</ele>
        <time>2018-12-29T12:08:31Z</time>
      </trkpt>
      <trkpt lat="44.85013" lon="6.7142">
        <ele>2054.47</ele>
        <time>2018-12-29T12:08:32Z</time>
      </trkpt>
      <trkpt lat="44.85018" lon="6.71418">
        <ele>2050.15</ele>
        <time>2018-12-29T12:08:36Z</time>
      </trkpt>
      <trkpt lat="44.85019" lon="6.71423">
        <ele>2048.23</ele>
        <time>2018-12-29T12:08:37Z</time>
      </trkpt>
      <trkpt lat="44.85022" lon="6.71434">
        <ele>2044.86</ele>
        <time>2018-12-29T12:08:41Z</time>
      </trkpt>
      <trkpt lat="44.8503" lon="6.71432">
        <ele>2043.9</ele>
        <time>2018-12-29T12:08:53Z</time>
      </trkpt>
      <trkpt lat="44.85029" lon="6.71431">
        <ele>2044.38</ele>
        <time>2018-12-29T12:09:10Z</time>
      </trkpt>
      <trkpt lat="44.85028" lon="6.71432">
        <ele>2043.9</ele>
        <time>2018-12-29T12:09:24Z</time>
      </trkpt>
      <trkpt lat="44.85041" lon="6.71426">
        <ele>2040.54</ele>
        <time>2018-12-29T12:09:29Z</time>
      </trkpt>
      <trkpt lat="44.85044" lon="6.71424">
        <ele>2040.05</ele>
        <time>2018-12-29T12:09:30Z</time>
      </trkpt>
      <trkpt lat="44.85048" lon="6.71427">
        <ele>2039.09</ele>
        <time>2018-12-29T12:09:32Z</time>
      </trkpt>
      <trkpt lat="44.85043" lon="6.71437">
        <ele>2035.25</ele>
        <time>2018-12-29T12:09:35Z</time>
      </trkpt>
      <trkpt lat="44.85042" lon="6.71437">
        <ele>2034.77</ele>
        <time>2018-12-29T12:09:37Z</time>
      </trkpt>
      <trkpt lat="44.85038" lon="6.7144">
        <ele>2035.25</ele>
        <time>2018-12-29T12:09:56Z</time>
      </trkpt>
      <trkpt lat="44.85048" lon="6.7144">
        <ele>2031.88</ele>
        <time>2018-12-29T12:10:00Z</time>
      </trkpt>
      <trkpt lat="44.8505" lon="6.71448">
        <ele>2028.04</ele>
        <time>2018-12-29T12:10:03Z</time>
      </trkpt>
      <trkpt lat="44.85051" lon="6.71453">
        <ele>2027.08</ele>
        <time>2018-12-29T12:10:05Z</time>
      </trkpt>
      <trkpt lat="44.85059" lon="6.71449">
        <ele>2024.67</ele>
        <time>2018-12-29T12:10:08Z</time>
      </trkpt>
      <trkpt lat="44.85061" lon="6.71446">
        <ele>2024.67</ele>
        <time>2018-12-29T12:10:22Z</time>
      </trkpt>
      <trkpt lat="44.85067" lon="6.71444">
        <ele>2023.23</ele>
        <time>2018-12-29T12:10:29Z</time>
      </trkpt>
      <trkpt lat="44.85069" lon="6.71451">
        <ele>2019.87</ele>
        <time>2018-12-29T12:10:33Z</time>
      </trkpt>
      <trkpt lat="44.85068" lon="6.71453">
        <ele>2019.87</ele>
        <time>2018-12-29T12:10:34Z</time>
      </trkpt>
      <trkpt lat="44.85076" lon="6.71458">
        <ele>2016.98</ele>
        <time>2018-12-29T12:10:38Z</time>
      </trkpt>
      <trkpt lat="44.8508" lon="6.71466">
        <ele>2012.18</ele>
        <time>2018-12-29T12:10:42Z</time>
      </trkpt>
      <trkpt lat="44.85084" lon="6.71471">
        <ele>2009.77</ele>
        <time>2018-12-29T12:10:46Z</time>
      </trkpt>
      <trkpt lat="44.85083" lon="6.7147">
        <ele>2009.77</ele>
        <time>2018-12-29T12:11:01Z</time>
      </trkpt>
      <trkpt lat="44.8509" lon="6.71472">
        <ele>2009.29</ele>
        <time>2018-12-29T12:11:21Z</time>
      </trkpt>
      <trkpt lat="44.85092" lon="6.71474">
        <ele>2009.77</ele>
        <time>2018-12-29T12:11:29Z</time>
      </trkpt>
      <trkpt lat="44.85094" lon="6.7148">
        <ele>2006.41</ele>
        <time>2018-12-29T12:11:32Z</time>
      </trkpt>
      <trkpt lat="44.85092" lon="6.71483">
        <ele>2006.41</ele>
        <time>2018-12-29T12:11:33Z</time>
      </trkpt>
      <trkpt lat="44.851" lon="6.7149">
        <ele>2002.56</ele>
        <time>2018-12-29T12:11:37Z</time>
      </trkpt>
      <trkpt lat="44.85102" lon="6.71497">
        <ele>1998.72</ele>
        <time>2018-12-29T12:11:39Z</time>
      </trkpt>
      <trkpt lat="44.85098" lon="6.71505">
        <ele>1996.8</ele>
        <time>2018-12-29T12:11:41Z</time>
      </trkpt>
      <trkpt lat="44.85111" lon="6.7151">
        <ele>1992.95</ele>
        <time>2018-12-29T12:11:45Z</time>
      </trkpt>
      <trkpt lat="44.8511" lon="6.71516">
        <ele>1988.14</ele>
        <time>2018-12-29T12:11:47Z</time>
      </trkpt>
      <trkpt lat="44.85109" lon="6.71519">
        <ele>1988.62</ele>
        <time>2018-12-29T12:11:48Z</time>
      </trkpt>
      <trkpt lat="44.85109" lon="6.71523">
        <ele>1986.22</ele>
        <time>2018-12-29T12:11:51Z</time>
      </trkpt>
      <trkpt lat="44.8511" lon="6.71532">
        <ele>1982.38</ele>
        <time>2018-12-29T12:11:53Z</time>
      </trkpt>
      <trkpt lat="44.8511" lon="6.71543">
        <ele>1979.97</ele>
        <time>2018-12-29T12:11:55Z</time>
      </trkpt>
      <trkpt lat="44.85118" lon="6.71545">
        <ele>1979.01</ele>
        <time>2018-12-29T12:12:02Z</time>
      </trkpt>
      <trkpt lat="44.85126" lon="6.71547">
        <ele>1979.01</ele>
        <time>2018-12-29T12:12:21Z</time>
      </trkpt>
      <trkpt lat="44.85124" lon="6.71549">
        <ele>1979.01</ele>
        <time>2018-12-29T12:12:47Z</time>
      </trkpt>
      <trkpt lat="44.85127" lon="6.71556">
        <ele>1974.69</ele>
        <time>2018-12-29T12:12:51Z</time>
      </trkpt>
      <trkpt lat="44.85128" lon="6.71566">
        <ele>1971.8</ele>
        <time>2018-12-29T12:12:55Z</time>
      </trkpt>
      <trkpt lat="44.85129" lon="6.71568">
        <ele>1970.36</ele>
        <time>2018-12-29T12:12:56Z</time>
      </trkpt>
      <trkpt lat="44.85128" lon="6.71577">
        <ele>1966.03</ele>
        <time>2018-12-29T12:12:58Z</time>
      </trkpt>
      <trkpt lat="44.85126" lon="6.71581">
        <ele>1966.03</ele>
        <time>2018-12-29T12:12:59Z</time>
      </trkpt>
      <trkpt lat="44.85127" lon="6.71588">
        <ele>1964.59</ele>
        <time>2018-12-29T12:13:00Z</time>
      </trkpt>
      <trkpt lat="44.85131" lon="6.71596">
        <ele>1961.23</ele>
        <time>2018-12-29T12:13:03Z</time>
      </trkpt>
      <trkpt lat="44.85134" lon="6.71609">
        <ele>1957.86</ele>
        <time>2018-12-29T12:13:06Z</time>
      </trkpt>
      <trkpt lat="44.8514" lon="6.71619">
        <ele>1953.06</ele>
        <time>2018-12-29T12:13:09Z</time>
      </trkpt>
      <trkpt lat="44.85138" lon="6.71627">
        <ele>1951.61</ele>
        <time>2018-12-29T12:13:11Z</time>
      </trkpt>
      <trkpt lat="44.85148" lon="6.71627">
        <ele>1950.65</ele>
        <time>2018-12-29T12:13:15Z</time>
      </trkpt>
      <trkpt lat="44.85152" lon="6.71621">
        <ele>1950.65</ele>
        <time>2018-12-29T12:13:27Z</time>
      </trkpt>
      <trkpt lat="44.85151" lon="6.7162">
        <ele>1950.65</ele>
        <time>2018-12-29T12:13:42Z</time>
      </trkpt>
      <trkpt lat="44.85154" lon="6.71623">
        <ele>1951.13</ele>
        <time>2018-12-29T12:13:52Z</time>
      </trkpt>
      <trkpt lat="44.85156" lon="6.71637">
        <ele>1947.29</ele>
        <time>2018-12-29T12:13:56Z</time>
      </trkpt>
      <trkpt lat="44.85153" lon="6.71646">
        <ele>1946.33</ele>
        <time>2018-12-29T12:13:58Z</time>
      </trkpt>
      <trkpt lat="44.85154" lon="6.7165">
        <ele>1945.85</ele>
        <time>2018-12-29T12:13:59Z</time>
      </trkpt>
      <trkpt lat="44.85154" lon="6.71661">
        <ele>1942</ele>
        <time>2018-12-29T12:14:03Z</time>
      </trkpt>
      <trkpt lat="44.85161" lon="6.71662">
        <ele>1940.56</ele>
        <time>2018-12-29T12:14:06Z</time>
      </trkpt>
      <trkpt lat="44.85168" lon="6.71679">
        <ele>1935.27</ele>
        <time>2018-12-29T12:14:12Z</time>
      </trkpt>
      <trkpt lat="44.85168" lon="6.71685">
        <ele>1934.31</ele>
        <time>2018-12-29T12:14:14Z</time>
      </trkpt>
      <trkpt lat="44.85168" lon="6.71686">
        <ele>1934.79</ele>
        <time>2018-12-29T12:14:29Z</time>
      </trkpt>
      <trkpt lat="44.85166" lon="6.71684">
        <ele>1934.31</ele>
        <time>2018-12-29T12:14:50Z</time>
      </trkpt>
      <trkpt lat="44.85164" lon="6.71686">
        <ele>1934.31</ele>
        <time>2018-12-29T12:15:10Z</time>
      </trkpt>
      <trkpt lat="44.85165" lon="6.71686">
        <ele>1934.31</ele>
        <time>2018-12-29T12:15:17Z</time>
      </trkpt>
      <trkpt lat="44.8517" lon="6.71695">
        <ele>1932.39</ele>
        <time>2018-12-29T12:15:21Z</time>
      </trkpt>
      <trkpt lat="44.85176" lon="6.71695">
        <ele>1931.43</ele>
        <time>2018-12-29T12:15:24Z</time>
      </trkpt>
      <trkpt lat="44.85182" lon="6.71692">
        <ele>1930.95</ele>
        <time>2018-12-29T12:15:29Z</time>
      </trkpt>
      <trkpt lat="44.85187" lon="6.7169">
        <ele>1929.5</ele>
        <time>2018-12-29T12:15:32Z</time>
      </trkpt>
      <trkpt lat="44.85191" lon="6.7169">
        <ele>1928.06</ele>
        <time>2018-12-29T12:15:34Z</time>
      </trkpt>
      <trkpt lat="44.85198" lon="6.71706">
        <ele>1925.18</ele>
        <time>2018-12-29T12:15:40Z</time>
      </trkpt>
      <trkpt lat="44.85198" lon="6.71706">
        <ele>1925.18</ele>
        <time>2018-12-29T12:15:41Z</time>
      </trkpt>
      <trkpt lat="44.85211" lon="6.71709">
        <ele>1921.81</ele>
        <time>2018-12-29T12:15:47Z</time>
      </trkpt>
      <trkpt lat="44.85211" lon="6.71713">
        <ele>1920.85</ele>
        <time>2018-12-29T12:15:49Z</time>
      </trkpt>
      <trkpt lat="44.85213" lon="6.71715">
        <ele>1920.37</ele>
        <time>2018-12-29T12:15:52Z</time>
      </trkpt>
      <trkpt lat="44.85215" lon="6.71723">
        <ele>1918.45</ele>
        <time>2018-12-29T12:15:56Z</time>
      </trkpt>
      <trkpt lat="44.85222" lon="6.71734">
        <ele>1915.56</ele>
        <time>2018-12-29T12:16:02Z</time>
      </trkpt>
      <trkpt lat="44.85232" lon="6.71738">
        <ele>1914.12</ele>
        <time>2018-12-29T12:16:08Z</time>
      </trkpt>
      <trkpt lat="44.85235" lon="6.7174">
        <ele>1913.16</ele>
        <time>2018-12-29T12:16:11Z</time>
      </trkpt>
      <trkpt lat="44.85232" lon="6.71745">
        <ele>1911.24</ele>
        <time>2018-12-29T12:16:21Z</time>
      </trkpt>
      <trkpt lat="44.85238" lon="6.71751">
        <ele>1910.76</ele>
        <time>2018-12-29T12:16:35Z</time>
      </trkpt>
      <trkpt lat="44.8524" lon="6.71753">
        <ele>1910.76</ele>
        <time>2018-12-29T12:16:38Z</time>
      </trkpt>
      <trkpt lat="44.85263" lon="6.71768">
        <ele>1907.39</ele>
        <time>2018-12-29T12:16:47Z</time>
      </trkpt>
      <trkpt lat="44.85265" lon="6.71768">
        <ele>1906.91</ele>
        <time>2018-12-29T12:16:54Z</time>
      </trkpt>
      <trkpt lat="44.85266" lon="6.71769">
        <ele>1906.43</ele>
        <time>2018-12-29T12:16:58Z</time>
      </trkpt>
      <trkpt lat="44.85271" lon="6.71778">
        <ele>1904.99</ele>
        <time>2018-12-29T12:17:02Z</time>
      </trkpt>
      <trkpt lat="44.85273" lon="6.71789">
        <ele>1903.55</ele>
        <time>2018-12-29T12:17:05Z</time>
      </trkpt>
      <trkpt lat="44.85274" lon="6.71791">
        <ele>1903.07</ele>
        <time>2018-12-29T12:17:06Z</time>
      </trkpt>
      <trkpt lat="44.85281" lon="6.71804">
        <ele>1900.66</ele>
        <time>2018-12-29T12:17:09Z</time>
      </trkpt>
      <trkpt lat="44.85278" lon="6.71823">
        <ele>1899.22</ele>
        <time>2018-12-29T12:17:21Z</time>
      </trkpt>
      <trkpt lat="44.85278" lon="6.71823">
        <ele>1898.74</ele>
        <time>2018-12-29T12:17:25Z</time>
      </trkpt>
      <trkpt lat="44.85281" lon="6.71839">
        <ele>1896.82</ele>
        <time>2018-12-29T12:17:30Z</time>
      </trkpt>
      <trkpt lat="44.8529" lon="6.71846">
        <ele>1894.9</ele>
        <time>2018-12-29T12:17:34Z</time>
      </trkpt>
      <trkpt lat="44.85295" lon="6.71851">
        <ele>1893.45</ele>
        <time>2018-12-29T12:17:37Z</time>
      </trkpt>
      <trkpt lat="44.85296" lon="6.71869">
        <ele>1892.01</ele>
        <time>2018-12-29T12:17:41Z</time>
      </trkpt>
      <trkpt lat="44.85288" lon="6.71879">
        <ele>1889.61</ele>
        <time>2018-12-29T12:17:46Z</time>
      </trkpt>
      <trkpt lat="44.85286" lon="6.71886">
        <ele>1889.61</ele>
        <time>2018-12-29T12:17:56Z</time>
      </trkpt>
      <trkpt lat="44.85299" lon="6.719">
        <ele>1886.72</ele>
        <time>2018-12-29T12:18:05Z</time>
      </trkpt>
      <trkpt lat="44.85299" lon="6.71906">
        <ele>1884.8</ele>
        <time>2018-12-29T12:18:15Z</time>
      </trkpt>
      <trkpt lat="44.85299" lon="6.71919">
        <ele>1883.84</ele>
        <time>2018-12-29T12:18:31Z</time>
      </trkpt>
      <trkpt lat="44.85307" lon="6.71928">
        <ele>1881.44</ele>
        <time>2018-12-29T12:18:36Z</time>
      </trkpt>
      <trkpt lat="44.85305" lon="6.71935">
        <ele>1880.48</ele>
        <time>2018-12-29T12:18:45Z</time>
      </trkpt>
      <trkpt lat="44.85303" lon="6.71953">
        <ele>1878.07</ele>
        <time>2018-12-29T12:18:51Z</time>
      </trkpt>
      <trkpt lat="44.85302" lon="6.71971">
        <ele>1875.67</ele>
        <time>2018-12-29T12:18:55Z</time>
      </trkpt>
      <trkpt lat="44.853" lon="6.71981">
        <ele>1874.71</ele>
        <time>2018-12-29T12:18:57Z</time>
      </trkpt>
      <trkpt lat="44.8529" lon="6.71987">
        <ele>1874.71</ele>
        <time>2018-12-29T12:19:10Z</time>
      </trkpt>
      <trkpt lat="44.8529" lon="6.71989">
        <ele>1874.23</ele>
        <time>2018-12-29T12:19:32Z</time>
      </trkpt>
      <trkpt lat="44.85292" lon="6.71991">
        <ele>1874.23</ele>
        <time>2018-12-29T12:19:34Z</time>
      </trkpt>
      <trkpt lat="44.85312" lon="6.71993">
        <ele>1871.34</ele>
        <time>2018-12-29T12:19:43Z</time>
      </trkpt>
      <trkpt lat="44.85327" lon="6.71997">
        <ele>1868.94</ele>
        <time>2018-12-29T12:19:48Z</time>
      </trkpt>
      <trkpt lat="44.85325" lon="6.72013">
        <ele>1866.06</ele>
        <time>2018-12-29T12:19:58Z</time>
      </trkpt>
      <trkpt lat="44.85324" lon="6.72015">
        <ele>1866.54</ele>
        <time>2018-12-29T12:20:15Z</time>
      </trkpt>
      <trkpt lat="44.85321" lon="6.72016">
        <ele>1866.06</ele>
        <time>2018-12-29T12:20:30Z</time>
      </trkpt>
      <trkpt lat="44.85329" lon="6.72023">
        <ele>1864.13</ele>
        <time>2018-12-29T12:20:36Z</time>
      </trkpt>
      <trkpt lat="44.85336" lon="6.72025">
        <ele>1860.77</ele>
        <time>2018-12-29T12:20:45Z</time>
      </trkpt>
      <trkpt lat="44.85335" lon="6.72025">
        <ele>1859.81</ele>
        <time>2018-12-29T12:20:46Z</time>
      </trkpt>
      <trkpt lat="44.85331" lon="6.7203">
        <ele>1858.85</ele>
        <time>2018-12-29T12:20:47Z</time>
      </trkpt>
      <trkpt lat="44.85329" lon="6.72033">
        <ele>1857.89</ele>
        <time>2018-12-29T12:20:48Z</time>
      </trkpt>
      <trkpt lat="44.85343" lon="6.72082">
        <ele>1854.04</ele>
        <time>2018-12-29T12:20:56Z</time>
      </trkpt>
      <trkpt lat="44.85342" lon="6.72085">
        <ele>1854.04</ele>
        <time>2018-12-29T12:20:57Z</time>
      </trkpt>
      <trkpt lat="44.85343" lon="6.7209">
        <ele>1854.04</ele>
        <time>2018-12-29T12:21:00Z</time>
      </trkpt>
      <trkpt lat="44.85345" lon="6.72095">
        <ele>1854.04</ele>
        <time>2018-12-29T12:21:02Z</time>
      </trkpt>
      <trkpt lat="44.85352" lon="6.72119">
        <ele>1850.19</ele>
        <time>2018-12-29T12:21:06Z</time>
      </trkpt>
      <trkpt lat="44.85354" lon="6.72138">
        <ele>1848.75</ele>
        <time>2018-12-29T12:21:10Z</time>
      </trkpt>
      <trkpt lat="44.85369" lon="6.7213">
        <ele>1847.79</ele>
        <time>2018-12-29T12:21:17Z</time>
      </trkpt>
      <trkpt lat="44.85377" lon="6.72126">
        <ele>1846.83</ele>
        <time>2018-12-29T12:21:30Z</time>
      </trkpt>
      <trkpt lat="44.85378" lon="6.72128">
        <ele>1846.35</ele>
        <time>2018-12-29T12:21:35Z</time>
      </trkpt>
      <trkpt lat="44.85386" lon="6.72132">
        <ele>1845.87</ele>
        <time>2018-12-29T12:21:39Z</time>
      </trkpt>
      <trkpt lat="44.854" lon="6.72157">
        <ele>1842.02</ele>
        <time>2018-12-29T12:21:46Z</time>
      </trkpt>
      <trkpt lat="44.85397" lon="6.72167">
        <ele>1839.62</ele>
        <time>2018-12-29T12:21:49Z</time>
      </trkpt>
      <trkpt lat="44.85395" lon="6.7217">
        <ele>1839.14</ele>
        <time>2018-12-29T12:21:50Z</time>
      </trkpt>
      <trkpt lat="44.85386" lon="6.72215">
        <ele>1836.26</ele>
        <time>2018-12-29T12:21:59Z</time>
      </trkpt>
      <trkpt lat="44.85388" lon="6.72221">
        <ele>1835.77</ele>
        <time>2018-12-29T12:22:01Z</time>
      </trkpt>
      <trkpt lat="44.85401" lon="6.72215">
        <ele>1832.89</ele>
        <time>2018-12-29T12:22:09Z</time>
      </trkpt>
      <trkpt lat="44.85401" lon="6.72216">
        <ele>1832.89</ele>
        <time>2018-12-29T12:22:10Z</time>
      </trkpt>
      <trkpt lat="44.85408" lon="6.72219">
        <ele>1831.45</ele>
        <time>2018-12-29T12:22:14Z</time>
      </trkpt>
      <trkpt lat="44.85411" lon="6.72239">
        <ele>1829.05</ele>
        <time>2018-12-29T12:22:18Z</time>
      </trkpt>
      <trkpt lat="44.85412" lon="6.72261">
        <ele>1827.12</ele>
        <time>2018-12-29T12:22:23Z</time>
      </trkpt>
      <trkpt lat="44.85417" lon="6.72272">
        <ele>1826.16</ele>
        <time>2018-12-29T12:22:26Z</time>
      </trkpt>
      <trkpt lat="44.8542" lon="6.72272">
        <ele>1825.68</ele>
        <time>2018-12-29T12:22:27Z</time>
      </trkpt>
      <trkpt lat="44.85444" lon="6.72268">
        <ele>1823.76</ele>
        <time>2018-12-29T12:22:34Z</time>
      </trkpt>
      <trkpt lat="44.85449" lon="6.72292">
        <ele>1820.39</ele>
        <time>2018-12-29T12:22:38Z</time>
      </trkpt>
      <trkpt lat="44.85443" lon="6.72295">
        <ele>1819.43</ele>
        <time>2018-12-29T12:22:47Z</time>
      </trkpt>
      <trkpt lat="44.85445" lon="6.72298">
        <ele>1819.91</ele>
        <time>2018-12-29T12:23:06Z</time>
      </trkpt>
      <trkpt lat="44.85445" lon="6.72296">
        <ele>1819.91</ele>
        <time>2018-12-29T12:23:24Z</time>
      </trkpt>
      <trkpt lat="44.85449" lon="6.72293">
        <ele>1819.91</ele>
        <time>2018-12-29T12:23:43Z</time>
      </trkpt>
      <trkpt lat="44.85451" lon="6.72294">
        <ele>1819.43</ele>
        <time>2018-12-29T12:24:01Z</time>
      </trkpt>
      <trkpt lat="44.85446" lon="6.72297">
        <ele>1819.43</ele>
        <time>2018-12-29T12:24:27Z</time>
      </trkpt>
      <trkpt lat="44.85463" lon="6.72305">
        <ele>1817.03</ele>
        <time>2018-12-29T12:24:35Z</time>
      </trkpt>
      <trkpt lat="44.85488" lon="6.72296">
        <ele>1814.15</ele>
        <time>2018-12-29T12:24:45Z</time>
      </trkpt>
      <trkpt lat="44.85494" lon="6.72324">
        <ele>1809.34</ele>
        <time>2018-12-29T12:24:50Z</time>
      </trkpt>
      <trkpt lat="44.85493" lon="6.72332">
        <ele>1808.86</ele>
        <time>2018-12-29T12:24:51Z</time>
      </trkpt>
      <trkpt lat="44.85493" lon="6.72353">
        <ele>1806.94</ele>
        <time>2018-12-29T12:24:54Z</time>
      </trkpt>
      <trkpt lat="44.85502" lon="6.72372">
        <ele>1805.49</ele>
        <time>2018-12-29T12:24:58Z</time>
      </trkpt>
      <trkpt lat="44.85524" lon="6.72375">
        <ele>1802.13</ele>
        <time>2018-12-29T12:25:04Z</time>
      </trkpt>
      <trkpt lat="44.85527" lon="6.72376">
        <ele>1801.65</ele>
        <time>2018-12-29T12:25:05Z</time>
      </trkpt>
      <trkpt lat="44.85537" lon="6.72394">
        <ele>1797.8</ele>
        <time>2018-12-29T12:25:09Z</time>
      </trkpt>
      <trkpt lat="44.8554" lon="6.72397">
        <ele>1797.32</ele>
        <time>2018-12-29T12:25:10Z</time>
      </trkpt>
      <trkpt lat="44.85549" lon="6.72413">
        <ele>1793.96</ele>
        <time>2018-12-29T12:25:13Z</time>
      </trkpt>
      <trkpt lat="44.85552" lon="6.72428">
        <ele>1791.55</ele>
        <time>2018-12-29T12:25:16Z</time>
      </trkpt>
      <trkpt lat="44.85559" lon="6.72456">
        <ele>1788.19</ele>
        <time>2018-12-29T12:25:20Z</time>
      </trkpt>
      <trkpt lat="44.85585" lon="6.72478">
        <ele>1783.86</ele>
        <time>2018-12-29T12:25:26Z</time>
      </trkpt>
      <trkpt lat="44.85598" lon="6.72499">
        <ele>1780.02</ele>
        <time>2018-12-29T12:25:30Z</time>
      </trkpt>
      <trkpt lat="44.85599" lon="6.72522">
        <ele>1778.58</ele>
        <time>2018-12-29T12:25:34Z</time>
      </trkpt>
      <trkpt lat="44.85607" lon="6.72531">
        <ele>1777.13</ele>
        <time>2018-12-29T12:25:36Z</time>
      </trkpt>
      <trkpt lat="44.85625" lon="6.72521">
        <ele>1775.69</ele>
        <time>2018-12-29T12:25:40Z</time>
      </trkpt>
      <trkpt lat="44.85628" lon="6.7251">
        <ele>1775.69</ele>
        <time>2018-12-29T12:25:49Z</time>
      </trkpt>
      <trkpt lat="44.85627" lon="6.72504">
        <ele>1775.69</ele>
        <time>2018-12-29T12:26:07Z</time>
      </trkpt>
      <trkpt lat="44.85632" lon="6.72505">
        <ele>1775.69</ele>
        <time>2018-12-29T12:26:24Z</time>
      </trkpt>
      <trkpt lat="44.85633" lon="6.72508">
        <ele>1775.69</ele>
        <time>2018-12-29T12:26:48Z</time>
      </trkpt>
      <trkpt lat="44.85632" lon="6.72508">
        <ele>1775.21</ele>
        <time>2018-12-29T12:27:05Z</time>
      </trkpt>
      <trkpt lat="44.85632" lon="6.7251">
        <ele>1775.21</ele>
        <time>2018-12-29T12:27:13Z</time>
      </trkpt>
      <trkpt lat="44.8563" lon="6.72536">
        <ele>1772.33</ele>
        <time>2018-12-29T12:27:20Z</time>
      </trkpt>
      <trkpt lat="44.85635" lon="6.72541">
        <ele>1770.89</ele>
        <time>2018-12-29T12:27:24Z</time>
      </trkpt>
      <trkpt lat="44.8564" lon="6.72542">
        <ele>1770.41</ele>
        <time>2018-12-29T12:27:26Z</time>
      </trkpt>
      <trkpt lat="44.85653" lon="6.7255">
        <ele>1768.96</ele>
        <time>2018-12-29T12:27:31Z</time>
      </trkpt>
      <trkpt lat="44.85669" lon="6.72559">
        <ele>1767.04</ele>
        <time>2018-12-29T12:27:35Z</time>
      </trkpt>
      <trkpt lat="44.85682" lon="6.72561">
        <ele>1765.6</ele>
        <time>2018-12-29T12:27:38Z</time>
      </trkpt>
      <trkpt lat="44.85689" lon="6.72592">
        <ele>1761.75</ele>
        <time>2018-12-29T12:27:45Z</time>
      </trkpt>
      <trkpt lat="44.85702" lon="6.72596">
        <ele>1759.83</ele>
        <time>2018-12-29T12:27:50Z</time>
      </trkpt>
      <trkpt lat="44.85708" lon="6.72594">
        <ele>1759.35</ele>
        <time>2018-12-29T12:27:52Z</time>
      </trkpt>
      <trkpt lat="44.85716" lon="6.726">
        <ele>1755.99</ele>
        <time>2018-12-29T12:28:00Z</time>
      </trkpt>
      <trkpt lat="44.8572" lon="6.72599">
        <ele>1755.5</ele>
        <time>2018-12-29T12:28:11Z</time>
      </trkpt>
      <trkpt lat="44.85719" lon="6.72601">
        <ele>1755.02</ele>
        <time>2018-12-29T12:28:28Z</time>
      </trkpt>
      <trkpt lat="44.8572" lon="6.72601">
        <ele>1755.02</ele>
        <time>2018-12-29T12:28:45Z</time>
      </trkpt>
      <trkpt lat="44.85716" lon="6.72602">
        <ele>1755.02</ele>
        <time>2018-12-29T12:29:00Z</time>
      </trkpt>
      <trkpt lat="44.85716" lon="6.72603">
        <ele>1755.02</ele>
        <time>2018-12-29T12:29:16Z</time>
      </trkpt>
      <trkpt lat="44.85719" lon="6.72602">
        <ele>1754.54</ele>
        <time>2018-12-29T12:29:18Z</time>
      </trkpt>
      <trkpt lat="44.85724" lon="6.72599">
        <ele>1754.54</ele>
        <time>2018-12-29T12:29:22Z</time>
      </trkpt>
      <trkpt lat="44.85734" lon="6.7259">
        <ele>1753.58</ele>
        <time>2018-12-29T12:29:33Z</time>
      </trkpt>
      <trkpt lat="44.85743" lon="6.72581">
        <ele>1752.62</ele>
        <time>2018-12-29T12:29:44Z</time>
      </trkpt>
      <trkpt lat="44.85745" lon="6.72577">
        <ele>1752.62</ele>
        <time>2018-12-29T12:29:48Z</time>
      </trkpt>
      <trkpt lat="44.85752" lon="6.72568">
        <ele>1751.66</ele>
        <time>2018-12-29T12:30:03Z</time>
      </trkpt>
      <trkpt lat="44.85752" lon="6.72567">
        <ele>1751.66</ele>
        <time>2018-12-29T12:30:26Z</time>
      </trkpt>
      <trkpt lat="44.85753" lon="6.72567">
        <ele>1751.18</ele>
        <time>2018-12-29T12:30:43Z</time>
      </trkpt>
      <trkpt lat="44.85762" lon="6.72562">
        <ele>1750.7</ele>
        <time>2018-12-29T12:30:57Z</time>
      </trkpt>
      <trkpt lat="44.85763" lon="6.72553">
        <ele>1750.22</ele>
        <time>2018-12-29T12:31:12Z</time>
      </trkpt>
      <trkpt lat="44.85762" lon="6.72557">
        <ele>1750.22</ele>
        <time>2018-12-29T12:31:30Z</time>
      </trkpt>
      <trkpt lat="44.85764" lon="6.72559">
        <ele>1750.22</ele>
        <time>2018-12-29T12:31:50Z</time>
      </trkpt>
      <trkpt lat="44.8576" lon="6.72556">
        <ele>1750.22</ele>
        <time>2018-12-29T12:32:07Z</time>
      </trkpt>
      <trkpt lat="44.85762" lon="6.72561">
        <ele>1749.26</ele>
        <time>2018-12-29T12:32:24Z</time>
      </trkpt>
      <trkpt lat="44.85762" lon="6.72557">
        <ele>1749.26</ele>
        <time>2018-12-29T12:32:39Z</time>
      </trkpt>
      <trkpt lat="44.85764" lon="6.72563">
        <ele>1749.26</ele>
        <time>2018-12-29T12:32:59Z</time>
      </trkpt>
      <trkpt lat="44.85764" lon="6.72558">
        <ele>1749.26</ele>
        <time>2018-12-29T12:33:19Z</time>
      </trkpt>
      <trkpt lat="44.85767" lon="6.7256">
        <ele>1748.78</ele>
        <time>2018-12-29T12:33:39Z</time>
      </trkpt>
      <trkpt lat="44.85765" lon="6.7256">
        <ele>1749.26</ele>
        <time>2018-12-29T12:34:04Z</time>
      </trkpt>
      <trkpt lat="44.85768" lon="6.72557">
        <ele>1748.78</ele>
        <time>2018-12-29T12:34:25Z</time>
      </trkpt>
      <trkpt lat="44.8577" lon="6.72559">
        <ele>1748.78</ele>
        <time>2018-12-29T12:34:44Z</time>
      </trkpt>
      <trkpt lat="44.85768" lon="6.72558">
        <ele>1748.78</ele>
        <time>2018-12-29T12:35:04Z</time>
      </trkpt>
      <trkpt lat="44.85767" lon="6.7256">
        <ele>1748.78</ele>
        <time>2018-12-29T12:35:26Z</time>
      </trkpt>
      <trkpt lat="44.85766" lon="6.7256">
        <ele>1748.78</ele>
        <time>2018-12-29T12:35:53Z</time>
      </trkpt>
      <trkpt lat="44.85767" lon="6.7256">
        <ele>1748.78</ele>
        <time>2018-12-29T12:36:16Z</time>
      </trkpt>
      <trkpt lat="44.85767" lon="6.72559">
        <ele>1748.78</ele>
        <time>2018-12-29T12:36:38Z</time>
      </trkpt>
      <trkpt lat="44.85766" lon="6.7256">
        <ele>1748.78</ele>
        <time>2018-12-29T12:37:02Z</time>
      </trkpt>
      <trkpt lat="44.85766" lon="6.72558">
        <ele>1748.29</ele>
        <time>2018-12-29T12:37:26Z</time>
      </trkpt>
      <trkpt lat="44.85765" lon="6.72558">
        <ele>1750.22</ele>
        <time>2018-12-29T12:37:50Z</time>
      </trkpt>
      <trkpt lat="44.85765" lon="6.72558">
        <ele>1748.29</ele>
        <time>2018-12-29T12:37:52Z</time>
      </trkpt>
      <trkpt lat="44.85766" lon="6.72557">
        <ele>1748.29</ele>
        <time>2018-12-29T12:38:16Z</time>
      </trkpt>
      <trkpt lat="44.85765" lon="6.72559">
        <ele>1748.29</ele>
        <time>2018-12-29T12:38:46Z</time>
      </trkpt>
      <trkpt lat="44.85767" lon="6.7256">
        <ele>1748.29</ele>
        <time>2018-12-29T12:39:19Z</time>
      </trkpt>
      <trkpt lat="44.85764" lon="6.72557">
        <ele>1747.81</ele>
        <time>2018-12-29T12:39:54Z</time>
      </trkpt>
      <trkpt lat="44.85765" lon="6.72558">
        <ele>1747.81</ele>
        <time>2018-12-29T12:40:23Z</time>
      </trkpt>
      <trkpt lat="44.85768" lon="6.72559">
        <ele>1748.29</ele>
        <time>2018-12-29T12:40:43Z</time>
      </trkpt>
      <trkpt lat="44.85769" lon="6.72558">
        <ele>1747.81</ele>
        <time>2018-12-29T12:41:05Z</time>
      </trkpt>
      <trkpt lat="44.85767" lon="6.72559">
        <ele>1747.81</ele>
        <time>2018-12-29T12:41:27Z</time>
      </trkpt>
      <trkpt lat="44.85767" lon="6.72556">
        <ele>1748.29</ele>
        <time>2018-12-29T12:41:42Z</time>
      </trkpt>
      <trkpt lat="44.85767" lon="6.72557">
        <ele>1747.81</ele>
        <time>2018-12-29T12:42:10Z</time>
      </trkpt>
      <trkpt lat="44.85768" lon="6.72558">
        <ele>1747.81</ele>
        <time>2018-12-29T12:42:35Z</time>
      </trkpt>
      <trkpt lat="44.8577" lon="6.7256">
        <ele>1747.33</ele>
        <time>2018-12-29T12:42:56Z</time>
      </trkpt>
      <trkpt lat="44.85768" lon="6.72559">
        <ele>1747.33</ele>
        <time>2018-12-29T12:43:22Z</time>
      </trkpt>
      <trkpt lat="44.8577" lon="6.72558">
        <ele>1747.81</ele>
        <time>2018-12-29T12:43:45Z</time>
      </trkpt>
      <trkpt lat="44.85771" lon="6.72557">
        <ele>1747.81</ele>
        <time>2018-12-29T12:43:56Z</time>
      </trkpt>
      <trkpt lat="44.8577" lon="6.72551">
        <ele>1747.81</ele>
        <time>2018-12-29T12:44:07Z</time>
      </trkpt>
      <trkpt lat="44.85768" lon="6.7255">
        <ele>1747.81</ele>
        <time>2018-12-29T12:44:35Z</time>
      </trkpt>
      <trkpt lat="44.85764" lon="6.72554">
        <ele>1748.29</ele>
        <time>2018-12-29T12:45:00Z</time>
      </trkpt>
      <trkpt lat="44.85763" lon="6.72552">
        <ele>1747.81</ele>
        <time>2018-12-29T12:45:28Z</time>
      </trkpt>
      <trkpt lat="44.85765" lon="6.72552">
        <ele>1747.81</ele>
        <time>2018-12-29T12:45:44Z</time>
      </trkpt>
      <trkpt lat="44.85767" lon="6.72551">
        <ele>1747.81</ele>
        <time>2018-12-29T12:46:05Z</time>
      </trkpt>
      <trkpt lat="44.85766" lon="6.72558">
        <ele>1748.29</ele>
        <time>2018-12-29T12:46:41Z</time>
      </trkpt>
      <trkpt lat="44.8577" lon="6.7256">
        <ele>1748.29</ele>
        <time>2018-12-29T12:47:14Z</time>
      </trkpt>
      <trkpt lat="44.85782" lon="6.72549">
        <ele>1748.29</ele>
        <time>2018-12-29T12:47:44Z</time>
      </trkpt>
      <trkpt lat="44.8578" lon="6.72548">
        <ele>1748.78</ele>
        <time>2018-12-29T12:48:17Z</time>
      </trkpt>
      <trkpt lat="44.85773" lon="6.72554">
        <ele>1748.78</ele>
        <time>2018-12-29T12:48:55Z</time>
      </trkpt>
      <trkpt lat="44.85769" lon="6.72558">
        <ele>1749.26</ele>
        <time>2018-12-29T12:49:36Z</time>
      </trkpt>
      <trkpt lat="44.85768" lon="6.72559">
        <ele>1749.26</ele>
        <time>2018-12-29T12:50:21Z</time>
      </trkpt>
      <trkpt lat="44.85763" lon="6.72553">
        <ele>1749.26</ele>
        <time>2018-12-29T12:51:06Z</time>
      </trkpt>
      <trkpt lat="44.85764" lon="6.72559">
        <ele>1749.26</ele>
        <time>2018-12-29T12:51:46Z</time>
      </trkpt>
      <trkpt lat="44.85761" lon="6.72557">
        <ele>1749.26</ele>
        <time>2018-12-29T12:52:27Z</time>
      </trkpt>
      <trkpt lat="44.85762" lon="6.72551">
        <ele>1749.26</ele>
        <time>2018-12-29T12:53:15Z</time>
      </trkpt>
      <trkpt lat="44.85765" lon="6.72548">
        <ele>1749.26</ele>
        <time>2018-12-29T12:53:54Z</time>
      </trkpt>
      <trkpt lat="44.85765" lon="6.72546">
        <ele>1748.78</ele>
        <time>2018-12-29T12:54:36Z</time>
      </trkpt>
    </trkseg>
  </trk>
</gpx>